<?xml version="1.0" encoding="UTF-8" standalone="no" ?>
<gpx xmlns="http://www.topografix.com/GPX/1/1" xmlns:xsi="http://www.w3.org/2001/XMLSchema-instance" xsi:schemaLocation="http://www.topografix.com/GPX/1/1 http://www.topografix.com/GPX/1/1/gpx.xsd" version="1.1" creator="VisuGPX - https://www.visugpx.com">
  <metadata>
    <name>Sillans - La faille</name>
    <desc><![CDATA[Une randonnée sur Sillans-la-Cascade. Passage par un ancien four chaux, la faille (ou diaclase). Point de vue sur la cascade et Sillans à partir de la roque Bernard. On contourne le parc photovoltaïque. Les stèles des résistants et la chapelle saint Laurent, dernier point de vue.]]></desc>
  </metadata>
  <wpt lat="43.55891" lon="6.18875">
    <ele>450.3</ele>
    <name><![CDATA[Faille]]></name>
    <type><![CDATA[patrimoine_geo]]></type>
  </wpt>
  <wpt lat="43.55894" lon="6.18972">
    <ele>436.3</ele>
    <name><![CDATA[Faille]]></name>
    <type><![CDATA[patrimoine_geo]]></type>
  </wpt>
  <wpt lat="43.55875" lon="6.19039">
    <ele>429.3</ele>
    <name><![CDATA[Faille]]></name>
    <type><![CDATA[patrimoine_geo]]></type>
  </wpt>
  <wpt lat="43.55858" lon="6.19149">
    <ele>404.7</ele>
    <name><![CDATA[Four à chaux]]></name>
    <type><![CDATA[patrimoine_rural]]></type>
  </wpt>
  <trk>
    <name><![CDATA[Sillans - La faille]]></name>
    <extensions>
      <line xmlns="http://www.topografix.com/GPX/gpx_style/0/2">
        <color>ff0000</color>
        <width>4</width>
      </line>
    </extensions>
    <trkseg>
      <trkpt lat="43.56683" lon="6.17818">
        <ele>378</ele>
        <time>2023-01-29T12:34:16Z</time>
      </trkpt>
      <trkpt lat="43.5668" lon="6.1782">
        <ele>378</ele>
        <time>2023-01-29T12:35:40Z</time>
      </trkpt>
      <trkpt lat="43.5668" lon="6.17831">
        <ele>377.6</ele>
        <time>2023-01-29T12:35:49Z</time>
      </trkpt>
      <trkpt lat="43.56681" lon="6.17832">
        <ele>377.5</ele>
        <time>2023-01-29T12:35:50Z</time>
      </trkpt>
      <trkpt lat="43.56681" lon="6.17841">
        <ele>376.9</ele>
        <time>2023-01-29T12:35:57Z</time>
      </trkpt>
      <trkpt lat="43.5668" lon="6.17843">
        <ele>376.8</ele>
        <time>2023-01-29T12:35:58Z</time>
      </trkpt>
      <trkpt lat="43.5668" lon="6.17854">
        <ele>376</ele>
        <time>2023-01-29T12:36:08Z</time>
      </trkpt>
      <trkpt lat="43.56682" lon="6.17857">
        <ele>375.8</ele>
        <time>2023-01-29T12:36:11Z</time>
      </trkpt>
      <trkpt lat="43.56684" lon="6.17864">
        <ele>375.6</ele>
        <time>2023-01-29T12:36:16Z</time>
      </trkpt>
      <trkpt lat="43.56686" lon="6.17883">
        <ele>375.5</ele>
        <time>2023-01-29T12:36:27Z</time>
      </trkpt>
      <trkpt lat="43.56685" lon="6.17885">
        <ele>375.4</ele>
        <time>2023-01-29T12:36:28Z</time>
      </trkpt>
      <trkpt lat="43.56685" lon="6.17904">
        <ele>375</ele>
        <time>2023-01-29T12:36:43Z</time>
      </trkpt>
      <trkpt lat="43.56686" lon="6.17905">
        <ele>375</ele>
        <time>2023-01-29T12:36:44Z</time>
      </trkpt>
      <trkpt lat="43.56685" lon="6.17906">
        <ele>374.9</ele>
        <time>2023-01-29T12:36:45Z</time>
      </trkpt>
      <trkpt lat="43.56685" lon="6.17916">
        <ele>374.7</ele>
        <time>2023-01-29T12:36:52Z</time>
      </trkpt>
      <trkpt lat="43.56684" lon="6.17918">
        <ele>374.5</ele>
        <time>2023-01-29T12:36:54Z</time>
      </trkpt>
      <trkpt lat="43.56685" lon="6.17919">
        <ele>374.6</ele>
        <time>2023-01-29T12:36:55Z</time>
      </trkpt>
      <trkpt lat="43.56684" lon="6.17921">
        <ele>374.5</ele>
        <time>2023-01-29T12:36:56Z</time>
      </trkpt>
      <trkpt lat="43.56684" lon="6.17931">
        <ele>374.5</ele>
        <time>2023-01-29T12:37:04Z</time>
      </trkpt>
      <trkpt lat="43.56682" lon="6.17937">
        <ele>374.2</ele>
        <time>2023-01-29T12:37:08Z</time>
      </trkpt>
      <trkpt lat="43.56682" lon="6.17943">
        <ele>374.2</ele>
        <time>2023-01-29T12:37:12Z</time>
      </trkpt>
      <trkpt lat="43.56681" lon="6.17944">
        <ele>374.1</ele>
        <time>2023-01-29T12:37:13Z</time>
      </trkpt>
      <trkpt lat="43.56681" lon="6.17951">
        <ele>374.1</ele>
        <time>2023-01-29T12:37:18Z</time>
      </trkpt>
      <trkpt lat="43.5668" lon="6.17952">
        <ele>373.9</ele>
        <time>2023-01-29T12:37:19Z</time>
      </trkpt>
      <trkpt lat="43.5668" lon="6.17957">
        <ele>373.9</ele>
        <time>2023-01-29T12:37:22Z</time>
      </trkpt>
      <trkpt lat="43.56677" lon="6.17971">
        <ele>373.2</ele>
        <time>2023-01-29T12:37:31Z</time>
      </trkpt>
      <trkpt lat="43.56676" lon="6.17972">
        <ele>373</ele>
        <time>2023-01-29T12:37:32Z</time>
      </trkpt>
      <trkpt lat="43.56676" lon="6.17977">
        <ele>373</ele>
        <time>2023-01-29T12:37:36Z</time>
      </trkpt>
      <trkpt lat="43.56675" lon="6.17979">
        <ele>372.7</ele>
        <time>2023-01-29T12:37:37Z</time>
      </trkpt>
      <trkpt lat="43.56674" lon="6.17992">
        <ele>372.4</ele>
        <time>2023-01-29T12:37:46Z</time>
      </trkpt>
      <trkpt lat="43.56673" lon="6.17994">
        <ele>372.2</ele>
        <time>2023-01-29T12:37:48Z</time>
      </trkpt>
      <trkpt lat="43.5667" lon="6.17996">
        <ele>371.6</ele>
        <time>2023-01-29T12:37:51Z</time>
      </trkpt>
      <trkpt lat="43.56661" lon="6.17995">
        <ele>370.8</ele>
        <time>2023-01-29T12:37:57Z</time>
      </trkpt>
      <trkpt lat="43.56659" lon="6.17996">
        <ele>370.7</ele>
        <time>2023-01-29T12:37:58Z</time>
      </trkpt>
      <trkpt lat="43.56654" lon="6.17996">
        <ele>370.5</ele>
        <time>2023-01-29T12:38:02Z</time>
      </trkpt>
      <trkpt lat="43.56654" lon="6.17997">
        <ele>370.5</ele>
        <time>2023-01-29T12:38:03Z</time>
      </trkpt>
      <trkpt lat="43.56646" lon="6.18">
        <ele>370.3</ele>
        <time>2023-01-29T12:38:10Z</time>
      </trkpt>
      <trkpt lat="43.56631" lon="6.18001">
        <ele>369.7</ele>
        <time>2023-01-29T12:38:23Z</time>
      </trkpt>
      <trkpt lat="43.5663" lon="6.18">
        <ele>369.7</ele>
        <time>2023-01-29T12:38:24Z</time>
      </trkpt>
      <trkpt lat="43.56629" lon="6.18001">
        <ele>369.6</ele>
        <time>2023-01-29T12:38:25Z</time>
      </trkpt>
      <trkpt lat="43.56626" lon="6.18001">
        <ele>369.5</ele>
        <time>2023-01-29T12:38:27Z</time>
      </trkpt>
      <trkpt lat="43.56625" lon="6.18002">
        <ele>369.5</ele>
        <time>2023-01-29T12:38:28Z</time>
      </trkpt>
      <trkpt lat="43.56613" lon="6.18003">
        <ele>369.1</ele>
        <time>2023-01-29T12:38:37Z</time>
      </trkpt>
      <trkpt lat="43.56605" lon="6.18001">
        <ele>368.8</ele>
        <time>2023-01-29T12:38:43Z</time>
      </trkpt>
      <trkpt lat="43.56604" lon="6.18002">
        <ele>368.7</ele>
        <time>2023-01-29T12:38:44Z</time>
      </trkpt>
      <trkpt lat="43.566" lon="6.18002">
        <ele>368.6</ele>
        <time>2023-01-29T12:38:48Z</time>
      </trkpt>
      <trkpt lat="43.56599" lon="6.18003">
        <ele>368.6</ele>
        <time>2023-01-29T12:38:49Z</time>
      </trkpt>
      <trkpt lat="43.56587" lon="6.18005">
        <ele>368.1</ele>
        <time>2023-01-29T12:38:59Z</time>
      </trkpt>
      <trkpt lat="43.56577" lon="6.18005">
        <ele>367.8</ele>
        <time>2023-01-29T12:39:08Z</time>
      </trkpt>
      <trkpt lat="43.56576" lon="6.18004">
        <ele>367.8</ele>
        <time>2023-01-29T12:39:09Z</time>
      </trkpt>
      <trkpt lat="43.56571" lon="6.18004">
        <ele>367.6</ele>
        <time>2023-01-29T12:39:14Z</time>
      </trkpt>
      <trkpt lat="43.56569" lon="6.18005">
        <ele>367.6</ele>
        <time>2023-01-29T12:39:16Z</time>
      </trkpt>
      <trkpt lat="43.56568" lon="6.18004">
        <ele>367.5</ele>
        <time>2023-01-29T12:39:17Z</time>
      </trkpt>
      <trkpt lat="43.56556" lon="6.18007">
        <ele>367.3</ele>
        <time>2023-01-29T12:39:27Z</time>
      </trkpt>
      <trkpt lat="43.56548" lon="6.18004">
        <ele>366.9</ele>
        <time>2023-01-29T12:39:34Z</time>
      </trkpt>
      <trkpt lat="43.56545" lon="6.18">
        <ele>366.6</ele>
        <time>2023-01-29T12:39:38Z</time>
      </trkpt>
      <trkpt lat="43.56542" lon="6.18">
        <ele>366.5</ele>
        <time>2023-01-29T12:39:41Z</time>
      </trkpt>
      <trkpt lat="43.56541" lon="6.17999">
        <ele>366.5</ele>
        <time>2023-01-29T12:39:42Z</time>
      </trkpt>
      <trkpt lat="43.56538" lon="6.18001">
        <ele>366.4</ele>
        <time>2023-01-29T12:39:45Z</time>
      </trkpt>
      <trkpt lat="43.56532" lon="6.17999">
        <ele>366.1</ele>
        <time>2023-01-29T12:39:52Z</time>
      </trkpt>
      <trkpt lat="43.56527" lon="6.17999">
        <ele>366</ele>
        <time>2023-01-29T12:39:57Z</time>
      </trkpt>
      <trkpt lat="43.56519" lon="6.18004">
        <ele>366.1</ele>
        <time>2023-01-29T12:40:04Z</time>
      </trkpt>
      <trkpt lat="43.56516" lon="6.18013">
        <ele>366.3</ele>
        <time>2023-01-29T12:40:09Z</time>
      </trkpt>
      <trkpt lat="43.56516" lon="6.18017">
        <ele>366.4</ele>
        <time>2023-01-29T12:40:12Z</time>
      </trkpt>
      <trkpt lat="43.56514" lon="6.18024">
        <ele>366.4</ele>
        <time>2023-01-29T12:40:17Z</time>
      </trkpt>
      <trkpt lat="43.56513" lon="6.18035">
        <ele>366.3</ele>
        <time>2023-01-29T12:40:24Z</time>
      </trkpt>
      <trkpt lat="43.56511" lon="6.18041">
        <ele>366.2</ele>
        <time>2023-01-29T12:40:28Z</time>
      </trkpt>
      <trkpt lat="43.56511" lon="6.18048">
        <ele>366.1</ele>
        <time>2023-01-29T12:40:32Z</time>
      </trkpt>
      <trkpt lat="43.5651" lon="6.18049">
        <ele>366.1</ele>
        <time>2023-01-29T12:40:33Z</time>
      </trkpt>
      <trkpt lat="43.56508" lon="6.18067">
        <ele>366</ele>
        <time>2023-01-29T12:40:44Z</time>
      </trkpt>
      <trkpt lat="43.56506" lon="6.18075">
        <ele>366</ele>
        <time>2023-01-29T12:40:49Z</time>
      </trkpt>
      <trkpt lat="43.56505" lon="6.1809">
        <ele>366</ele>
        <time>2023-01-29T12:40:57Z</time>
      </trkpt>
      <trkpt lat="43.56501" lon="6.18103">
        <ele>366</ele>
        <time>2023-01-29T12:41:06Z</time>
      </trkpt>
      <trkpt lat="43.56501" lon="6.1811">
        <ele>366</ele>
        <time>2023-01-29T12:41:11Z</time>
      </trkpt>
      <trkpt lat="43.565" lon="6.18111">
        <ele>366</ele>
        <time>2023-01-29T12:41:12Z</time>
      </trkpt>
      <trkpt lat="43.56499" lon="6.18122">
        <ele>366</ele>
        <time>2023-01-29T12:41:19Z</time>
      </trkpt>
      <trkpt lat="43.56497" lon="6.18128">
        <ele>366</ele>
        <time>2023-01-29T12:41:23Z</time>
      </trkpt>
      <trkpt lat="43.56496" lon="6.18146">
        <ele>366</ele>
        <time>2023-01-29T12:41:34Z</time>
      </trkpt>
      <trkpt lat="43.56494" lon="6.18153">
        <ele>366</ele>
        <time>2023-01-29T12:41:38Z</time>
      </trkpt>
      <trkpt lat="43.56494" lon="6.1816">
        <ele>366</ele>
        <time>2023-01-29T12:41:42Z</time>
      </trkpt>
      <trkpt lat="43.56493" lon="6.18161">
        <ele>366</ele>
        <time>2023-01-29T12:41:43Z</time>
      </trkpt>
      <trkpt lat="43.56493" lon="6.18172">
        <ele>366</ele>
        <time>2023-01-29T12:41:49Z</time>
      </trkpt>
      <trkpt lat="43.56489" lon="6.18181">
        <ele>366.2</ele>
        <time>2023-01-29T12:41:54Z</time>
      </trkpt>
      <trkpt lat="43.56486" lon="6.18194">
        <ele>366.5</ele>
        <time>2023-01-29T12:42:04Z</time>
      </trkpt>
      <trkpt lat="43.56481" lon="6.18205">
        <ele>366.1</ele>
        <time>2023-01-29T12:42:11Z</time>
      </trkpt>
      <trkpt lat="43.56481" lon="6.18209">
        <ele>365.8</ele>
        <time>2023-01-29T12:42:14Z</time>
      </trkpt>
      <trkpt lat="43.56478" lon="6.1822">
        <ele>365.5</ele>
        <time>2023-01-29T12:42:21Z</time>
      </trkpt>
      <trkpt lat="43.56476" lon="6.18222">
        <ele>365.6</ele>
        <time>2023-01-29T12:42:23Z</time>
      </trkpt>
      <trkpt lat="43.56473" lon="6.18232">
        <ele>365.2</ele>
        <time>2023-01-29T12:42:29Z</time>
      </trkpt>
      <trkpt lat="43.56463" lon="6.18238">
        <ele>363.9</ele>
        <time>2023-01-29T12:42:39Z</time>
      </trkpt>
      <trkpt lat="43.56456" lon="6.1825">
        <ele>362.8</ele>
        <time>2023-01-29T12:42:49Z</time>
      </trkpt>
      <trkpt lat="43.56456" lon="6.18271">
        <ele>361.4</ele>
        <time>2023-01-29T12:43:02Z</time>
      </trkpt>
      <trkpt lat="43.56454" lon="6.18278">
        <ele>361</ele>
        <time>2023-01-29T12:43:06Z</time>
      </trkpt>
      <trkpt lat="43.56452" lon="6.18281">
        <ele>360.8</ele>
        <time>2023-01-29T12:43:08Z</time>
      </trkpt>
      <trkpt lat="43.56452" lon="6.18283">
        <ele>360.7</ele>
        <time>2023-01-29T12:43:09Z</time>
      </trkpt>
      <trkpt lat="43.56448" lon="6.18286">
        <ele>360.6</ele>
        <time>2023-01-29T12:43:13Z</time>
      </trkpt>
      <trkpt lat="43.56439" lon="6.18288">
        <ele>360.5</ele>
        <time>2023-01-29T12:43:19Z</time>
      </trkpt>
      <trkpt lat="43.56435" lon="6.18282">
        <ele>360.6</ele>
        <time>2023-01-29T12:43:23Z</time>
      </trkpt>
      <trkpt lat="43.56435" lon="6.18279">
        <ele>360.6</ele>
        <time>2023-01-29T12:43:25Z</time>
      </trkpt>
      <trkpt lat="43.56434" lon="6.18278">
        <ele>360.6</ele>
        <time>2023-01-29T12:43:26Z</time>
      </trkpt>
      <trkpt lat="43.56435" lon="6.18266">
        <ele>360.9</ele>
        <time>2023-01-29T12:43:33Z</time>
      </trkpt>
      <trkpt lat="43.56436" lon="6.18264">
        <ele>361</ele>
        <time>2023-01-29T12:43:34Z</time>
      </trkpt>
      <trkpt lat="43.56436" lon="6.18237">
        <ele>361.4</ele>
        <time>2023-01-29T12:43:50Z</time>
      </trkpt>
      <trkpt lat="43.56437" lon="6.18236">
        <ele>361.5</ele>
        <time>2023-01-29T12:43:51Z</time>
      </trkpt>
      <trkpt lat="43.56436" lon="6.18221">
        <ele>361.4</ele>
        <time>2023-01-29T12:44:00Z</time>
      </trkpt>
      <trkpt lat="43.56435" lon="6.1822">
        <ele>361.4</ele>
        <time>2023-01-29T12:44:01Z</time>
      </trkpt>
      <trkpt lat="43.56435" lon="6.18207">
        <ele>361.7</ele>
        <time>2023-01-29T12:44:09Z</time>
      </trkpt>
      <trkpt lat="43.56434" lon="6.18206">
        <ele>361.6</ele>
        <time>2023-01-29T12:44:10Z</time>
      </trkpt>
      <trkpt lat="43.56434" lon="6.18196">
        <ele>361.8</ele>
        <time>2023-01-29T12:44:16Z</time>
      </trkpt>
      <trkpt lat="43.56432" lon="6.1819">
        <ele>361.8</ele>
        <time>2023-01-29T12:44:20Z</time>
      </trkpt>
      <trkpt lat="43.56427" lon="6.18186">
        <ele>361.3</ele>
        <time>2023-01-29T12:44:23Z</time>
      </trkpt>
      <trkpt lat="43.56427" lon="6.18185">
        <ele>361.4</ele>
        <time>2023-01-29T12:44:24Z</time>
      </trkpt>
      <trkpt lat="43.56424" lon="6.18183">
        <ele>361</ele>
        <time>2023-01-29T12:44:27Z</time>
      </trkpt>
      <trkpt lat="43.56419" lon="6.18183">
        <ele>360.3</ele>
        <time>2023-01-29T12:44:31Z</time>
      </trkpt>
      <trkpt lat="43.56417" lon="6.18184">
        <ele>360</ele>
        <time>2023-01-29T12:44:33Z</time>
      </trkpt>
      <trkpt lat="43.56415" lon="6.18187">
        <ele>359.5</ele>
        <time>2023-01-29T12:44:36Z</time>
      </trkpt>
      <trkpt lat="43.56413" lon="6.18198">
        <ele>359.2</ele>
        <time>2023-01-29T12:44:43Z</time>
      </trkpt>
      <trkpt lat="43.5641" lon="6.18204">
        <ele>358.9</ele>
        <time>2023-01-29T12:44:47Z</time>
      </trkpt>
      <trkpt lat="43.56408" lon="6.18205">
        <ele>358.6</ele>
        <time>2023-01-29T12:44:49Z</time>
      </trkpt>
      <trkpt lat="43.56407" lon="6.18207">
        <ele>358.7</ele>
        <time>2023-01-29T12:44:50Z</time>
      </trkpt>
      <trkpt lat="43.56397" lon="6.18215">
        <ele>358.7</ele>
        <time>2023-01-29T12:44:59Z</time>
      </trkpt>
      <trkpt lat="43.56392" lon="6.18217">
        <ele>358.8</ele>
        <time>2023-01-29T12:45:03Z</time>
      </trkpt>
      <trkpt lat="43.56379" lon="6.18216">
        <ele>357</ele>
        <time>2023-01-29T12:45:14Z</time>
      </trkpt>
      <trkpt lat="43.5637" lon="6.18214">
        <ele>355.1</ele>
        <time>2023-01-29T12:45:22Z</time>
      </trkpt>
      <trkpt lat="43.5637" lon="6.18213">
        <ele>354.7</ele>
        <time>2023-01-29T12:45:23Z</time>
      </trkpt>
      <trkpt lat="43.56368" lon="6.18213">
        <ele>354.4</ele>
        <time>2023-01-29T12:45:26Z</time>
      </trkpt>
      <trkpt lat="43.56368" lon="6.18214">
        <ele>354.8</ele>
        <time>2023-01-29T12:45:27Z</time>
      </trkpt>
      <trkpt lat="43.56366" lon="6.18215">
        <ele>354.9</ele>
        <time>2023-01-29T12:45:30Z</time>
      </trkpt>
      <trkpt lat="43.56365" lon="6.18218">
        <ele>355.8</ele>
        <time>2023-01-29T12:45:33Z</time>
      </trkpt>
      <trkpt lat="43.56364" lon="6.18218">
        <ele>355.7</ele>
        <time>2023-01-29T12:45:34Z</time>
      </trkpt>
      <trkpt lat="43.56362" lon="6.18223">
        <ele>357.2</ele>
        <time>2023-01-29T12:45:38Z</time>
      </trkpt>
      <trkpt lat="43.5636" lon="6.18224">
        <ele>356.7</ele>
        <time>2023-01-29T12:45:40Z</time>
      </trkpt>
      <trkpt lat="43.56359" lon="6.18227">
        <ele>356.5</ele>
        <time>2023-01-29T12:45:43Z</time>
      </trkpt>
      <trkpt lat="43.56357" lon="6.18228">
        <ele>355.8</ele>
        <time>2023-01-29T12:45:44Z</time>
      </trkpt>
      <trkpt lat="43.56351" lon="6.18238">
        <ele>354.5</ele>
        <time>2023-01-29T12:45:50Z</time>
      </trkpt>
      <trkpt lat="43.56351" lon="6.18241">
        <ele>354.8</ele>
        <time>2023-01-29T12:45:52Z</time>
      </trkpt>
      <trkpt lat="43.5635" lon="6.18242">
        <ele>354.6</ele>
        <time>2023-01-29T12:45:53Z</time>
      </trkpt>
      <trkpt lat="43.5635" lon="6.18246">
        <ele>355</ele>
        <time>2023-01-29T12:45:55Z</time>
      </trkpt>
      <trkpt lat="43.56347" lon="6.18253">
        <ele>354.7</ele>
        <time>2023-01-29T12:45:58Z</time>
      </trkpt>
      <trkpt lat="43.56346" lon="6.18253">
        <ele>354.4</ele>
        <time>2023-01-29T12:45:59Z</time>
      </trkpt>
      <trkpt lat="43.56345" lon="6.18258">
        <ele>354.6</ele>
        <time>2023-01-29T12:46:04Z</time>
      </trkpt>
      <trkpt lat="43.5634" lon="6.18263">
        <ele>353.7</ele>
        <time>2023-01-29T12:46:11Z</time>
      </trkpt>
      <trkpt lat="43.56338" lon="6.1827">
        <ele>354</ele>
        <time>2023-01-29T12:46:17Z</time>
      </trkpt>
      <trkpt lat="43.56333" lon="6.18278">
        <ele>353.9</ele>
        <time>2023-01-29T12:46:24Z</time>
      </trkpt>
      <trkpt lat="43.5633" lon="6.18279">
        <ele>352.8</ele>
        <time>2023-01-29T12:46:26Z</time>
      </trkpt>
      <trkpt lat="43.56319" lon="6.18289">
        <ele>349</ele>
        <time>2023-01-29T12:46:35Z</time>
      </trkpt>
      <trkpt lat="43.56317" lon="6.18297">
        <ele>348.5</ele>
        <time>2023-01-29T12:46:40Z</time>
      </trkpt>
      <trkpt lat="43.56317" lon="6.18306">
        <ele>348.7</ele>
        <time>2023-01-29T12:46:45Z</time>
      </trkpt>
      <trkpt lat="43.56313" lon="6.18315">
        <ele>347.5</ele>
        <time>2023-01-29T12:46:51Z</time>
      </trkpt>
      <trkpt lat="43.56313" lon="6.18318">
        <ele>347.5</ele>
        <time>2023-01-29T12:46:54Z</time>
      </trkpt>
      <trkpt lat="43.56312" lon="6.18318">
        <ele>347.2</ele>
        <time>2023-01-29T12:46:55Z</time>
      </trkpt>
      <trkpt lat="43.56312" lon="6.18321">
        <ele>347.3</ele>
        <time>2023-01-29T12:46:58Z</time>
      </trkpt>
      <trkpt lat="43.56308" lon="6.18324">
        <ele>346.3</ele>
        <time>2023-01-29T12:47:03Z</time>
      </trkpt>
      <trkpt lat="43.56303" lon="6.18335">
        <ele>344.9</ele>
        <time>2023-01-29T12:47:12Z</time>
      </trkpt>
      <trkpt lat="43.56303" lon="6.18351">
        <ele>343.3</ele>
        <time>2023-01-29T12:47:23Z</time>
      </trkpt>
      <trkpt lat="43.563" lon="6.18354">
        <ele>342.1</ele>
        <time>2023-01-29T12:47:26Z</time>
      </trkpt>
      <trkpt lat="43.56297" lon="6.18354">
        <ele>341.1</ele>
        <time>2023-01-29T12:47:28Z</time>
      </trkpt>
      <trkpt lat="43.56294" lon="6.18357">
        <ele>340</ele>
        <time>2023-01-29T12:47:31Z</time>
      </trkpt>
      <trkpt lat="43.56288" lon="6.18356">
        <ele>338.3</ele>
        <time>2023-01-29T12:47:37Z</time>
      </trkpt>
      <trkpt lat="43.56287" lon="6.18357">
        <ele>337.9</ele>
        <time>2023-01-29T12:47:38Z</time>
      </trkpt>
      <trkpt lat="43.56284" lon="6.18357">
        <ele>337</ele>
        <time>2023-01-29T12:47:42Z</time>
      </trkpt>
      <trkpt lat="43.56277" lon="6.18351">
        <ele>335.4</ele>
        <time>2023-01-29T12:47:48Z</time>
      </trkpt>
      <trkpt lat="43.5627" lon="6.18351">
        <ele>335.8</ele>
        <time>2023-01-29T12:47:53Z</time>
      </trkpt>
      <trkpt lat="43.56268" lon="6.18353">
        <ele>335.9</ele>
        <time>2023-01-29T12:47:55Z</time>
      </trkpt>
      <trkpt lat="43.56265" lon="6.18353">
        <ele>336.1</ele>
        <time>2023-01-29T12:47:57Z</time>
      </trkpt>
      <trkpt lat="43.5626" lon="6.1836">
        <ele>336.3</ele>
        <time>2023-01-29T12:48:01Z</time>
      </trkpt>
      <trkpt lat="43.56259" lon="6.1836">
        <ele>336.4</ele>
        <time>2023-01-29T12:48:02Z</time>
      </trkpt>
      <trkpt lat="43.56259" lon="6.18361">
        <ele>336.4</ele>
        <time>2023-01-29T12:48:03Z</time>
      </trkpt>
      <trkpt lat="43.56255" lon="6.18362">
        <ele>336.6</ele>
        <time>2023-01-29T12:48:06Z</time>
      </trkpt>
      <trkpt lat="43.56255" lon="6.18361">
        <ele>336.6</ele>
        <time>2023-01-29T12:48:07Z</time>
      </trkpt>
      <trkpt lat="43.56254" lon="6.18363">
        <ele>336.5</ele>
        <time>2023-01-29T12:48:09Z</time>
      </trkpt>
      <trkpt lat="43.56252" lon="6.18364">
        <ele>336.6</ele>
        <time>2023-01-29T12:48:11Z</time>
      </trkpt>
      <trkpt lat="43.5625" lon="6.18374">
        <ele>336.1</ele>
        <time>2023-01-29T12:48:15Z</time>
      </trkpt>
      <trkpt lat="43.56247" lon="6.18379">
        <ele>336.3</ele>
        <time>2023-01-29T12:48:18Z</time>
      </trkpt>
      <trkpt lat="43.56245" lon="6.18389">
        <ele>336.1</ele>
        <time>2023-01-29T12:48:24Z</time>
      </trkpt>
      <trkpt lat="43.56247" lon="6.18401">
        <ele>336.2</ele>
        <time>2023-01-29T12:48:31Z</time>
      </trkpt>
      <trkpt lat="43.5625" lon="6.18409">
        <ele>335.7</ele>
        <time>2023-01-29T12:48:36Z</time>
      </trkpt>
      <trkpt lat="43.56251" lon="6.18422">
        <ele>336.1</ele>
        <time>2023-01-29T12:48:45Z</time>
      </trkpt>
      <trkpt lat="43.56253" lon="6.18425">
        <ele>335.8</ele>
        <time>2023-01-29T12:48:48Z</time>
      </trkpt>
      <trkpt lat="43.56254" lon="6.18431">
        <ele>335.9</ele>
        <time>2023-01-29T12:48:52Z</time>
      </trkpt>
      <trkpt lat="43.56256" lon="6.18433">
        <ele>335.5</ele>
        <time>2023-01-29T12:48:54Z</time>
      </trkpt>
      <trkpt lat="43.56259" lon="6.18441">
        <ele>335.2</ele>
        <time>2023-01-29T12:49:01Z</time>
      </trkpt>
      <trkpt lat="43.5626" lon="6.18441">
        <ele>334.9</ele>
        <time>2023-01-29T12:49:02Z</time>
      </trkpt>
      <trkpt lat="43.5626" lon="6.18445">
        <ele>335</ele>
        <time>2023-01-29T12:49:06Z</time>
      </trkpt>
      <trkpt lat="43.56261" lon="6.18445">
        <ele>334.7</ele>
        <time>2023-01-29T12:49:07Z</time>
      </trkpt>
      <trkpt lat="43.56262" lon="6.18447">
        <ele>334</ele>
        <time>2023-01-29T12:49:10Z</time>
      </trkpt>
      <trkpt lat="43.56265" lon="6.18447">
        <ele>333.2</ele>
        <time>2023-01-29T12:49:26Z</time>
      </trkpt>
      <trkpt lat="43.56268" lon="6.18439">
        <ele>332.6</ele>
        <time>2023-01-29T12:49:52Z</time>
      </trkpt>
      <trkpt lat="43.56272" lon="6.18439">
        <ele>331.4</ele>
        <time>2023-01-29T12:49:58Z</time>
      </trkpt>
      <trkpt lat="43.56246" lon="6.1848">
        <ele>333</ele>
      </trkpt>
      <trkpt lat="43.56232" lon="6.1851">
        <ele>334.4</ele>
      </trkpt>
      <trkpt lat="43.56226" lon="6.18547">
        <ele>335.7</ele>
      </trkpt>
      <trkpt lat="43.56227" lon="6.18579">
        <ele>331.2</ele>
      </trkpt>
      <trkpt lat="43.5621" lon="6.18606">
        <ele>332.4</ele>
      </trkpt>
      <trkpt lat="43.56201" lon="6.18635">
        <ele>332.8</ele>
      </trkpt>
      <trkpt lat="43.56192" lon="6.18673">
        <ele>332.1</ele>
      </trkpt>
      <trkpt lat="43.56176" lon="6.18699">
        <ele>333.9</ele>
      </trkpt>
      <trkpt lat="43.56146" lon="6.18774">
        <ele>330.8</ele>
      </trkpt>
      <trkpt lat="43.56134" lon="6.18799">
        <ele>330.5</ele>
      </trkpt>
      <trkpt lat="43.56112" lon="6.18837">
        <ele>331.3</ele>
      </trkpt>
      <trkpt lat="43.56093" lon="6.1894">
        <ele>330.9</ele>
      </trkpt>
      <trkpt lat="43.56077" lon="6.19005">
        <ele>324.9</ele>
      </trkpt>
      <trkpt lat="43.56081" lon="6.19031">
        <ele>321.4</ele>
      </trkpt>
      <trkpt lat="43.5609" lon="6.19051">
        <ele>318</ele>
      </trkpt>
      <trkpt lat="43.56089" lon="6.19073">
        <ele>316.4</ele>
      </trkpt>
      <trkpt lat="43.56083" lon="6.1911">
        <ele>315.2</ele>
      </trkpt>
      <trkpt lat="43.56086" lon="6.19138">
        <ele>316.3</ele>
      </trkpt>
      <trkpt lat="43.56095" lon="6.1915">
        <ele>316</ele>
      </trkpt>
      <trkpt lat="43.561" lon="6.19162">
        <ele>315.8</ele>
      </trkpt>
      <trkpt lat="43.56112" lon="6.19174">
        <ele>313.2</ele>
      </trkpt>
      <trkpt lat="43.56119" lon="6.19189">
        <ele>314.5</ele>
      </trkpt>
      <trkpt lat="43.56124" lon="6.19205">
        <ele>316.7</ele>
      </trkpt>
      <trkpt lat="43.56128" lon="6.19223">
        <ele>319.6</ele>
      </trkpt>
      <trkpt lat="43.5613" lon="6.19234">
        <ele>320.6</ele>
      </trkpt>
      <trkpt lat="43.5613" lon="6.19242">
        <ele>322.2</ele>
      </trkpt>
      <trkpt lat="43.56128" lon="6.19254">
        <ele>323.8</ele>
      </trkpt>
      <trkpt lat="43.56122" lon="6.1926">
        <ele>325.8</ele>
      </trkpt>
      <trkpt lat="43.56108" lon="6.1927">
        <ele>329.5</ele>
      </trkpt>
      <trkpt lat="43.561" lon="6.19275">
        <ele>332.5</ele>
      </trkpt>
      <trkpt lat="43.56091" lon="6.1927">
        <ele>337.3</ele>
      </trkpt>
      <trkpt lat="43.56083" lon="6.19258">
        <ele>341.4</ele>
      </trkpt>
      <trkpt lat="43.56066" lon="6.19243">
        <ele>348.1</ele>
      </trkpt>
      <trkpt lat="43.56074" lon="6.19288">
        <ele>343.6</ele>
      </trkpt>
      <trkpt lat="43.56089" lon="6.19323">
        <ele>340.5</ele>
      </trkpt>
      <trkpt lat="43.56099" lon="6.19353">
        <ele>339</ele>
      </trkpt>
      <trkpt lat="43.56099" lon="6.19384">
        <ele>337.9</ele>
      </trkpt>
      <trkpt lat="43.56104" lon="6.19408">
        <ele>337.4</ele>
      </trkpt>
      <trkpt lat="43.56114" lon="6.19421">
        <ele>336</ele>
      </trkpt>
      <trkpt lat="43.56123" lon="6.19433">
        <ele>334.2</ele>
      </trkpt>
      <trkpt lat="43.5613" lon="6.19445">
        <ele>333.9</ele>
      </trkpt>
      <trkpt lat="43.5613" lon="6.19459">
        <ele>332.9</ele>
      </trkpt>
      <trkpt lat="43.56137" lon="6.19468">
        <ele>331.7</ele>
      </trkpt>
      <trkpt lat="43.56144" lon="6.19473">
        <ele>329.7</ele>
      </trkpt>
      <trkpt lat="43.56151" lon="6.19471">
        <ele>328.1</ele>
      </trkpt>
      <trkpt lat="43.56156" lon="6.19478">
        <ele>326.9</ele>
      </trkpt>
      <trkpt lat="43.56169" lon="6.19474">
        <ele>323</ele>
      </trkpt>
      <trkpt lat="43.56173" lon="6.1948">
        <ele>321.9</ele>
      </trkpt>
      <trkpt lat="43.56178" lon="6.19486">
        <ele>320.9</ele>
      </trkpt>
      <trkpt lat="43.56188" lon="6.19493">
        <ele>319.2</ele>
      </trkpt>
      <trkpt lat="43.56182" lon="6.195">
        <ele>322.5</ele>
      </trkpt>
      <trkpt lat="43.56172" lon="6.19497">
        <ele>324.5</ele>
      </trkpt>
      <trkpt lat="43.56163" lon="6.19501">
        <ele>326.9</ele>
      </trkpt>
      <trkpt lat="43.56156" lon="6.1951">
        <ele>329.7</ele>
        <time>2023-01-29T13:55:42Z</time>
      </trkpt>
      <trkpt lat="43.56155" lon="6.1952">
        <ele>331.2</ele>
      </trkpt>
      <trkpt lat="43.56159" lon="6.19525">
        <ele>332.3</ele>
        <time>2023-01-29T13:56:46Z</time>
      </trkpt>
      <trkpt lat="43.56161" lon="6.19528">
        <ele>332.8</ele>
        <time>2023-01-29T13:56:48Z</time>
      </trkpt>
      <trkpt lat="43.56163" lon="6.19527">
        <ele>332.7</ele>
        <time>2023-01-29T13:56:50Z</time>
      </trkpt>
      <trkpt lat="43.56167" lon="6.19528">
        <ele>332.9</ele>
        <time>2023-01-29T13:56:58Z</time>
      </trkpt>
      <trkpt lat="43.56167" lon="6.19529">
        <ele>333</ele>
        <time>2023-01-29T13:56:59Z</time>
      </trkpt>
      <trkpt lat="43.56168" lon="6.19529">
        <ele>332.7</ele>
        <time>2023-01-29T13:57:00Z</time>
      </trkpt>
      <trkpt lat="43.56169" lon="6.19531">
        <ele>332.6</ele>
        <time>2023-01-29T13:57:02Z</time>
      </trkpt>
      <trkpt lat="43.5617" lon="6.19531">
        <ele>332.3</ele>
        <time>2023-01-29T13:57:03Z</time>
      </trkpt>
      <trkpt lat="43.56172" lon="6.19534">
        <ele>332.2</ele>
        <time>2023-01-29T13:57:07Z</time>
      </trkpt>
      <trkpt lat="43.56174" lon="6.19535">
        <ele>331.7</ele>
        <time>2023-01-29T13:57:09Z</time>
      </trkpt>
      <trkpt lat="43.56176" lon="6.1954">
        <ele>332</ele>
        <time>2023-01-29T13:57:14Z</time>
      </trkpt>
      <trkpt lat="43.56187" lon="6.19556">
        <ele>333.1</ele>
        <time>2023-01-29T13:57:33Z</time>
      </trkpt>
      <trkpt lat="43.56188" lon="6.19556">
        <ele>333</ele>
        <time>2023-01-29T13:57:37Z</time>
      </trkpt>
      <trkpt lat="43.56192" lon="6.19573">
        <ele>336.3</ele>
        <time>2023-01-29T13:57:54Z</time>
      </trkpt>
      <trkpt lat="43.56191" lon="6.19575">
        <ele>336.7</ele>
        <time>2023-01-29T13:57:56Z</time>
      </trkpt>
      <trkpt lat="43.56192" lon="6.19578">
        <ele>337.4</ele>
        <time>2023-01-29T13:58:00Z</time>
      </trkpt>
      <trkpt lat="43.56191" lon="6.19579">
        <ele>337.6</ele>
        <time>2023-01-29T13:58:01Z</time>
      </trkpt>
      <trkpt lat="43.56191" lon="6.19586">
        <ele>338.7</ele>
        <time>2023-01-29T13:58:08Z</time>
      </trkpt>
      <trkpt lat="43.56192" lon="6.19588">
        <ele>338.9</ele>
        <time>2023-01-29T13:58:12Z</time>
      </trkpt>
      <trkpt lat="43.56186" lon="6.19588">
        <ele>338</ele>
        <time>2023-01-29T13:58:22Z</time>
      </trkpt>
      <trkpt lat="43.56186" lon="6.19589">
        <ele>338</ele>
        <time>2023-01-29T13:58:24Z</time>
      </trkpt>
      <trkpt lat="43.56185" lon="6.19589">
        <ele>337.8</ele>
        <time>2023-01-29T13:58:25Z</time>
      </trkpt>
      <trkpt lat="43.56185" lon="6.19597">
        <ele>338.1</ele>
        <time>2023-01-29T13:58:37Z</time>
      </trkpt>
      <trkpt lat="43.56186" lon="6.19598">
        <ele>338.4</ele>
        <time>2023-01-29T13:58:38Z</time>
      </trkpt>
      <trkpt lat="43.56186" lon="6.19609">
        <ele>338.8</ele>
        <time>2023-01-29T13:58:47Z</time>
      </trkpt>
      <trkpt lat="43.56185" lon="6.19611">
        <ele>338.6</ele>
        <time>2023-01-29T13:58:48Z</time>
      </trkpt>
      <trkpt lat="43.56176" lon="6.19615">
        <ele>335.9</ele>
        <time>2023-01-29T14:00:49Z</time>
      </trkpt>
      <trkpt lat="43.56176" lon="6.19614">
        <ele>336</ele>
        <time>2023-01-29T14:00:50Z</time>
      </trkpt>
      <trkpt lat="43.56175" lon="6.19614">
        <ele>335.8</ele>
        <time>2023-01-29T14:00:51Z</time>
      </trkpt>
      <trkpt lat="43.56175" lon="6.19613">
        <ele>335.9</ele>
        <time>2023-01-29T14:00:52Z</time>
      </trkpt>
      <trkpt lat="43.56171" lon="6.19611">
        <ele>335.1</ele>
        <time>2023-01-29T14:00:57Z</time>
      </trkpt>
      <trkpt lat="43.56171" lon="6.1961">
        <ele>335.1</ele>
        <time>2023-01-29T14:00:58Z</time>
      </trkpt>
      <trkpt lat="43.56166" lon="6.19609">
        <ele>334</ele>
        <time>2023-01-29T14:01:03Z</time>
      </trkpt>
      <trkpt lat="43.56146" lon="6.19598">
        <ele>332.2</ele>
        <time>2023-01-29T14:03:05Z</time>
      </trkpt>
      <trkpt lat="43.56141" lon="6.19586">
        <ele>332.1</ele>
        <time>2023-01-29T14:03:16Z</time>
      </trkpt>
      <trkpt lat="43.56137" lon="6.19584">
        <ele>332</ele>
        <time>2023-01-29T14:03:20Z</time>
      </trkpt>
      <trkpt lat="43.56129" lon="6.19577">
        <ele>332.2</ele>
        <time>2023-01-29T14:03:28Z</time>
      </trkpt>
      <trkpt lat="43.56128" lon="6.19575">
        <ele>332.3</ele>
        <time>2023-01-29T14:03:30Z</time>
      </trkpt>
      <trkpt lat="43.56119" lon="6.19569">
        <ele>332.5</ele>
        <time>2023-01-29T14:03:39Z</time>
      </trkpt>
      <trkpt lat="43.56119" lon="6.19567">
        <ele>332.6</ele>
        <time>2023-01-29T14:03:40Z</time>
      </trkpt>
      <trkpt lat="43.56107" lon="6.1956">
        <ele>333</ele>
        <time>2023-01-29T14:03:50Z</time>
      </trkpt>
      <trkpt lat="43.56107" lon="6.19559">
        <ele>333</ele>
        <time>2023-01-29T14:03:51Z</time>
      </trkpt>
      <trkpt lat="43.56089" lon="6.19547">
        <ele>334.1</ele>
        <time>2023-01-29T14:04:08Z</time>
      </trkpt>
      <trkpt lat="43.56089" lon="6.19546">
        <ele>334.1</ele>
        <time>2023-01-29T14:04:09Z</time>
      </trkpt>
      <trkpt lat="43.56086" lon="6.19544">
        <ele>334.3</ele>
        <time>2023-01-29T14:04:12Z</time>
      </trkpt>
      <trkpt lat="43.56086" lon="6.19543">
        <ele>334.4</ele>
        <time>2023-01-29T14:04:13Z</time>
      </trkpt>
      <trkpt lat="43.56079" lon="6.19537">
        <ele>334.9</ele>
        <time>2023-01-29T14:04:20Z</time>
      </trkpt>
      <trkpt lat="43.56077" lon="6.19534">
        <ele>335.1</ele>
        <time>2023-01-29T14:04:23Z</time>
      </trkpt>
      <trkpt lat="43.56077" lon="6.19532">
        <ele>335.1</ele>
        <time>2023-01-29T14:04:24Z</time>
      </trkpt>
      <trkpt lat="43.56072" lon="6.19525">
        <ele>335.5</ele>
        <time>2023-01-29T14:04:30Z</time>
      </trkpt>
      <trkpt lat="43.56069" lon="6.19523">
        <ele>335.8</ele>
        <time>2023-01-29T14:04:32Z</time>
      </trkpt>
      <trkpt lat="43.56069" lon="6.19522">
        <ele>335.8</ele>
        <time>2023-01-29T14:04:33Z</time>
      </trkpt>
      <trkpt lat="43.56068" lon="6.19522">
        <ele>335.9</ele>
        <time>2023-01-29T14:04:34Z</time>
      </trkpt>
      <trkpt lat="43.56066" lon="6.19519">
        <ele>336.1</ele>
        <time>2023-01-29T14:04:36Z</time>
      </trkpt>
      <trkpt lat="43.56057" lon="6.19514">
        <ele>336.9</ele>
        <time>2023-01-29T14:04:44Z</time>
      </trkpt>
      <trkpt lat="43.56056" lon="6.19512">
        <ele>337.1</ele>
        <time>2023-01-29T14:04:46Z</time>
      </trkpt>
      <trkpt lat="43.56053" lon="6.19511">
        <ele>337.4</ele>
        <time>2023-01-29T14:04:49Z</time>
      </trkpt>
      <trkpt lat="43.56052" lon="6.19509">
        <ele>337.6</ele>
        <time>2023-01-29T14:04:51Z</time>
      </trkpt>
      <trkpt lat="43.56051" lon="6.19509">
        <ele>337.7</ele>
        <time>2023-01-29T14:04:52Z</time>
      </trkpt>
      <trkpt lat="43.56051" lon="6.19508">
        <ele>337.8</ele>
        <time>2023-01-29T14:04:53Z</time>
      </trkpt>
      <trkpt lat="43.56049" lon="6.19508">
        <ele>338</ele>
        <time>2023-01-29T14:04:55Z</time>
      </trkpt>
      <trkpt lat="43.56049" lon="6.19507">
        <ele>338</ele>
        <time>2023-01-29T14:04:56Z</time>
      </trkpt>
      <trkpt lat="43.56044" lon="6.19506">
        <ele>338.5</ele>
        <time>2023-01-29T14:05:02Z</time>
      </trkpt>
      <trkpt lat="43.56033" lon="6.19498">
        <ele>339.8</ele>
        <time>2023-01-29T14:05:13Z</time>
      </trkpt>
      <trkpt lat="43.56033" lon="6.19497">
        <ele>339.9</ele>
        <time>2023-01-29T14:05:14Z</time>
      </trkpt>
      <trkpt lat="43.5603" lon="6.19495">
        <ele>340.4</ele>
        <time>2023-01-29T14:05:16Z</time>
      </trkpt>
      <trkpt lat="43.5603" lon="6.19494">
        <ele>340.5</ele>
        <time>2023-01-29T14:05:17Z</time>
      </trkpt>
      <trkpt lat="43.56026" lon="6.19491">
        <ele>341.1</ele>
        <time>2023-01-29T14:05:21Z</time>
      </trkpt>
      <trkpt lat="43.56026" lon="6.1949">
        <ele>341.2</ele>
        <time>2023-01-29T14:05:22Z</time>
      </trkpt>
      <trkpt lat="43.56015" lon="6.19485">
        <ele>342.3</ele>
        <time>2023-01-29T14:05:34Z</time>
      </trkpt>
      <trkpt lat="43.5601" lon="6.19478">
        <ele>343.1</ele>
        <time>2023-01-29T14:05:42Z</time>
      </trkpt>
      <trkpt lat="43.56009" lon="6.19478">
        <ele>343.2</ele>
        <time>2023-01-29T14:05:43Z</time>
      </trkpt>
      <trkpt lat="43.56009" lon="6.19477">
        <ele>343.3</ele>
        <time>2023-01-29T14:05:44Z</time>
      </trkpt>
      <trkpt lat="43.56007" lon="6.19476">
        <ele>343.4</ele>
        <time>2023-01-29T14:05:46Z</time>
      </trkpt>
      <trkpt lat="43.56007" lon="6.19475">
        <ele>343.5</ele>
        <time>2023-01-29T14:05:47Z</time>
      </trkpt>
      <trkpt lat="43.56006" lon="6.19475">
        <ele>343.6</ele>
        <time>2023-01-29T14:05:48Z</time>
      </trkpt>
      <trkpt lat="43.56005" lon="6.19472">
        <ele>343.8</ele>
        <time>2023-01-29T14:05:51Z</time>
      </trkpt>
      <trkpt lat="43.56004" lon="6.19472">
        <ele>343.9</ele>
        <time>2023-01-29T14:05:52Z</time>
      </trkpt>
      <trkpt lat="43.56" lon="6.19458">
        <ele>345.5</ele>
        <time>2023-01-29T14:06:02Z</time>
      </trkpt>
      <trkpt lat="43.56" lon="6.19447">
        <ele>346.7</ele>
        <time>2023-01-29T14:06:12Z</time>
      </trkpt>
      <trkpt lat="43.55999" lon="6.19446">
        <ele>346.9</ele>
        <time>2023-01-29T14:06:13Z</time>
      </trkpt>
      <trkpt lat="43.56" lon="6.19445">
        <ele>346.9</ele>
        <time>2023-01-29T14:06:14Z</time>
      </trkpt>
      <trkpt lat="43.56" lon="6.1944">
        <ele>347.6</ele>
        <time>2023-01-29T14:06:18Z</time>
      </trkpt>
      <trkpt lat="43.55999" lon="6.19439">
        <ele>347.8</ele>
        <time>2023-01-29T14:06:19Z</time>
      </trkpt>
      <trkpt lat="43.55999" lon="6.19434">
        <ele>348.5</ele>
        <time>2023-01-29T14:06:23Z</time>
      </trkpt>
      <trkpt lat="43.55998" lon="6.19432">
        <ele>348.9</ele>
        <time>2023-01-29T14:06:26Z</time>
      </trkpt>
      <trkpt lat="43.55999" lon="6.19431">
        <ele>349</ele>
        <time>2023-01-29T14:06:27Z</time>
      </trkpt>
      <trkpt lat="43.55998" lon="6.1943">
        <ele>349.2</ele>
        <time>2023-01-29T14:06:28Z</time>
      </trkpt>
      <trkpt lat="43.55998" lon="6.19424">
        <ele>350</ele>
        <time>2023-01-29T14:06:33Z</time>
      </trkpt>
      <trkpt lat="43.55996" lon="6.19417">
        <ele>351.1</ele>
        <time>2023-01-29T14:06:39Z</time>
      </trkpt>
      <trkpt lat="43.55991" lon="6.19408">
        <ele>351.9</ele>
        <time>2023-01-29T14:06:48Z</time>
      </trkpt>
      <trkpt lat="43.5599" lon="6.19395">
        <ele>352.9</ele>
        <time>2023-01-29T14:06:58Z</time>
      </trkpt>
      <trkpt lat="43.55988" lon="6.19392">
        <ele>353.2</ele>
        <time>2023-01-29T14:07:01Z</time>
      </trkpt>
      <trkpt lat="43.55988" lon="6.19389">
        <ele>353.4</ele>
        <time>2023-01-29T14:07:03Z</time>
      </trkpt>
      <trkpt lat="43.55987" lon="6.19389">
        <ele>353.5</ele>
        <time>2023-01-29T14:07:04Z</time>
      </trkpt>
      <trkpt lat="43.55987" lon="6.19387">
        <ele>353.6</ele>
        <time>2023-01-29T14:07:06Z</time>
      </trkpt>
      <trkpt lat="43.55984" lon="6.19382">
        <ele>354.1</ele>
        <time>2023-01-29T14:07:12Z</time>
      </trkpt>
      <trkpt lat="43.55983" lon="6.19376">
        <ele>354.6</ele>
        <time>2023-01-29T14:07:17Z</time>
      </trkpt>
      <trkpt lat="43.55981" lon="6.19372">
        <ele>355.1</ele>
        <time>2023-01-29T14:07:21Z</time>
      </trkpt>
      <trkpt lat="43.55979" lon="6.19371">
        <ele>355.4</ele>
        <time>2023-01-29T14:07:23Z</time>
      </trkpt>
      <trkpt lat="43.55977" lon="6.19367">
        <ele>355.9</ele>
        <time>2023-01-29T14:07:27Z</time>
      </trkpt>
      <trkpt lat="43.55964" lon="6.19361">
        <ele>357.6</ele>
        <time>2023-01-29T14:07:45Z</time>
      </trkpt>
      <trkpt lat="43.55963" lon="6.19358">
        <ele>357.8</ele>
        <time>2023-01-29T14:07:50Z</time>
      </trkpt>
      <trkpt lat="43.55956" lon="6.19352">
        <ele>358.7</ele>
        <time>2023-01-29T14:08:22Z</time>
      </trkpt>
      <trkpt lat="43.55956" lon="6.1935">
        <ele>358.8</ele>
        <time>2023-01-29T14:08:24Z</time>
      </trkpt>
      <trkpt lat="43.55953" lon="6.19346">
        <ele>359.3</ele>
        <time>2023-01-29T14:08:28Z</time>
      </trkpt>
      <trkpt lat="43.55945" lon="6.19344">
        <ele>360.2</ele>
        <time>2023-01-29T14:08:35Z</time>
      </trkpt>
      <trkpt lat="43.5594" lon="6.19344">
        <ele>360.5</ele>
        <time>2023-01-29T14:08:43Z</time>
      </trkpt>
      <trkpt lat="43.55937" lon="6.1934">
        <ele>361</ele>
        <time>2023-01-29T14:09:13Z</time>
      </trkpt>
      <trkpt lat="43.55934" lon="6.19333">
        <ele>361.8</ele>
        <time>2023-01-29T14:09:17Z</time>
      </trkpt>
      <trkpt lat="43.55934" lon="6.19325">
        <ele>362.4</ele>
        <time>2023-01-29T14:09:25Z</time>
      </trkpt>
      <trkpt lat="43.55933" lon="6.19324">
        <ele>362.5</ele>
        <time>2023-01-29T14:09:26Z</time>
      </trkpt>
      <trkpt lat="43.55932" lon="6.19308">
        <ele>363.7</ele>
        <time>2023-01-29T14:09:38Z</time>
      </trkpt>
      <trkpt lat="43.55933" lon="6.19307">
        <ele>363.7</ele>
        <time>2023-01-29T14:09:39Z</time>
      </trkpt>
      <trkpt lat="43.55933" lon="6.19303">
        <ele>364</ele>
        <time>2023-01-29T14:09:43Z</time>
      </trkpt>
      <trkpt lat="43.55934" lon="6.19302">
        <ele>364</ele>
        <time>2023-01-29T14:09:44Z</time>
      </trkpt>
      <trkpt lat="43.55934" lon="6.19292">
        <ele>364.7</ele>
        <time>2023-01-29T14:09:53Z</time>
      </trkpt>
      <trkpt lat="43.55933" lon="6.19291">
        <ele>364.9</ele>
        <time>2023-01-29T14:09:54Z</time>
      </trkpt>
      <trkpt lat="43.55933" lon="6.19285">
        <ele>365.3</ele>
        <time>2023-01-29T14:10:05Z</time>
      </trkpt>
      <trkpt lat="43.55932" lon="6.19284">
        <ele>365.4</ele>
        <time>2023-01-29T14:10:07Z</time>
      </trkpt>
      <trkpt lat="43.55932" lon="6.19278">
        <ele>365.9</ele>
        <time>2023-01-29T14:10:12Z</time>
      </trkpt>
      <trkpt lat="43.55931" lon="6.19278">
        <ele>366</ele>
        <time>2023-01-29T14:10:13Z</time>
      </trkpt>
      <trkpt lat="43.5593" lon="6.19273">
        <ele>366.9</ele>
        <time>2023-01-29T14:10:20Z</time>
      </trkpt>
      <trkpt lat="43.55928" lon="6.1927">
        <ele>367.6</ele>
        <time>2023-01-29T14:10:23Z</time>
      </trkpt>
      <trkpt lat="43.55927" lon="6.1927">
        <ele>367.7</ele>
        <time>2023-01-29T14:10:24Z</time>
      </trkpt>
      <trkpt lat="43.55928" lon="6.19265">
        <ele>368.6</ele>
        <time>2023-01-29T14:10:36Z</time>
      </trkpt>
      <trkpt lat="43.55926" lon="6.19258">
        <ele>370.1</ele>
        <time>2023-01-29T14:10:42Z</time>
      </trkpt>
      <trkpt lat="43.55924" lon="6.19255">
        <ele>371</ele>
        <time>2023-01-29T14:10:44Z</time>
      </trkpt>
      <trkpt lat="43.55928" lon="6.19245">
        <ele>372.1</ele>
        <time>2023-01-29T14:10:54Z</time>
      </trkpt>
      <trkpt lat="43.55929" lon="6.19245">
        <ele>371.9</ele>
        <time>2023-01-29T14:10:55Z</time>
      </trkpt>
      <trkpt lat="43.55929" lon="6.19241">
        <ele>372.5</ele>
        <time>2023-01-29T14:10:59Z</time>
      </trkpt>
      <trkpt lat="43.5593" lon="6.19241">
        <ele>372.4</ele>
        <time>2023-01-29T14:11:00Z</time>
      </trkpt>
      <trkpt lat="43.55931" lon="6.19238">
        <ele>372.7</ele>
        <time>2023-01-29T14:11:04Z</time>
      </trkpt>
      <trkpt lat="43.55932" lon="6.19238">
        <ele>372.5</ele>
        <time>2023-01-29T14:11:05Z</time>
      </trkpt>
      <trkpt lat="43.55932" lon="6.19237">
        <ele>372.7</ele>
        <time>2023-01-29T14:11:06Z</time>
      </trkpt>
      <trkpt lat="43.55934" lon="6.19236">
        <ele>372.5</ele>
        <time>2023-01-29T14:11:10Z</time>
      </trkpt>
      <trkpt lat="43.55934" lon="6.19233">
        <ele>373</ele>
        <time>2023-01-29T14:11:15Z</time>
      </trkpt>
      <trkpt lat="43.55935" lon="6.19233">
        <ele>372.8</ele>
        <time>2023-01-29T14:11:17Z</time>
      </trkpt>
      <trkpt lat="43.55934" lon="6.19232">
        <ele>373.1</ele>
        <time>2023-01-29T14:11:18Z</time>
      </trkpt>
      <trkpt lat="43.55935" lon="6.19232">
        <ele>373</ele>
        <time>2023-01-29T14:11:19Z</time>
      </trkpt>
      <trkpt lat="43.55935" lon="6.19229">
        <ele>373.4</ele>
        <time>2023-01-29T14:11:23Z</time>
      </trkpt>
      <trkpt lat="43.55936" lon="6.19229">
        <ele>373.2</ele>
        <time>2023-01-29T14:11:24Z</time>
      </trkpt>
      <trkpt lat="43.55936" lon="6.19228">
        <ele>373.4</ele>
        <time>2023-01-29T14:11:26Z</time>
      </trkpt>
      <trkpt lat="43.55937" lon="6.19228">
        <ele>373.2</ele>
        <time>2023-01-29T14:11:27Z</time>
      </trkpt>
      <trkpt lat="43.55936" lon="6.19225">
        <ele>373.8</ele>
        <time>2023-01-29T14:11:37Z</time>
      </trkpt>
      <trkpt lat="43.55931" lon="6.19223">
        <ele>374.8</ele>
        <time>2023-01-29T14:11:42Z</time>
      </trkpt>
      <trkpt lat="43.55924" lon="6.19223">
        <ele>375.8</ele>
        <time>2023-01-29T14:11:52Z</time>
      </trkpt>
      <trkpt lat="43.55923" lon="6.19222">
        <ele>376.1</ele>
        <time>2023-01-29T14:11:53Z</time>
      </trkpt>
      <trkpt lat="43.55923" lon="6.19223">
        <ele>376</ele>
        <time>2023-01-29T14:11:54Z</time>
      </trkpt>
      <trkpt lat="43.55922" lon="6.19223">
        <ele>376.1</ele>
        <time>2023-01-29T14:11:55Z</time>
      </trkpt>
      <trkpt lat="43.55922" lon="6.19222">
        <ele>376.3</ele>
        <time>2023-01-29T14:11:56Z</time>
      </trkpt>
      <trkpt lat="43.55917" lon="6.19222">
        <ele>377</ele>
        <time>2023-01-29T14:12:02Z</time>
      </trkpt>
      <trkpt lat="43.55915" lon="6.19221">
        <ele>377.5</ele>
        <time>2023-01-29T14:12:04Z</time>
      </trkpt>
      <trkpt lat="43.55915" lon="6.1922">
        <ele>377.7</ele>
        <time>2023-01-29T14:12:05Z</time>
      </trkpt>
      <trkpt lat="43.55912" lon="6.1922">
        <ele>378.1</ele>
        <time>2023-01-29T14:12:08Z</time>
      </trkpt>
      <trkpt lat="43.55912" lon="6.19221">
        <ele>377.8</ele>
        <time>2023-01-29T14:12:09Z</time>
      </trkpt>
      <trkpt lat="43.55911" lon="6.1922">
        <ele>378.2</ele>
        <time>2023-01-29T14:12:11Z</time>
      </trkpt>
      <trkpt lat="43.55908" lon="6.1922">
        <ele>378.5</ele>
        <time>2023-01-29T14:12:14Z</time>
      </trkpt>
      <trkpt lat="43.55908" lon="6.19219">
        <ele>378.8</ele>
        <time>2023-01-29T14:12:15Z</time>
      </trkpt>
      <trkpt lat="43.55902" lon="6.19219">
        <ele>379.6</ele>
        <time>2023-01-29T14:12:21Z</time>
      </trkpt>
      <trkpt lat="43.559" lon="6.19218">
        <ele>380.2</ele>
        <time>2023-01-29T14:12:23Z</time>
      </trkpt>
      <trkpt lat="43.559" lon="6.19217">
        <ele>380.5</ele>
        <time>2023-01-29T14:12:24Z</time>
      </trkpt>
      <trkpt lat="43.55899" lon="6.19217">
        <ele>380.6</ele>
        <time>2023-01-29T14:12:25Z</time>
      </trkpt>
      <trkpt lat="43.55899" lon="6.19214">
        <ele>381.6</ele>
        <time>2023-01-29T14:13:29Z</time>
      </trkpt>
      <trkpt lat="43.55897" lon="6.19215">
        <ele>381.6</ele>
        <time>2023-01-29T14:13:35Z</time>
      </trkpt>
      <trkpt lat="43.55892" lon="6.19212">
        <ele>383.5</ele>
        <time>2023-01-29T14:13:42Z</time>
      </trkpt>
      <trkpt lat="43.55892" lon="6.19211">
        <ele>383.9</ele>
        <time>2023-01-29T14:13:43Z</time>
      </trkpt>
      <trkpt lat="43.55888" lon="6.19211">
        <ele>384.5</ele>
        <time>2023-01-29T14:13:48Z</time>
      </trkpt>
      <trkpt lat="43.55888" lon="6.1921">
        <ele>384.9</ele>
        <time>2023-01-29T14:13:49Z</time>
      </trkpt>
      <trkpt lat="43.55882" lon="6.19207">
        <ele>386.3</ele>
        <time>2023-01-29T14:13:56Z</time>
      </trkpt>
      <trkpt lat="43.5588" lon="6.19204">
        <ele>387.5</ele>
        <time>2023-01-29T14:13:59Z</time>
      </trkpt>
      <trkpt lat="43.55877" lon="6.19203">
        <ele>388</ele>
        <time>2023-01-29T14:14:02Z</time>
      </trkpt>
      <trkpt lat="43.55876" lon="6.19201">
        <ele>388.9</ele>
        <time>2023-01-29T14:14:04Z</time>
      </trkpt>
      <trkpt lat="43.55875" lon="6.19201">
        <ele>388.9</ele>
        <time>2023-01-29T14:14:05Z</time>
      </trkpt>
      <trkpt lat="43.55875" lon="6.192">
        <ele>389.3</ele>
        <time>2023-01-29T14:14:06Z</time>
      </trkpt>
      <trkpt lat="43.5587" lon="6.19196">
        <ele>391.1</ele>
        <time>2023-01-29T14:14:13Z</time>
      </trkpt>
      <trkpt lat="43.55868" lon="6.19196">
        <ele>391.1</ele>
        <time>2023-01-29T14:14:16Z</time>
      </trkpt>
      <trkpt lat="43.55867" lon="6.19193">
        <ele>392.2</ele>
        <time>2023-01-29T14:14:21Z</time>
      </trkpt>
      <trkpt lat="43.55866" lon="6.19193">
        <ele>392.3</ele>
        <time>2023-01-29T14:14:22Z</time>
      </trkpt>
      <trkpt lat="43.55865" lon="6.19191">
        <ele>392.9</ele>
        <time>2023-01-29T14:14:24Z</time>
      </trkpt>
      <trkpt lat="43.55863" lon="6.19191">
        <ele>392.9</ele>
        <time>2023-01-29T14:14:26Z</time>
      </trkpt>
      <trkpt lat="43.55863" lon="6.1919">
        <ele>393.2</ele>
        <time>2023-01-29T14:14:27Z</time>
      </trkpt>
      <trkpt lat="43.55857" lon="6.1919">
        <ele>393</ele>
        <time>2023-01-29T14:14:33Z</time>
      </trkpt>
      <trkpt lat="43.55856" lon="6.19191">
        <ele>392.6</ele>
        <time>2023-01-29T14:14:34Z</time>
      </trkpt>
      <trkpt lat="43.55855" lon="6.1919">
        <ele>392.8</ele>
        <time>2023-01-29T14:14:35Z</time>
      </trkpt>
      <trkpt lat="43.55852" lon="6.1919">
        <ele>392.6</ele>
        <time>2023-01-29T14:14:39Z</time>
      </trkpt>
      <trkpt lat="43.5585" lon="6.19188">
        <ele>393</ele>
        <time>2023-01-29T14:14:42Z</time>
      </trkpt>
      <trkpt lat="43.5585" lon="6.19186">
        <ele>393.5</ele>
        <time>2023-01-29T14:14:44Z</time>
      </trkpt>
      <trkpt lat="43.55848" lon="6.19185">
        <ele>393.6</ele>
        <time>2023-01-29T14:14:46Z</time>
      </trkpt>
      <trkpt lat="43.55847" lon="6.19183">
        <ele>394.1</ele>
        <time>2023-01-29T14:14:48Z</time>
      </trkpt>
      <trkpt lat="43.55844" lon="6.19182">
        <ele>394.1</ele>
        <time>2023-01-29T14:14:53Z</time>
      </trkpt>
      <trkpt lat="43.55844" lon="6.19183">
        <ele>393.8</ele>
        <time>2023-01-29T14:15:25Z</time>
      </trkpt>
      <trkpt lat="43.55842" lon="6.19183">
        <ele>393.6</ele>
        <time>2023-01-29T14:15:27Z</time>
      </trkpt>
      <trkpt lat="43.55841" lon="6.19178">
        <ele>394.9</ele>
        <time>2023-01-29T14:15:36Z</time>
      </trkpt>
      <trkpt lat="43.5584" lon="6.19178">
        <ele>394.8</ele>
        <time>2023-01-29T14:15:37Z</time>
      </trkpt>
      <trkpt lat="43.55842" lon="6.19174">
        <ele>396</ele>
        <time>2023-01-29T14:15:41Z</time>
      </trkpt>
      <trkpt lat="43.55842" lon="6.19165">
        <ele>398.4</ele>
        <time>2023-01-29T14:15:53Z</time>
      </trkpt>
      <trkpt lat="43.55843" lon="6.19163">
        <ele>399</ele>
        <time>2023-01-29T14:15:56Z</time>
      </trkpt>
      <trkpt lat="43.55846" lon="6.19162">
        <ele>399.6</ele>
        <time>2023-01-29T14:16:02Z</time>
      </trkpt>
      <trkpt lat="43.55846" lon="6.19161">
        <ele>399.9</ele>
        <time>2023-01-29T14:16:04Z</time>
      </trkpt>
      <trkpt lat="43.55847" lon="6.19161">
        <ele>400</ele>
        <time>2023-01-29T14:16:06Z</time>
      </trkpt>
      <trkpt lat="43.55847" lon="6.19159">
        <ele>400.5</ele>
        <time>2023-01-29T14:16:10Z</time>
      </trkpt>
      <trkpt lat="43.55847" lon="6.1916">
        <ele>400.3</ele>
        <time>2023-01-29T14:16:42Z</time>
      </trkpt>
      <trkpt lat="43.55846" lon="6.19151">
        <ele>402.6</ele>
        <time>2023-01-29T14:17:14Z</time>
      </trkpt>
      <trkpt lat="43.5585" lon="6.19148">
        <ele>403.9</ele>
        <time>2023-01-29T14:17:21Z</time>
      </trkpt>
      <trkpt lat="43.55855" lon="6.19148">
        <ele>404.6</ele>
        <time>2023-01-29T14:17:28Z</time>
      </trkpt>
      <trkpt lat="43.55855" lon="6.19149">
        <ele>404.3</ele>
        <time>2023-01-29T14:17:29Z</time>
      </trkpt>
      <trkpt lat="43.55862" lon="6.19147">
        <ele>405.7</ele>
        <time>2023-01-29T14:17:38Z</time>
      </trkpt>
      <trkpt lat="43.55857" lon="6.19138">
        <ele>407.6</ele>
        <time>2023-01-29T14:17:52Z</time>
      </trkpt>
      <trkpt lat="43.55855" lon="6.19128">
        <ele>409.5</ele>
        <time>2023-01-29T14:18:03Z</time>
      </trkpt>
      <trkpt lat="43.55854" lon="6.19128">
        <ele>409.3</ele>
        <time>2023-01-29T14:18:04Z</time>
      </trkpt>
      <trkpt lat="43.55854" lon="6.19126">
        <ele>409.8</ele>
        <time>2023-01-29T14:18:06Z</time>
      </trkpt>
      <trkpt lat="43.5585" lon="6.19126">
        <ele>409.2</ele>
        <time>2023-01-29T14:18:11Z</time>
      </trkpt>
      <trkpt lat="43.5585" lon="6.19122">
        <ele>410</ele>
        <time>2023-01-29T14:18:17Z</time>
      </trkpt>
      <trkpt lat="43.55849" lon="6.19121">
        <ele>410.1</ele>
        <time>2023-01-29T14:18:18Z</time>
      </trkpt>
      <trkpt lat="43.5585" lon="6.19116">
        <ele>411.3</ele>
        <time>2023-01-29T14:18:26Z</time>
      </trkpt>
      <trkpt lat="43.55851" lon="6.19116">
        <ele>411.5</ele>
        <time>2023-01-29T14:18:30Z</time>
      </trkpt>
      <trkpt lat="43.55851" lon="6.19115">
        <ele>411.7</ele>
        <time>2023-01-29T14:18:31Z</time>
      </trkpt>
      <trkpt lat="43.55856" lon="6.19112">
        <ele>413.1</ele>
        <time>2023-01-29T14:18:39Z</time>
      </trkpt>
      <trkpt lat="43.55856" lon="6.19109">
        <ele>413.8</ele>
        <time>2023-01-29T14:18:42Z</time>
      </trkpt>
      <trkpt lat="43.55857" lon="6.19109">
        <ele>413.9</ele>
        <time>2023-01-29T14:18:43Z</time>
      </trkpt>
      <trkpt lat="43.55857" lon="6.19108">
        <ele>414.2</ele>
        <time>2023-01-29T14:18:45Z</time>
      </trkpt>
      <trkpt lat="43.55864" lon="6.19105">
        <ele>415.6</ele>
        <time>2023-01-29T14:18:53Z</time>
      </trkpt>
      <trkpt lat="43.55864" lon="6.19104">
        <ele>415.9</ele>
        <time>2023-01-29T14:18:54Z</time>
      </trkpt>
      <trkpt lat="43.55866" lon="6.19103">
        <ele>416.2</ele>
        <time>2023-01-29T14:18:56Z</time>
      </trkpt>
      <trkpt lat="43.55866" lon="6.19102">
        <ele>416.4</ele>
        <time>2023-01-29T14:18:57Z</time>
      </trkpt>
      <trkpt lat="43.5587" lon="6.191">
        <ele>417</ele>
        <time>2023-01-29T14:19:02Z</time>
      </trkpt>
      <trkpt lat="43.5587" lon="6.19099">
        <ele>417.2</ele>
        <time>2023-01-29T14:19:03Z</time>
      </trkpt>
      <trkpt lat="43.55872" lon="6.19099">
        <ele>417.3</ele>
        <time>2023-01-29T14:19:06Z</time>
      </trkpt>
      <trkpt lat="43.55872" lon="6.19095">
        <ele>418.2</ele>
        <time>2023-01-29T14:19:12Z</time>
      </trkpt>
      <trkpt lat="43.55871" lon="6.19094">
        <ele>418.4</ele>
        <time>2023-01-29T14:19:14Z</time>
      </trkpt>
      <trkpt lat="43.55871" lon="6.19096">
        <ele>418</ele>
        <time>2023-01-29T14:19:30Z</time>
      </trkpt>
      <trkpt lat="43.55867" lon="6.19095">
        <ele>418.1</ele>
        <time>2023-01-29T14:19:36Z</time>
      </trkpt>
      <trkpt lat="43.55867" lon="6.19094">
        <ele>418.4</ele>
        <time>2023-01-29T14:19:37Z</time>
      </trkpt>
      <trkpt lat="43.55862" lon="6.19094">
        <ele>418.3</ele>
        <time>2023-01-29T14:19:42Z</time>
      </trkpt>
      <trkpt lat="43.5586" lon="6.1909">
        <ele>419.1</ele>
        <time>2023-01-29T14:19:46Z</time>
      </trkpt>
      <trkpt lat="43.55859" lon="6.1909">
        <ele>419</ele>
        <time>2023-01-29T14:19:47Z</time>
      </trkpt>
      <trkpt lat="43.55859" lon="6.19089">
        <ele>419.2</ele>
        <time>2023-01-29T14:19:48Z</time>
      </trkpt>
      <trkpt lat="43.55856" lon="6.19087">
        <ele>419.2</ele>
        <time>2023-01-29T14:19:52Z</time>
      </trkpt>
      <trkpt lat="43.55856" lon="6.19086">
        <ele>419.4</ele>
        <time>2023-01-29T14:19:53Z</time>
      </trkpt>
      <trkpt lat="43.55855" lon="6.19086">
        <ele>419.2</ele>
        <time>2023-01-29T14:19:54Z</time>
      </trkpt>
      <trkpt lat="43.55854" lon="6.19078">
        <ele>420.6</ele>
        <time>2023-01-29T14:20:02Z</time>
      </trkpt>
      <trkpt lat="43.55853" lon="6.19077">
        <ele>420.6</ele>
        <time>2023-01-29T14:20:03Z</time>
      </trkpt>
      <trkpt lat="43.55853" lon="6.1907">
        <ele>421.8</ele>
        <time>2023-01-29T14:20:10Z</time>
      </trkpt>
      <trkpt lat="43.55852" lon="6.19068">
        <ele>421.9</ele>
        <time>2023-01-29T14:20:11Z</time>
      </trkpt>
      <trkpt lat="43.55852" lon="6.19063">
        <ele>422.8</ele>
        <time>2023-01-29T14:20:16Z</time>
      </trkpt>
      <trkpt lat="43.55853" lon="6.19063">
        <ele>423</ele>
        <time>2023-01-29T14:20:17Z</time>
      </trkpt>
      <trkpt lat="43.55853" lon="6.19061">
        <ele>423.3</ele>
        <time>2023-01-29T14:20:21Z</time>
      </trkpt>
      <trkpt lat="43.55854" lon="6.19061">
        <ele>423.5</ele>
        <time>2023-01-29T14:20:22Z</time>
      </trkpt>
      <trkpt lat="43.55854" lon="6.1906">
        <ele>423.7</ele>
        <time>2023-01-29T14:20:23Z</time>
      </trkpt>
      <trkpt lat="43.55855" lon="6.1906">
        <ele>423.9</ele>
        <time>2023-01-29T14:20:24Z</time>
      </trkpt>
      <trkpt lat="43.55856" lon="6.19057">
        <ele>424.6</ele>
        <time>2023-01-29T14:20:29Z</time>
      </trkpt>
      <trkpt lat="43.55857" lon="6.19057">
        <ele>424.9</ele>
        <time>2023-01-29T14:20:30Z</time>
      </trkpt>
      <trkpt lat="43.55857" lon="6.19054">
        <ele>425.4</ele>
        <time>2023-01-29T14:20:34Z</time>
      </trkpt>
      <trkpt lat="43.5586" lon="6.19051">
        <ele>426.6</ele>
        <time>2023-01-29T14:20:40Z</time>
      </trkpt>
      <trkpt lat="43.55863" lon="6.19051">
        <ele>426.8</ele>
        <time>2023-01-29T14:20:45Z</time>
      </trkpt>
      <trkpt lat="43.55864" lon="6.19048">
        <ele>427.4</ele>
        <time>2023-01-29T14:20:50Z</time>
      </trkpt>
      <trkpt lat="43.55865" lon="6.19048">
        <ele>427.4</ele>
        <time>2023-01-29T14:20:51Z</time>
      </trkpt>
      <trkpt lat="43.55866" lon="6.19046">
        <ele>427.8</ele>
        <time>2023-01-29T14:20:54Z</time>
      </trkpt>
      <trkpt lat="43.55865" lon="6.1904">
        <ele>428.9</ele>
        <time>2023-01-29T14:21:01Z</time>
      </trkpt>
      <trkpt lat="43.55864" lon="6.1904">
        <ele>428.9</ele>
        <time>2023-01-29T14:21:05Z</time>
      </trkpt>
      <trkpt lat="43.55866" lon="6.19034">
        <ele>430</ele>
        <time>2023-01-29T14:21:12Z</time>
      </trkpt>
      <trkpt lat="43.55867" lon="6.19034">
        <ele>430</ele>
        <time>2023-01-29T14:21:13Z</time>
      </trkpt>
      <trkpt lat="43.55868" lon="6.19032">
        <ele>430.5</ele>
        <time>2023-01-29T14:21:17Z</time>
      </trkpt>
      <trkpt lat="43.55869" lon="6.19032">
        <ele>430.5</ele>
        <time>2023-01-29T14:21:19Z</time>
      </trkpt>
      <trkpt lat="43.55868" lon="6.19031">
        <ele>430.6</ele>
        <time>2023-01-29T14:21:21Z</time>
      </trkpt>
      <trkpt lat="43.55871" lon="6.19027">
        <ele>431.5</ele>
        <time>2023-01-29T14:21:28Z</time>
      </trkpt>
      <trkpt lat="43.55872" lon="6.19027">
        <ele>431.5</ele>
        <time>2023-01-29T14:21:29Z</time>
      </trkpt>
      <trkpt lat="43.55872" lon="6.19026">
        <ele>431.7</ele>
        <time>2023-01-29T14:21:30Z</time>
      </trkpt>
      <trkpt lat="43.55873" lon="6.19026">
        <ele>431.7</ele>
        <time>2023-01-29T14:21:32Z</time>
      </trkpt>
      <trkpt lat="43.55873" lon="6.19027">
        <ele>431.6</ele>
        <time>2023-01-29T14:21:34Z</time>
      </trkpt>
      <trkpt lat="43.55872" lon="6.19027">
        <ele>431.5</ele>
        <time>2023-01-29T14:21:36Z</time>
      </trkpt>
      <trkpt lat="43.55872" lon="6.19029">
        <ele>431.2</ele>
        <time>2023-01-29T14:21:42Z</time>
      </trkpt>
      <trkpt lat="43.55871" lon="6.19029">
        <ele>431.1</ele>
        <time>2023-01-29T14:21:44Z</time>
      </trkpt>
      <trkpt lat="43.55871" lon="6.19031">
        <ele>430.7</ele>
        <time>2023-01-29T14:21:48Z</time>
      </trkpt>
      <trkpt lat="43.55869" lon="6.19033">
        <ele>430.3</ele>
        <time>2023-01-29T14:21:50Z</time>
      </trkpt>
      <trkpt lat="43.55869" lon="6.19038">
        <ele>429.3</ele>
        <time>2023-01-29T14:21:58Z</time>
      </trkpt>
      <trkpt lat="43.5587" lon="6.19038">
        <ele>429.4</ele>
        <time>2023-01-29T14:22:00Z</time>
      </trkpt>
      <trkpt lat="43.5587" lon="6.19037">
        <ele>429.6</ele>
        <time>2023-01-29T14:22:02Z</time>
      </trkpt>
      <trkpt lat="43.55871" lon="6.19037">
        <ele>429.6</ele>
        <time>2023-01-29T14:22:34Z</time>
      </trkpt>
      <trkpt lat="43.55873" lon="6.19041">
        <ele>428.8</ele>
        <time>2023-01-29T14:22:56Z</time>
      </trkpt>
      <trkpt lat="43.55874" lon="6.19041">
        <ele>428.9</ele>
        <time>2023-01-29T14:23:28Z</time>
      </trkpt>
      <trkpt lat="43.55871" lon="6.19039">
        <ele>429.2</ele>
        <time>2023-01-29T14:23:55Z</time>
      </trkpt>
      <trkpt lat="43.5587" lon="6.1904">
        <ele>429</ele>
        <time>2023-01-29T14:23:56Z</time>
      </trkpt>
      <trkpt lat="43.55873" lon="6.19039">
        <ele>429.2</ele>
        <time>2023-01-29T14:24:02Z</time>
      </trkpt>
      <trkpt lat="43.55874" lon="6.19034">
        <ele>430.2</ele>
        <time>2023-01-29T14:24:34Z</time>
      </trkpt>
      <trkpt lat="43.55877" lon="6.19032">
        <ele>430.7</ele>
        <time>2023-01-29T14:24:39Z</time>
      </trkpt>
      <trkpt lat="43.55875" lon="6.19026">
        <ele>431.8</ele>
        <time>2023-01-29T14:25:03Z</time>
      </trkpt>
      <trkpt lat="43.55877" lon="6.19026">
        <ele>431.9</ele>
        <time>2023-01-29T14:25:14Z</time>
      </trkpt>
      <trkpt lat="43.5588" lon="6.19022">
        <ele>432.6</ele>
        <time>2023-01-29T14:25:19Z</time>
      </trkpt>
      <trkpt lat="43.5588" lon="6.19017">
        <ele>433.4</ele>
        <time>2023-01-29T14:25:27Z</time>
      </trkpt>
      <trkpt lat="43.55877" lon="6.19015">
        <ele>433.6</ele>
        <time>2023-01-29T14:26:33Z</time>
      </trkpt>
      <trkpt lat="43.55878" lon="6.1902">
        <ele>432.8</ele>
        <time>2023-01-29T14:27:09Z</time>
      </trkpt>
      <trkpt lat="43.55876" lon="6.19021">
        <ele>432.6</ele>
        <time>2023-01-29T14:27:12Z</time>
      </trkpt>
      <trkpt lat="43.55876" lon="6.1902">
        <ele>432.8</ele>
        <time>2023-01-29T14:27:13Z</time>
      </trkpt>
      <trkpt lat="43.55875" lon="6.1902">
        <ele>432.8</ele>
        <time>2023-01-29T14:27:14Z</time>
      </trkpt>
      <trkpt lat="43.55874" lon="6.19018">
        <ele>433.1</ele>
        <time>2023-01-29T14:27:16Z</time>
      </trkpt>
      <trkpt lat="43.55874" lon="6.19013">
        <ele>433.9</ele>
        <time>2023-01-29T14:27:24Z</time>
      </trkpt>
      <trkpt lat="43.55873" lon="6.19013">
        <ele>433.9</ele>
        <time>2023-01-29T14:27:28Z</time>
      </trkpt>
      <trkpt lat="43.55874" lon="6.19013">
        <ele>433.9</ele>
        <time>2023-01-29T14:27:30Z</time>
      </trkpt>
      <trkpt lat="43.55874" lon="6.19014">
        <ele>433.7</ele>
        <time>2023-01-29T14:27:32Z</time>
      </trkpt>
      <trkpt lat="43.55875" lon="6.19014">
        <ele>433.7</ele>
        <time>2023-01-29T14:27:36Z</time>
      </trkpt>
      <trkpt lat="43.55875" lon="6.19015">
        <ele>433.6</ele>
        <time>2023-01-29T14:28:08Z</time>
      </trkpt>
      <trkpt lat="43.55873" lon="6.19012">
        <ele>434</ele>
        <time>2023-01-29T14:28:20Z</time>
      </trkpt>
      <trkpt lat="43.55871" lon="6.19012">
        <ele>434</ele>
        <time>2023-01-29T14:28:24Z</time>
      </trkpt>
      <trkpt lat="43.5587" lon="6.19008">
        <ele>434.7</ele>
        <time>2023-01-29T14:28:29Z</time>
      </trkpt>
      <trkpt lat="43.55869" lon="6.19008">
        <ele>434.6</ele>
        <time>2023-01-29T14:28:30Z</time>
      </trkpt>
      <trkpt lat="43.55868" lon="6.19002">
        <ele>435.7</ele>
        <time>2023-01-29T14:28:35Z</time>
      </trkpt>
      <trkpt lat="43.55869" lon="6.19001">
        <ele>435.8</ele>
        <time>2023-01-29T14:28:36Z</time>
      </trkpt>
      <trkpt lat="43.5587" lon="6.18992">
        <ele>437.3</ele>
        <time>2023-01-29T14:28:46Z</time>
      </trkpt>
      <trkpt lat="43.55871" lon="6.18992">
        <ele>437.2</ele>
        <time>2023-01-29T14:28:48Z</time>
      </trkpt>
      <trkpt lat="43.55868" lon="6.18987">
        <ele>438.1</ele>
        <time>2023-01-29T14:28:59Z</time>
      </trkpt>
      <trkpt lat="43.55868" lon="6.18981">
        <ele>439.1</ele>
        <time>2023-01-29T14:29:04Z</time>
      </trkpt>
      <trkpt lat="43.55867" lon="6.1898">
        <ele>439.3</ele>
        <time>2023-01-29T14:29:06Z</time>
      </trkpt>
      <trkpt lat="43.55869" lon="6.18977">
        <ele>439.7</ele>
        <time>2023-01-29T14:29:12Z</time>
      </trkpt>
      <trkpt lat="43.55869" lon="6.18972">
        <ele>440.5</ele>
        <time>2023-01-29T14:29:20Z</time>
      </trkpt>
      <trkpt lat="43.5587" lon="6.18972">
        <ele>440.4</ele>
        <time>2023-01-29T14:29:22Z</time>
      </trkpt>
      <trkpt lat="43.5587" lon="6.18973">
        <ele>440.2</ele>
        <time>2023-01-29T14:29:24Z</time>
      </trkpt>
      <trkpt lat="43.55874" lon="6.18974">
        <ele>439.8</ele>
        <time>2023-01-29T14:29:32Z</time>
      </trkpt>
      <trkpt lat="43.55875" lon="6.18969">
        <ele>440.6</ele>
        <time>2023-01-29T14:29:52Z</time>
      </trkpt>
      <trkpt lat="43.55875" lon="6.18974">
        <ele>439.7</ele>
        <time>2023-01-29T14:30:06Z</time>
      </trkpt>
      <trkpt lat="43.55878" lon="6.18975">
        <ele>439.4</ele>
        <time>2023-01-29T14:30:15Z</time>
      </trkpt>
      <trkpt lat="43.55878" lon="6.18974">
        <ele>439.5</ele>
        <time>2023-01-29T14:30:19Z</time>
      </trkpt>
      <trkpt lat="43.55882" lon="6.18974">
        <ele>439.3</ele>
        <time>2023-01-29T14:30:43Z</time>
      </trkpt>
      <trkpt lat="43.55884" lon="6.18971">
        <ele>439.6</ele>
        <time>2023-01-29T14:30:45Z</time>
      </trkpt>
      <trkpt lat="43.55892" lon="6.18968">
        <ele>438.1</ele>
        <time>2023-01-29T14:31:13Z</time>
      </trkpt>
      <trkpt lat="43.55892" lon="6.18964">
        <ele>438.8</ele>
        <time>2023-01-29T14:31:29Z</time>
      </trkpt>
      <trkpt lat="43.55892" lon="6.18972">
        <ele>437.4</ele>
        <time>2023-01-29T14:31:45Z</time>
      </trkpt>
      <trkpt lat="43.55893" lon="6.18971">
        <ele>437</ele>
        <time>2023-01-29T14:31:49Z</time>
      </trkpt>
      <trkpt lat="43.55896" lon="6.18971">
        <ele>435.3</ele>
        <time>2023-01-29T14:31:53Z</time>
      </trkpt>
      <trkpt lat="43.55896" lon="6.1897">
        <ele>435.4</ele>
        <time>2023-01-29T14:32:01Z</time>
      </trkpt>
      <trkpt lat="43.55897" lon="6.18972">
        <ele>434.6</ele>
        <time>2023-01-29T14:32:05Z</time>
      </trkpt>
      <trkpt lat="43.55889" lon="6.18973">
        <ele>438.9</ele>
        <time>2023-01-29T14:32:23Z</time>
      </trkpt>
      <trkpt lat="43.55889" lon="6.18972">
        <ele>439</ele>
        <time>2023-01-29T14:32:26Z</time>
      </trkpt>
      <trkpt lat="43.55888" lon="6.18972">
        <ele>439.1</ele>
        <time>2023-01-29T14:32:34Z</time>
      </trkpt>
      <trkpt lat="43.55887" lon="6.1897">
        <ele>439.6</ele>
        <time>2023-01-29T14:32:50Z</time>
      </trkpt>
      <trkpt lat="43.55885" lon="6.1897">
        <ele>439.7</ele>
      </trkpt>
      <trkpt lat="43.55882" lon="6.18972">
        <ele>439.5</ele>
      </trkpt>
      <trkpt lat="43.55872" lon="6.18972">
        <ele>440.3</ele>
      </trkpt>
      <trkpt lat="43.55869" lon="6.18963">
        <ele>442</ele>
        <time>2023-01-29T14:35:17Z</time>
      </trkpt>
      <trkpt lat="43.55869" lon="6.18959">
        <ele>442.6</ele>
        <time>2023-01-29T14:35:18Z</time>
      </trkpt>
      <trkpt lat="43.55867" lon="6.1896">
        <ele>442.5</ele>
        <time>2023-01-29T14:35:21Z</time>
      </trkpt>
      <trkpt lat="43.55867" lon="6.18961">
        <ele>442.4</ele>
        <time>2023-01-29T14:35:29Z</time>
      </trkpt>
      <trkpt lat="43.55858" lon="6.18957">
        <ele>442.9</ele>
        <time>2023-01-29T14:35:44Z</time>
      </trkpt>
      <trkpt lat="43.55859" lon="6.18955">
        <ele>443.3</ele>
        <time>2023-01-29T14:35:49Z</time>
      </trkpt>
      <trkpt lat="43.55859" lon="6.1895">
        <ele>444</ele>
        <time>2023-01-29T14:35:52Z</time>
      </trkpt>
      <trkpt lat="43.55856" lon="6.18942">
        <ele>445</ele>
        <time>2023-01-29T14:35:58Z</time>
      </trkpt>
      <trkpt lat="43.55856" lon="6.18937">
        <ele>445.7</ele>
        <time>2023-01-29T14:36:04Z</time>
      </trkpt>
      <trkpt lat="43.55862" lon="6.18934">
        <ele>446.5</ele>
        <time>2023-01-29T14:36:12Z</time>
      </trkpt>
      <trkpt lat="43.55863" lon="6.18932">
        <ele>446.8</ele>
        <time>2023-01-29T14:36:15Z</time>
      </trkpt>
      <trkpt lat="43.55864" lon="6.18932">
        <ele>446.8</ele>
        <time>2023-01-29T14:36:16Z</time>
      </trkpt>
      <trkpt lat="43.55865" lon="6.1893">
        <ele>447.1</ele>
        <time>2023-01-29T14:36:18Z</time>
      </trkpt>
      <trkpt lat="43.55865" lon="6.18924">
        <ele>447.9</ele>
        <time>2023-01-29T14:36:23Z</time>
      </trkpt>
      <trkpt lat="43.55862" lon="6.18915">
        <ele>449.1</ele>
        <time>2023-01-29T14:36:31Z</time>
      </trkpt>
      <trkpt lat="43.5586" lon="6.18914">
        <ele>449.1</ele>
        <time>2023-01-29T14:36:33Z</time>
      </trkpt>
      <trkpt lat="43.55859" lon="6.18908">
        <ele>449.4</ele>
        <time>2023-01-29T14:36:40Z</time>
      </trkpt>
      <trkpt lat="43.5586" lon="6.18906">
        <ele>449.7</ele>
        <time>2023-01-29T14:39:34Z</time>
      </trkpt>
      <trkpt lat="43.55863" lon="6.18911">
        <ele>449.4</ele>
        <time>2023-01-29T14:39:40Z</time>
      </trkpt>
      <trkpt lat="43.5586" lon="6.1891">
        <ele>449.4</ele>
        <time>2023-01-29T14:39:44Z</time>
      </trkpt>
      <trkpt lat="43.5586" lon="6.18909">
        <ele>449.5</ele>
        <time>2023-01-29T14:39:45Z</time>
      </trkpt>
      <trkpt lat="43.55859" lon="6.18909">
        <ele>449.4</ele>
        <time>2023-01-29T14:39:46Z</time>
      </trkpt>
      <trkpt lat="43.55859" lon="6.18898">
        <ele>450.1</ele>
        <time>2023-01-29T14:39:57Z</time>
      </trkpt>
      <trkpt lat="43.5586" lon="6.18897">
        <ele>450.3</ele>
        <time>2023-01-29T14:39:58Z</time>
      </trkpt>
      <trkpt lat="43.55859" lon="6.18895">
        <ele>450.3</ele>
        <time>2023-01-29T14:40:00Z</time>
      </trkpt>
      <trkpt lat="43.5586" lon="6.18894">
        <ele>450.5</ele>
        <time>2023-01-29T14:40:01Z</time>
      </trkpt>
      <trkpt lat="43.5586" lon="6.18889">
        <ele>450.9</ele>
        <time>2023-01-29T14:40:04Z</time>
      </trkpt>
      <trkpt lat="43.55859" lon="6.18887">
        <ele>450.8</ele>
        <time>2023-01-29T14:40:06Z</time>
      </trkpt>
      <trkpt lat="43.55838" lon="6.18873">
        <ele>448.6</ele>
      </trkpt>
      <trkpt lat="43.55859" lon="6.18886">
        <ele>450.9</ele>
        <time>2023-01-29T14:40:07Z</time>
      </trkpt>
      <trkpt lat="43.55861" lon="6.18882">
        <ele>451.2</ele>
        <time>2023-01-29T14:40:12Z</time>
      </trkpt>
      <trkpt lat="43.55867" lon="6.18882">
        <ele>451.5</ele>
        <time>2023-01-29T14:40:21Z</time>
      </trkpt>
      <trkpt lat="43.55869" lon="6.18879">
        <ele>451.6</ele>
        <time>2023-01-29T14:40:24Z</time>
      </trkpt>
      <trkpt lat="43.55874" lon="6.18876">
        <ele>451.9</ele>
        <time>2023-01-29T14:40:29Z</time>
      </trkpt>
      <trkpt lat="43.55874" lon="6.18874">
        <ele>452</ele>
        <time>2023-01-29T14:40:31Z</time>
      </trkpt>
      <trkpt lat="43.55875" lon="6.18875">
        <ele>452</ele>
        <time>2023-01-29T14:40:33Z</time>
      </trkpt>
      <trkpt lat="43.55877" lon="6.18873">
        <ele>452.1</ele>
        <time>2023-01-29T14:40:38Z</time>
      </trkpt>
      <trkpt lat="43.55876" lon="6.18873">
        <ele>452.1</ele>
        <time>2023-01-29T14:40:39Z</time>
      </trkpt>
      <trkpt lat="43.55877" lon="6.18873">
        <ele>452.1</ele>
        <time>2023-01-29T14:40:41Z</time>
      </trkpt>
      <trkpt lat="43.55876" lon="6.18873">
        <ele>452.1</ele>
        <time>2023-01-29T14:40:45Z</time>
      </trkpt>
      <trkpt lat="43.55876" lon="6.18872">
        <ele>452.1</ele>
        <time>2023-01-29T14:41:01Z</time>
      </trkpt>
      <trkpt lat="43.55877" lon="6.18875">
        <ele>452.1</ele>
        <time>2023-01-29T14:41:12Z</time>
      </trkpt>
      <trkpt lat="43.55878" lon="6.18875">
        <ele>452.1</ele>
        <time>2023-01-29T14:41:13Z</time>
      </trkpt>
      <trkpt lat="43.55878" lon="6.18876">
        <ele>452.1</ele>
        <time>2023-01-29T14:41:14Z</time>
      </trkpt>
      <trkpt lat="43.5588" lon="6.18876">
        <ele>452.1</ele>
        <time>2023-01-29T14:41:18Z</time>
      </trkpt>
      <trkpt lat="43.55882" lon="6.18878">
        <ele>452.1</ele>
        <time>2023-01-29T14:41:21Z</time>
      </trkpt>
      <trkpt lat="43.55886" lon="6.18878">
        <ele>452.3</ele>
        <time>2023-01-29T14:41:53Z</time>
      </trkpt>
      <trkpt lat="43.55886" lon="6.18879">
        <ele>452.3</ele>
        <time>2023-01-29T14:41:57Z</time>
      </trkpt>
      <trkpt lat="43.55889" lon="6.18878">
        <ele>452.3</ele>
        <time>2023-01-29T14:42:16Z</time>
      </trkpt>
      <trkpt lat="43.55889" lon="6.18877">
        <ele>452.3</ele>
        <time>2023-01-29T14:42:32Z</time>
      </trkpt>
      <trkpt lat="43.5589" lon="6.18877">
        <ele>451.2</ele>
        <time>2023-01-29T14:42:36Z</time>
      </trkpt>
      <trkpt lat="43.5589" lon="6.18875">
        <ele>451.3</ele>
        <time>2023-01-29T14:42:56Z</time>
      </trkpt>
      <trkpt lat="43.55893" lon="6.18873">
        <ele>448.2</ele>
        <time>2023-01-29T14:43:04Z</time>
      </trkpt>
      <trkpt lat="43.55894" lon="6.18866">
        <ele>447.5</ele>
        <time>2023-01-29T14:44:31Z</time>
      </trkpt>
      <trkpt lat="43.55895" lon="6.18865">
        <ele>446.4</ele>
        <time>2023-01-29T14:44:32Z</time>
      </trkpt>
      <trkpt lat="43.55895" lon="6.18861">
        <ele>446.6</ele>
        <time>2023-01-29T14:44:37Z</time>
      </trkpt>
      <trkpt lat="43.55896" lon="6.18861">
        <ele>445.6</ele>
        <time>2023-01-29T14:44:38Z</time>
      </trkpt>
      <trkpt lat="43.55896" lon="6.1885">
        <ele>445.8</ele>
        <time>2023-01-29T14:44:48Z</time>
      </trkpt>
      <trkpt lat="43.55898" lon="6.18847">
        <ele>444</ele>
        <time>2023-01-29T14:44:52Z</time>
      </trkpt>
      <trkpt lat="43.55897" lon="6.18841">
        <ele>445.1</ele>
        <time>2023-01-29T14:44:57Z</time>
      </trkpt>
      <trkpt lat="43.55896" lon="6.18841">
        <ele>446</ele>
        <time>2023-01-29T14:44:59Z</time>
      </trkpt>
      <trkpt lat="43.55897" lon="6.1884">
        <ele>445.1</ele>
        <time>2023-01-29T14:45:15Z</time>
      </trkpt>
      <trkpt lat="43.55897" lon="6.18836">
        <ele>445.2</ele>
        <time>2023-01-29T14:45:27Z</time>
      </trkpt>
      <trkpt lat="43.55896" lon="6.18835">
        <ele>446.1</ele>
        <time>2023-01-29T14:45:28Z</time>
      </trkpt>
      <trkpt lat="43.55896" lon="6.18831">
        <ele>446.5</ele>
        <time>2023-01-29T14:45:33Z</time>
      </trkpt>
      <trkpt lat="43.55895" lon="6.18831">
        <ele>447.2</ele>
        <time>2023-01-29T14:45:34Z</time>
      </trkpt>
      <trkpt lat="43.55896" lon="6.18828">
        <ele>447</ele>
        <time>2023-01-29T14:45:38Z</time>
      </trkpt>
      <trkpt lat="43.55895" lon="6.18825">
        <ele>448</ele>
        <time>2023-01-29T14:45:43Z</time>
      </trkpt>
      <trkpt lat="43.55891" lon="6.18825">
        <ele>450.2</ele>
        <time>2023-01-29T14:45:49Z</time>
      </trkpt>
      <trkpt lat="43.55891" lon="6.18824">
        <ele>450.2</ele>
        <time>2023-01-29T14:45:51Z</time>
      </trkpt>
      <trkpt lat="43.5589" lon="6.18824">
        <ele>450.7</ele>
        <time>2023-01-29T14:45:52Z</time>
      </trkpt>
      <trkpt lat="43.5589" lon="6.18823">
        <ele>450.7</ele>
        <time>2023-01-29T14:45:53Z</time>
      </trkpt>
      <trkpt lat="43.55889" lon="6.18823">
        <ele>451.2</ele>
        <time>2023-01-29T14:45:54Z</time>
      </trkpt>
      <trkpt lat="43.55889" lon="6.1882">
        <ele>451</ele>
        <time>2023-01-29T14:45:57Z</time>
      </trkpt>
      <trkpt lat="43.55891" lon="6.1882">
        <ele>450.2</ele>
        <time>2023-01-29T14:46:01Z</time>
      </trkpt>
      <trkpt lat="43.55892" lon="6.18823">
        <ele>449.7</ele>
        <time>2023-01-29T14:46:13Z</time>
      </trkpt>
      <trkpt lat="43.55899" lon="6.18823">
        <ele>446.3</ele>
        <time>2023-01-29T14:46:29Z</time>
      </trkpt>
      <trkpt lat="43.55903" lon="6.18818">
        <ele>446.2</ele>
        <time>2023-01-29T14:46:36Z</time>
      </trkpt>
      <trkpt lat="43.55909" lon="6.18817">
        <ele>444.8</ele>
        <time>2023-01-29T14:46:41Z</time>
      </trkpt>
      <trkpt lat="43.55914" lon="6.18814">
        <ele>445.5</ele>
        <time>2023-01-29T14:46:46Z</time>
      </trkpt>
      <trkpt lat="43.55916" lon="6.18814">
        <ele>445.1</ele>
        <time>2023-01-29T14:46:47Z</time>
      </trkpt>
      <trkpt lat="43.55918" lon="6.18811">
        <ele>445.5</ele>
        <time>2023-01-29T14:46:50Z</time>
      </trkpt>
      <trkpt lat="43.55919" lon="6.18811">
        <ele>444</ele>
        <time>2023-01-29T14:46:51Z</time>
      </trkpt>
      <trkpt lat="43.55921" lon="6.18799">
        <ele>445.5</ele>
        <time>2023-01-29T14:47:08Z</time>
      </trkpt>
      <trkpt lat="43.55922" lon="6.18799">
        <ele>444</ele>
        <time>2023-01-29T14:48:12Z</time>
      </trkpt>
      <trkpt lat="43.55919" lon="6.188">
        <ele>448.5</ele>
        <time>2023-01-29T14:48:59Z</time>
      </trkpt>
      <trkpt lat="43.55919" lon="6.18801">
        <ele>448.4</ele>
        <time>2023-01-29T14:49:00Z</time>
      </trkpt>
      <trkpt lat="43.55918" lon="6.18801">
        <ele>450</ele>
        <time>2023-01-29T14:49:01Z</time>
      </trkpt>
      <trkpt lat="43.55916" lon="6.18806">
        <ele>451.6</ele>
        <time>2023-01-29T14:49:07Z</time>
      </trkpt>
      <trkpt lat="43.55914" lon="6.18806">
        <ele>451.5</ele>
        <time>2023-01-29T14:49:12Z</time>
      </trkpt>
      <trkpt lat="43.55914" lon="6.18807">
        <ele>450.7</ele>
        <time>2023-01-29T14:49:13Z</time>
      </trkpt>
      <trkpt lat="43.55913" lon="6.18807">
        <ele>450.7</ele>
        <time>2023-01-29T14:49:15Z</time>
      </trkpt>
      <trkpt lat="43.55913" lon="6.18808">
        <ele>450</ele>
        <time>2023-01-29T14:49:17Z</time>
      </trkpt>
      <trkpt lat="43.55912" lon="6.18808">
        <ele>450</ele>
        <time>2023-01-29T14:49:18Z</time>
      </trkpt>
      <trkpt lat="43.55911" lon="6.18811">
        <ele>448.1</ele>
        <time>2023-01-29T14:49:22Z</time>
      </trkpt>
      <trkpt lat="43.5591" lon="6.18811">
        <ele>448.2</ele>
        <time>2023-01-29T14:49:24Z</time>
      </trkpt>
      <trkpt lat="43.5591" lon="6.18812">
        <ele>447.6</ele>
        <time>2023-01-29T14:49:26Z</time>
      </trkpt>
      <trkpt lat="43.55903" lon="6.18814">
        <ele>447.8</ele>
        <time>2023-01-29T14:49:37Z</time>
      </trkpt>
      <trkpt lat="43.55903" lon="6.18815">
        <ele>447.4</ele>
        <time>2023-01-29T14:49:38Z</time>
      </trkpt>
      <trkpt lat="43.55903" lon="6.18814">
        <ele>447.8</ele>
        <time>2023-01-29T14:49:39Z</time>
      </trkpt>
      <trkpt lat="43.55899" lon="6.18814">
        <ele>448.6</ele>
        <time>2023-01-29T14:49:45Z</time>
      </trkpt>
      <trkpt lat="43.55899" lon="6.18813">
        <ele>448.8</ele>
        <time>2023-01-29T14:49:46Z</time>
      </trkpt>
      <trkpt lat="43.55897" lon="6.18812">
        <ele>449.4</ele>
        <time>2023-01-29T14:49:48Z</time>
      </trkpt>
      <trkpt lat="43.55897" lon="6.18811">
        <ele>449.5</ele>
        <time>2023-01-29T14:49:49Z</time>
      </trkpt>
      <trkpt lat="43.55892" lon="6.18811">
        <ele>450.1</ele>
        <time>2023-01-29T14:49:55Z</time>
      </trkpt>
      <trkpt lat="43.5589" lon="6.18812">
        <ele>450.3</ele>
        <time>2023-01-29T14:49:57Z</time>
      </trkpt>
      <trkpt lat="43.5589" lon="6.18813">
        <ele>450.3</ele>
        <time>2023-01-29T14:49:58Z</time>
      </trkpt>
      <trkpt lat="43.55886" lon="6.18816">
        <ele>450.5</ele>
        <time>2023-01-29T14:50:03Z</time>
      </trkpt>
      <trkpt lat="43.55873" lon="6.18821">
        <ele>450</ele>
        <time>2023-01-29T14:50:15Z</time>
      </trkpt>
      <trkpt lat="43.5587" lon="6.18817">
        <ele>449.5</ele>
        <time>2023-01-29T14:50:18Z</time>
      </trkpt>
      <trkpt lat="43.55867" lon="6.18815">
        <ele>449.1</ele>
        <time>2023-01-29T14:50:21Z</time>
      </trkpt>
      <trkpt lat="43.55861" lon="6.18816">
        <ele>448.7</ele>
        <time>2023-01-29T14:50:27Z</time>
      </trkpt>
      <trkpt lat="43.55856" lon="6.1882">
        <ele>448.8</ele>
        <time>2023-01-29T14:50:33Z</time>
      </trkpt>
      <trkpt lat="43.55848" lon="6.1882">
        <ele>448.3</ele>
        <time>2023-01-29T14:50:40Z</time>
      </trkpt>
      <trkpt lat="43.55847" lon="6.18821">
        <ele>448.3</ele>
        <time>2023-01-29T14:50:41Z</time>
      </trkpt>
      <trkpt lat="43.55842" lon="6.18821">
        <ele>448</ele>
        <time>2023-01-29T14:50:46Z</time>
      </trkpt>
      <trkpt lat="43.5584" lon="6.18822">
        <ele>448</ele>
        <time>2023-01-29T14:50:48Z</time>
      </trkpt>
      <trkpt lat="43.55833" lon="6.18832">
        <ele>447.9</ele>
        <time>2023-01-29T14:50:57Z</time>
      </trkpt>
      <trkpt lat="43.55832" lon="6.18832">
        <ele>447.9</ele>
        <time>2023-01-29T14:50:58Z</time>
      </trkpt>
      <trkpt lat="43.55827" lon="6.18842">
        <ele>447.8</ele>
        <time>2023-01-29T14:51:06Z</time>
      </trkpt>
      <trkpt lat="43.55827" lon="6.18853">
        <ele>447.8</ele>
        <time>2023-01-29T14:51:13Z</time>
      </trkpt>
      <trkpt lat="43.55821" lon="6.18866">
        <ele>447.5</ele>
        <time>2023-01-29T14:51:23Z</time>
      </trkpt>
      <trkpt lat="43.55817" lon="6.18872">
        <ele>447.2</ele>
        <time>2023-01-29T14:51:29Z</time>
      </trkpt>
      <trkpt lat="43.55809" lon="6.1888">
        <ele>446.5</ele>
        <time>2023-01-29T14:51:37Z</time>
      </trkpt>
      <trkpt lat="43.55808" lon="6.18887">
        <ele>446.2</ele>
        <time>2023-01-29T14:51:43Z</time>
      </trkpt>
      <trkpt lat="43.55804" lon="6.18891">
        <ele>445.8</ele>
        <time>2023-01-29T14:51:49Z</time>
      </trkpt>
      <trkpt lat="43.55803" lon="6.18896">
        <ele>445.4</ele>
        <time>2023-01-29T14:51:54Z</time>
      </trkpt>
      <trkpt lat="43.55801" lon="6.18898">
        <ele>445.2</ele>
        <time>2023-01-29T14:51:57Z</time>
      </trkpt>
      <trkpt lat="43.55799" lon="6.18904">
        <ele>444.7</ele>
        <time>2023-01-29T14:52:03Z</time>
      </trkpt>
      <trkpt lat="43.55795" lon="6.18905">
        <ele>444.5</ele>
        <time>2023-01-29T14:52:07Z</time>
      </trkpt>
      <trkpt lat="43.55795" lon="6.18906">
        <ele>444.4</ele>
        <time>2023-01-29T14:52:08Z</time>
      </trkpt>
      <trkpt lat="43.55792" lon="6.18906">
        <ele>444.3</ele>
        <time>2023-01-29T14:52:11Z</time>
      </trkpt>
      <trkpt lat="43.55791" lon="6.18907">
        <ele>444.2</ele>
        <time>2023-01-29T14:52:12Z</time>
      </trkpt>
      <trkpt lat="43.55788" lon="6.18907">
        <ele>444.1</ele>
        <time>2023-01-29T14:52:15Z</time>
      </trkpt>
      <trkpt lat="43.55784" lon="6.18912">
        <ele>443.6</ele>
        <time>2023-01-29T14:52:20Z</time>
      </trkpt>
      <trkpt lat="43.55782" lon="6.18922">
        <ele>442.8</ele>
        <time>2023-01-29T14:52:28Z</time>
      </trkpt>
      <trkpt lat="43.55779" lon="6.18924">
        <ele>442.5</ele>
        <time>2023-01-29T14:52:32Z</time>
      </trkpt>
      <trkpt lat="43.55773" lon="6.18924">
        <ele>442.3</ele>
        <time>2023-01-29T14:52:36Z</time>
      </trkpt>
      <trkpt lat="43.55772" lon="6.18925">
        <ele>442.2</ele>
        <time>2023-01-29T14:52:38Z</time>
      </trkpt>
      <trkpt lat="43.55769" lon="6.18925">
        <ele>442.1</ele>
        <time>2023-01-29T14:52:39Z</time>
      </trkpt>
      <trkpt lat="43.55769" lon="6.18926">
        <ele>442</ele>
        <time>2023-01-29T14:52:40Z</time>
      </trkpt>
      <trkpt lat="43.55761" lon="6.18928">
        <ele>441.6</ele>
        <time>2023-01-29T14:52:48Z</time>
      </trkpt>
      <trkpt lat="43.55759" lon="6.1893">
        <ele>441.4</ele>
        <time>2023-01-29T14:52:52Z</time>
      </trkpt>
      <trkpt lat="43.55759" lon="6.18935">
        <ele>441</ele>
        <time>2023-01-29T14:52:56Z</time>
      </trkpt>
      <trkpt lat="43.55757" lon="6.18938">
        <ele>440.7</ele>
        <time>2023-01-29T14:52:59Z</time>
      </trkpt>
      <trkpt lat="43.55749" lon="6.18944">
        <ele>440</ele>
        <time>2023-01-29T14:53:10Z</time>
      </trkpt>
      <trkpt lat="43.55745" lon="6.18944">
        <ele>439.7</ele>
        <time>2023-01-29T14:53:15Z</time>
      </trkpt>
      <trkpt lat="43.55746" lon="6.18946">
        <ele>439.4</ele>
        <time>2023-01-29T14:53:18Z</time>
      </trkpt>
      <trkpt lat="43.55745" lon="6.18944">
        <ele>439.7</ele>
        <time>2023-01-29T14:53:34Z</time>
      </trkpt>
      <trkpt lat="43.55737" lon="6.18944">
        <ele>439.1</ele>
        <time>2023-01-29T14:53:40Z</time>
      </trkpt>
      <trkpt lat="43.55737" lon="6.18945">
        <ele>439</ele>
        <time>2023-01-29T14:53:41Z</time>
      </trkpt>
      <trkpt lat="43.55732" lon="6.18946">
        <ele>438.5</ele>
        <time>2023-01-29T14:53:45Z</time>
      </trkpt>
      <trkpt lat="43.5573" lon="6.18945">
        <ele>438.5</ele>
        <time>2023-01-29T14:53:48Z</time>
      </trkpt>
      <trkpt lat="43.5573" lon="6.18944">
        <ele>438.6</ele>
        <time>2023-01-29T14:53:49Z</time>
      </trkpt>
      <trkpt lat="43.55727" lon="6.18943">
        <ele>438.5</ele>
        <time>2023-01-29T14:53:54Z</time>
      </trkpt>
      <trkpt lat="43.55727" lon="6.18937">
        <ele>439.1</ele>
        <time>2023-01-29T14:54:03Z</time>
      </trkpt>
      <trkpt lat="43.55726" lon="6.18936">
        <ele>439.1</ele>
        <time>2023-01-29T14:54:04Z</time>
      </trkpt>
      <trkpt lat="43.55726" lon="6.18926">
        <ele>440.2</ele>
        <time>2023-01-29T14:54:12Z</time>
      </trkpt>
      <trkpt lat="43.55727" lon="6.18925">
        <ele>440.3</ele>
        <time>2023-01-29T14:54:13Z</time>
      </trkpt>
      <trkpt lat="43.55726" lon="6.18912">
        <ele>441.3</ele>
        <time>2023-01-29T14:54:23Z</time>
      </trkpt>
      <trkpt lat="43.55725" lon="6.18911">
        <ele>441.3</ele>
        <time>2023-01-29T14:54:24Z</time>
      </trkpt>
      <trkpt lat="43.55725" lon="6.18906">
        <ele>441.5</ele>
        <time>2023-01-29T14:54:28Z</time>
      </trkpt>
      <trkpt lat="43.55729" lon="6.18895">
        <ele>442.2</ele>
        <time>2023-01-29T14:54:37Z</time>
      </trkpt>
      <trkpt lat="43.55728" lon="6.18888">
        <ele>442.4</ele>
        <time>2023-01-29T14:54:42Z</time>
      </trkpt>
      <trkpt lat="43.55729" lon="6.18887">
        <ele>442.5</ele>
        <time>2023-01-29T14:54:43Z</time>
      </trkpt>
      <trkpt lat="43.55729" lon="6.18882">
        <ele>442.5</ele>
        <time>2023-01-29T14:54:46Z</time>
      </trkpt>
      <trkpt lat="43.55734" lon="6.18862">
        <ele>442.8</ele>
        <time>2023-01-29T14:54:58Z</time>
      </trkpt>
      <trkpt lat="43.55732" lon="6.18848">
        <ele>442.7</ele>
        <time>2023-01-29T14:55:06Z</time>
      </trkpt>
      <trkpt lat="43.55733" lon="6.18846">
        <ele>442.8</ele>
        <time>2023-01-29T14:55:07Z</time>
      </trkpt>
      <trkpt lat="43.55733" lon="6.1884">
        <ele>442.8</ele>
        <time>2023-01-29T14:55:11Z</time>
      </trkpt>
      <trkpt lat="43.55734" lon="6.18839">
        <ele>442.8</ele>
        <time>2023-01-29T14:55:12Z</time>
      </trkpt>
      <trkpt lat="43.55734" lon="6.1883">
        <ele>443</ele>
        <time>2023-01-29T14:55:22Z</time>
      </trkpt>
      <trkpt lat="43.55733" lon="6.18829">
        <ele>442.9</ele>
        <time>2023-01-29T14:55:24Z</time>
      </trkpt>
      <trkpt lat="43.55733" lon="6.18823">
        <ele>443.1</ele>
        <time>2023-01-29T14:55:29Z</time>
      </trkpt>
      <trkpt lat="43.5573" lon="6.18815">
        <ele>443.2</ele>
        <time>2023-01-29T14:55:35Z</time>
      </trkpt>
      <trkpt lat="43.5573" lon="6.18808">
        <ele>443.5</ele>
        <time>2023-01-29T14:55:41Z</time>
      </trkpt>
      <trkpt lat="43.55726" lon="6.18801">
        <ele>443.2</ele>
        <time>2023-01-29T14:55:47Z</time>
      </trkpt>
      <trkpt lat="43.55726" lon="6.18796">
        <ele>443.2</ele>
        <time>2023-01-29T14:55:50Z</time>
      </trkpt>
      <trkpt lat="43.55725" lon="6.18795">
        <ele>443.2</ele>
        <time>2023-01-29T14:55:51Z</time>
      </trkpt>
      <trkpt lat="43.55725" lon="6.18791">
        <ele>443.1</ele>
        <time>2023-01-29T14:55:53Z</time>
      </trkpt>
      <trkpt lat="43.5572" lon="6.18781">
        <ele>442.9</ele>
        <time>2023-01-29T14:56:01Z</time>
      </trkpt>
      <trkpt lat="43.55716" lon="6.18768">
        <ele>442.8</ele>
        <time>2023-01-29T14:56:12Z</time>
      </trkpt>
      <trkpt lat="43.55716" lon="6.18764">
        <ele>442.8</ele>
        <time>2023-01-29T14:56:15Z</time>
      </trkpt>
      <trkpt lat="43.55714" lon="6.18758">
        <ele>442.7</ele>
        <time>2023-01-29T14:56:19Z</time>
      </trkpt>
      <trkpt lat="43.55714" lon="6.18749">
        <ele>442.7</ele>
        <time>2023-01-29T14:56:26Z</time>
      </trkpt>
      <trkpt lat="43.55713" lon="6.18747">
        <ele>442.7</ele>
        <time>2023-01-29T14:56:27Z</time>
      </trkpt>
      <trkpt lat="43.55713" lon="6.18728">
        <ele>442.9</ele>
        <time>2023-01-29T14:56:39Z</time>
      </trkpt>
      <trkpt lat="43.55712" lon="6.18727">
        <ele>442.9</ele>
        <time>2023-01-29T14:56:40Z</time>
      </trkpt>
      <trkpt lat="43.55712" lon="6.18721">
        <ele>443</ele>
        <time>2023-01-29T14:56:44Z</time>
      </trkpt>
      <trkpt lat="43.55713" lon="6.1872">
        <ele>443</ele>
        <time>2023-01-29T14:56:45Z</time>
      </trkpt>
      <trkpt lat="43.55712" lon="6.18717">
        <ele>442.9</ele>
        <time>2023-01-29T14:56:47Z</time>
      </trkpt>
      <trkpt lat="43.55713" lon="6.18713">
        <ele>442.9</ele>
        <time>2023-01-29T14:56:49Z</time>
      </trkpt>
      <trkpt lat="43.55712" lon="6.18704">
        <ele>442.8</ele>
        <time>2023-01-29T14:56:54Z</time>
      </trkpt>
      <trkpt lat="43.5571" lon="6.18703">
        <ele>442.7</ele>
        <time>2023-01-29T14:56:55Z</time>
      </trkpt>
      <trkpt lat="43.5571" lon="6.18695">
        <ele>442.6</ele>
        <time>2023-01-29T14:56:59Z</time>
      </trkpt>
      <trkpt lat="43.55712" lon="6.18692">
        <ele>442.5</ele>
        <time>2023-01-29T14:57:01Z</time>
      </trkpt>
      <trkpt lat="43.55712" lon="6.18689">
        <ele>442.4</ele>
        <time>2023-01-29T14:57:03Z</time>
      </trkpt>
      <trkpt lat="43.55715" lon="6.18684">
        <ele>442.4</ele>
        <time>2023-01-29T14:57:06Z</time>
      </trkpt>
      <trkpt lat="43.55715" lon="6.18668">
        <ele>441.8</ele>
        <time>2023-01-29T14:57:15Z</time>
      </trkpt>
      <trkpt lat="43.55713" lon="6.1866">
        <ele>441.3</ele>
        <time>2023-01-29T14:57:21Z</time>
      </trkpt>
      <trkpt lat="43.55715" lon="6.18656">
        <ele>441.1</ele>
        <time>2023-01-29T14:57:25Z</time>
      </trkpt>
      <trkpt lat="43.55715" lon="6.18646">
        <ele>440.4</ele>
        <time>2023-01-29T14:57:31Z</time>
      </trkpt>
      <trkpt lat="43.55717" lon="6.1864">
        <ele>440.1</ele>
        <time>2023-01-29T14:57:35Z</time>
      </trkpt>
      <trkpt lat="43.55718" lon="6.18627">
        <ele>439.1</ele>
        <time>2023-01-29T14:57:43Z</time>
      </trkpt>
      <trkpt lat="43.55717" lon="6.18625">
        <ele>439</ele>
        <time>2023-01-29T14:57:44Z</time>
      </trkpt>
      <trkpt lat="43.55718" lon="6.18624">
        <ele>438.9</ele>
        <time>2023-01-29T14:57:45Z</time>
      </trkpt>
      <trkpt lat="43.55717" lon="6.18608">
        <ele>437.8</ele>
        <time>2023-01-29T14:57:54Z</time>
      </trkpt>
      <trkpt lat="43.55714" lon="6.18603">
        <ele>437.5</ele>
        <time>2023-01-29T14:57:57Z</time>
      </trkpt>
      <trkpt lat="43.55713" lon="6.18593">
        <ele>436.9</ele>
        <time>2023-01-29T14:58:03Z</time>
      </trkpt>
      <trkpt lat="43.55704" lon="6.18568">
        <ele>435.9</ele>
        <time>2023-01-29T14:58:20Z</time>
      </trkpt>
      <trkpt lat="43.55704" lon="6.18551">
        <ele>435.1</ele>
        <time>2023-01-29T14:58:33Z</time>
      </trkpt>
      <trkpt lat="43.55691" lon="6.18524">
        <ele>435.2</ele>
        <time>2023-01-29T14:58:48Z</time>
      </trkpt>
      <trkpt lat="43.5569" lon="6.18524">
        <ele>435.3</ele>
        <time>2023-01-29T14:58:49Z</time>
      </trkpt>
      <trkpt lat="43.55683" lon="6.18512">
        <ele>435.8</ele>
        <time>2023-01-29T14:59:00Z</time>
      </trkpt>
      <trkpt lat="43.55679" lon="6.18496">
        <ele>436</ele>
        <time>2023-01-29T14:59:11Z</time>
      </trkpt>
      <trkpt lat="43.55683" lon="6.18476">
        <ele>435.5</ele>
        <time>2023-01-29T14:59:23Z</time>
      </trkpt>
      <trkpt lat="43.55693" lon="6.18452">
        <ele>435.1</ele>
        <time>2023-01-29T14:59:39Z</time>
      </trkpt>
      <trkpt lat="43.55695" lon="6.18436">
        <ele>434.9</ele>
        <time>2023-01-29T14:59:48Z</time>
      </trkpt>
      <trkpt lat="43.55693" lon="6.18429">
        <ele>435</ele>
        <time>2023-01-29T14:59:53Z</time>
      </trkpt>
      <trkpt lat="43.55692" lon="6.18417">
        <ele>435</ele>
        <time>2023-01-29T15:00:02Z</time>
      </trkpt>
      <trkpt lat="43.55694" lon="6.18413">
        <ele>434.9</ele>
        <time>2023-01-29T15:00:05Z</time>
      </trkpt>
      <trkpt lat="43.55694" lon="6.18399">
        <ele>434.4</ele>
        <time>2023-01-29T15:00:14Z</time>
      </trkpt>
      <trkpt lat="43.55697" lon="6.18389">
        <ele>433.6</ele>
        <time>2023-01-29T15:00:20Z</time>
      </trkpt>
      <trkpt lat="43.55696" lon="6.18387">
        <ele>433.7</ele>
        <time>2023-01-29T15:00:21Z</time>
      </trkpt>
      <trkpt lat="43.55696" lon="6.18343">
        <ele>432.8</ele>
        <time>2023-01-29T15:00:48Z</time>
      </trkpt>
      <trkpt lat="43.55697" lon="6.18342">
        <ele>432.7</ele>
        <time>2023-01-29T15:00:49Z</time>
      </trkpt>
      <trkpt lat="43.55697" lon="6.1833">
        <ele>432.6</ele>
        <time>2023-01-29T15:00:58Z</time>
      </trkpt>
      <trkpt lat="43.557" lon="6.18322">
        <ele>432.2</ele>
        <time>2023-01-29T15:01:03Z</time>
      </trkpt>
      <trkpt lat="43.55704" lon="6.18305">
        <ele>431.7</ele>
        <time>2023-01-29T15:01:13Z</time>
      </trkpt>
      <trkpt lat="43.55708" lon="6.18299">
        <ele>431.5</ele>
        <time>2023-01-29T15:01:18Z</time>
      </trkpt>
      <trkpt lat="43.55715" lon="6.18283">
        <ele>431.7</ele>
        <time>2023-01-29T15:01:29Z</time>
      </trkpt>
      <trkpt lat="43.55722" lon="6.18272">
        <ele>431.4</ele>
        <time>2023-01-29T15:01:40Z</time>
      </trkpt>
      <trkpt lat="43.55722" lon="6.18266">
        <ele>431.9</ele>
        <time>2023-01-29T15:01:45Z</time>
      </trkpt>
      <trkpt lat="43.55724" lon="6.18263">
        <ele>431.7</ele>
        <time>2023-01-29T15:01:47Z</time>
      </trkpt>
      <trkpt lat="43.55728" lon="6.18248">
        <ele>431.8</ele>
        <time>2023-01-29T15:01:56Z</time>
      </trkpt>
      <trkpt lat="43.55735" lon="6.18236">
        <ele>430.2</ele>
        <time>2023-01-29T15:02:08Z</time>
      </trkpt>
      <trkpt lat="43.55735" lon="6.18232">
        <ele>430.2</ele>
        <time>2023-01-29T15:02:11Z</time>
      </trkpt>
      <trkpt lat="43.55736" lon="6.18231">
        <ele>430</ele>
        <time>2023-01-29T15:02:12Z</time>
      </trkpt>
      <trkpt lat="43.55736" lon="6.18214">
        <ele>429.7</ele>
        <time>2023-01-29T15:02:22Z</time>
      </trkpt>
      <trkpt lat="43.55733" lon="6.18206">
        <ele>430</ele>
        <time>2023-01-29T15:02:27Z</time>
      </trkpt>
      <trkpt lat="43.55733" lon="6.18201">
        <ele>429.7</ele>
        <time>2023-01-29T15:02:30Z</time>
      </trkpt>
      <trkpt lat="43.55732" lon="6.182">
        <ele>429.9</ele>
        <time>2023-01-29T15:02:31Z</time>
      </trkpt>
      <trkpt lat="43.55731" lon="6.1819">
        <ele>429.4</ele>
        <time>2023-01-29T15:02:39Z</time>
      </trkpt>
      <trkpt lat="43.55729" lon="6.18188">
        <ele>429.4</ele>
        <time>2023-01-29T15:02:41Z</time>
      </trkpt>
      <trkpt lat="43.55729" lon="6.18185">
        <ele>429.2</ele>
        <time>2023-01-29T15:02:43Z</time>
      </trkpt>
      <trkpt lat="43.55727" lon="6.18184">
        <ele>429.3</ele>
        <time>2023-01-29T15:02:45Z</time>
      </trkpt>
      <trkpt lat="43.55726" lon="6.18181">
        <ele>429.1</ele>
        <time>2023-01-29T15:02:47Z</time>
      </trkpt>
      <trkpt lat="43.55724" lon="6.1818">
        <ele>429.3</ele>
        <time>2023-01-29T15:02:49Z</time>
      </trkpt>
      <trkpt lat="43.5572" lon="6.18174">
        <ele>428.7</ele>
        <time>2023-01-29T15:02:55Z</time>
      </trkpt>
      <trkpt lat="43.55716" lon="6.18172">
        <ele>428.4</ele>
        <time>2023-01-29T15:02:59Z</time>
      </trkpt>
      <trkpt lat="43.55716" lon="6.18171">
        <ele>428.3</ele>
        <time>2023-01-29T15:03:00Z</time>
      </trkpt>
      <trkpt lat="43.55711" lon="6.18168">
        <ele>427.8</ele>
        <time>2023-01-29T15:03:05Z</time>
      </trkpt>
      <trkpt lat="43.5571" lon="6.18166">
        <ele>427.5</ele>
        <time>2023-01-29T15:03:08Z</time>
      </trkpt>
      <trkpt lat="43.55706" lon="6.18163">
        <ele>426.9</ele>
        <time>2023-01-29T15:03:12Z</time>
      </trkpt>
      <trkpt lat="43.557" lon="6.18154">
        <ele>425.4</ele>
        <time>2023-01-29T15:03:21Z</time>
      </trkpt>
      <trkpt lat="43.557" lon="6.18152">
        <ele>425.1</ele>
        <time>2023-01-29T15:03:22Z</time>
      </trkpt>
      <trkpt lat="43.55692" lon="6.18142">
        <ele>423.3</ele>
        <time>2023-01-29T15:03:34Z</time>
      </trkpt>
      <trkpt lat="43.55691" lon="6.18142">
        <ele>423.2</ele>
        <time>2023-01-29T15:03:35Z</time>
      </trkpt>
      <trkpt lat="43.55691" lon="6.18141">
        <ele>423</ele>
        <time>2023-01-29T15:03:36Z</time>
      </trkpt>
      <trkpt lat="43.55688" lon="6.18139">
        <ele>422.6</ele>
        <time>2023-01-29T15:03:39Z</time>
      </trkpt>
      <trkpt lat="43.55688" lon="6.18138">
        <ele>422.4</ele>
        <time>2023-01-29T15:03:40Z</time>
      </trkpt>
      <trkpt lat="43.55687" lon="6.18138">
        <ele>422.3</ele>
        <time>2023-01-29T15:03:41Z</time>
      </trkpt>
      <trkpt lat="43.55682" lon="6.18129">
        <ele>420.3</ele>
        <time>2023-01-29T15:03:50Z</time>
      </trkpt>
      <trkpt lat="43.55681" lon="6.18124">
        <ele>419.4</ele>
        <time>2023-01-29T15:03:55Z</time>
      </trkpt>
      <trkpt lat="43.55682" lon="6.18124">
        <ele>419.4</ele>
        <time>2023-01-29T15:03:56Z</time>
      </trkpt>
      <trkpt lat="43.55682" lon="6.18122">
        <ele>419.1</ele>
        <time>2023-01-29T15:03:57Z</time>
      </trkpt>
      <trkpt lat="43.55683" lon="6.18122">
        <ele>419.1</ele>
        <time>2023-01-29T15:03:58Z</time>
      </trkpt>
      <trkpt lat="43.55683" lon="6.18119">
        <ele>418.6</ele>
        <time>2023-01-29T15:04:00Z</time>
      </trkpt>
      <trkpt lat="43.55689" lon="6.18111">
        <ele>417.6</ele>
        <time>2023-01-29T15:04:06Z</time>
      </trkpt>
      <trkpt lat="43.55696" lon="6.18106">
        <ele>417</ele>
        <time>2023-01-29T15:04:14Z</time>
      </trkpt>
      <trkpt lat="43.557" lon="6.181">
        <ele>415.9</ele>
        <time>2023-01-29T15:04:20Z</time>
      </trkpt>
      <trkpt lat="43.55703" lon="6.18099">
        <ele>415.8</ele>
        <time>2023-01-29T15:04:23Z</time>
      </trkpt>
      <trkpt lat="43.55707" lon="6.18094">
        <ele>415</ele>
        <time>2023-01-29T15:04:29Z</time>
      </trkpt>
      <trkpt lat="43.55711" lon="6.18092">
        <ele>414.9</ele>
        <time>2023-01-29T15:04:33Z</time>
      </trkpt>
      <trkpt lat="43.55714" lon="6.18088">
        <ele>414.3</ele>
        <time>2023-01-29T15:04:37Z</time>
      </trkpt>
      <trkpt lat="43.55715" lon="6.18088">
        <ele>414.4</ele>
        <time>2023-01-29T15:04:38Z</time>
      </trkpt>
      <trkpt lat="43.55716" lon="6.18086">
        <ele>414.1</ele>
        <time>2023-01-29T15:04:40Z</time>
      </trkpt>
      <trkpt lat="43.55717" lon="6.18086">
        <ele>414.1</ele>
        <time>2023-01-29T15:04:41Z</time>
      </trkpt>
      <trkpt lat="43.55721" lon="6.18079">
        <ele>413.1</ele>
        <time>2023-01-29T15:04:48Z</time>
      </trkpt>
      <trkpt lat="43.55722" lon="6.18079">
        <ele>413.2</ele>
        <time>2023-01-29T15:04:49Z</time>
      </trkpt>
      <trkpt lat="43.55729" lon="6.18071">
        <ele>411.8</ele>
        <time>2023-01-29T15:04:57Z</time>
      </trkpt>
      <trkpt lat="43.55731" lon="6.18071">
        <ele>411.8</ele>
        <time>2023-01-29T15:04:59Z</time>
      </trkpt>
      <trkpt lat="43.55731" lon="6.1807">
        <ele>411.6</ele>
        <time>2023-01-29T15:05:00Z</time>
      </trkpt>
      <trkpt lat="43.55736" lon="6.18066">
        <ele>410.9</ele>
        <time>2023-01-29T15:05:05Z</time>
      </trkpt>
      <trkpt lat="43.55744" lon="6.18065">
        <ele>410.7</ele>
        <time>2023-01-29T15:05:13Z</time>
      </trkpt>
      <trkpt lat="43.55754" lon="6.1806">
        <ele>409.7</ele>
        <time>2023-01-29T15:05:22Z</time>
      </trkpt>
      <trkpt lat="43.55762" lon="6.1806">
        <ele>409.4</ele>
        <time>2023-01-29T15:05:30Z</time>
      </trkpt>
      <trkpt lat="43.55767" lon="6.18058">
        <ele>408.8</ele>
        <time>2023-01-29T15:05:35Z</time>
      </trkpt>
      <trkpt lat="43.55768" lon="6.18059">
        <ele>409</ele>
        <time>2023-01-29T15:05:37Z</time>
      </trkpt>
      <trkpt lat="43.55779" lon="6.18058">
        <ele>408.3</ele>
        <time>2023-01-29T15:05:45Z</time>
      </trkpt>
      <trkpt lat="43.5578" lon="6.18057">
        <ele>408</ele>
        <time>2023-01-29T15:05:46Z</time>
      </trkpt>
      <trkpt lat="43.55783" lon="6.18057">
        <ele>407.7</ele>
        <time>2023-01-29T15:05:49Z</time>
      </trkpt>
      <trkpt lat="43.55783" lon="6.18056">
        <ele>407.5</ele>
        <time>2023-01-29T15:05:50Z</time>
      </trkpt>
      <trkpt lat="43.55786" lon="6.18055">
        <ele>407</ele>
        <time>2023-01-29T15:05:54Z</time>
      </trkpt>
      <trkpt lat="43.55778" lon="6.18024">
        <ele>405</ele>
        <time>2023-01-29T15:06:16Z</time>
      </trkpt>
      <trkpt lat="43.55777" lon="6.18016">
        <ele>405</ele>
        <time>2023-01-29T15:06:22Z</time>
      </trkpt>
      <trkpt lat="43.55776" lon="6.18015">
        <ele>404.9</ele>
        <time>2023-01-29T15:06:23Z</time>
      </trkpt>
      <trkpt lat="43.55775" lon="6.18007">
        <ele>404.8</ele>
        <time>2023-01-29T15:06:28Z</time>
      </trkpt>
      <trkpt lat="43.55776" lon="6.18006">
        <ele>404.9</ele>
        <time>2023-01-29T15:06:29Z</time>
      </trkpt>
      <trkpt lat="43.55776" lon="6.18">
        <ele>404.9</ele>
        <time>2023-01-29T15:06:33Z</time>
      </trkpt>
      <trkpt lat="43.55775" lon="6.17998">
        <ele>404.7</ele>
        <time>2023-01-29T15:06:35Z</time>
      </trkpt>
      <trkpt lat="43.55773" lon="6.17997">
        <ele>404.5</ele>
        <time>2023-01-29T15:06:37Z</time>
      </trkpt>
      <trkpt lat="43.55769" lon="6.17989">
        <ele>404</ele>
        <time>2023-01-29T15:06:43Z</time>
      </trkpt>
      <trkpt lat="43.55766" lon="6.17987">
        <ele>403.8</ele>
        <time>2023-01-29T15:06:47Z</time>
      </trkpt>
      <trkpt lat="43.55763" lon="6.17981">
        <ele>403.7</ele>
        <time>2023-01-29T15:06:53Z</time>
      </trkpt>
      <trkpt lat="43.55763" lon="6.17977">
        <ele>403.6</ele>
        <time>2023-01-29T15:07:00Z</time>
      </trkpt>
      <trkpt lat="43.55764" lon="6.17977">
        <ele>403.6</ele>
        <time>2023-01-29T15:07:01Z</time>
      </trkpt>
      <trkpt lat="43.55766" lon="6.17973">
        <ele>403.4</ele>
        <time>2023-01-29T15:07:05Z</time>
      </trkpt>
      <trkpt lat="43.55767" lon="6.17965">
        <ele>404.4</ele>
        <time>2023-01-29T15:07:13Z</time>
      </trkpt>
      <trkpt lat="43.55766" lon="6.17959">
        <ele>405.3</ele>
        <time>2023-01-29T15:07:46Z</time>
      </trkpt>
      <trkpt lat="43.55767" lon="6.17959">
        <ele>405.3</ele>
        <time>2023-01-29T15:08:02Z</time>
      </trkpt>
      <trkpt lat="43.55767" lon="6.1796">
        <ele>405.1</ele>
        <time>2023-01-29T15:08:34Z</time>
      </trkpt>
      <trkpt lat="43.5577" lon="6.1796">
        <ele>405</ele>
        <time>2023-01-29T15:10:23Z</time>
      </trkpt>
      <trkpt lat="43.55773" lon="6.17956">
        <ele>405.5</ele>
        <time>2023-01-29T15:10:27Z</time>
      </trkpt>
      <trkpt lat="43.55773" lon="6.17953">
        <ele>405.9</ele>
        <time>2023-01-29T15:10:31Z</time>
      </trkpt>
      <trkpt lat="43.55775" lon="6.17953">
        <ele>405.9</ele>
        <time>2023-01-29T15:11:35Z</time>
      </trkpt>
      <trkpt lat="43.55782" lon="6.17943">
        <ele>406.8</ele>
        <time>2023-01-29T15:11:54Z</time>
      </trkpt>
      <trkpt lat="43.55784" lon="6.17942">
        <ele>406.7</ele>
        <time>2023-01-29T15:11:56Z</time>
      </trkpt>
      <trkpt lat="43.55792" lon="6.17933">
        <ele>407.5</ele>
        <time>2023-01-29T15:12:04Z</time>
      </trkpt>
      <trkpt lat="43.558" lon="6.17927">
        <ele>408.1</ele>
        <time>2023-01-29T15:12:13Z</time>
      </trkpt>
      <trkpt lat="43.55803" lon="6.17926">
        <ele>408.1</ele>
        <time>2023-01-29T15:12:15Z</time>
      </trkpt>
      <trkpt lat="43.55812" lon="6.17915">
        <ele>409</ele>
        <time>2023-01-29T15:12:26Z</time>
      </trkpt>
      <trkpt lat="43.55813" lon="6.17912">
        <ele>409.3</ele>
        <time>2023-01-29T15:12:28Z</time>
      </trkpt>
      <trkpt lat="43.55816" lon="6.1791">
        <ele>409</ele>
        <time>2023-01-29T15:12:31Z</time>
      </trkpt>
      <trkpt lat="43.55822" lon="6.17901">
        <ele>409.4</ele>
        <time>2023-01-29T15:12:41Z</time>
      </trkpt>
      <trkpt lat="43.55824" lon="6.179">
        <ele>409.3</ele>
        <time>2023-01-29T15:12:43Z</time>
      </trkpt>
      <trkpt lat="43.55824" lon="6.17899">
        <ele>409.4</ele>
        <time>2023-01-29T15:12:44Z</time>
      </trkpt>
      <trkpt lat="43.55825" lon="6.17899">
        <ele>409.3</ele>
        <time>2023-01-29T15:12:45Z</time>
      </trkpt>
      <trkpt lat="43.55827" lon="6.17895">
        <ele>409.7</ele>
        <time>2023-01-29T15:12:49Z</time>
      </trkpt>
      <trkpt lat="43.55828" lon="6.17895">
        <ele>409.6</ele>
        <time>2023-01-29T15:12:50Z</time>
      </trkpt>
      <trkpt lat="43.55832" lon="6.17888">
        <ele>410.3</ele>
        <time>2023-01-29T15:12:58Z</time>
      </trkpt>
      <trkpt lat="43.55832" lon="6.17885">
        <ele>410.7</ele>
        <time>2023-01-29T15:13:00Z</time>
      </trkpt>
      <trkpt lat="43.55833" lon="6.17884">
        <ele>410.7</ele>
        <time>2023-01-29T15:13:01Z</time>
      </trkpt>
      <trkpt lat="43.55833" lon="6.17881">
        <ele>411.2</ele>
        <time>2023-01-29T15:13:03Z</time>
      </trkpt>
      <trkpt lat="43.55836" lon="6.17877">
        <ele>411.6</ele>
        <time>2023-01-29T15:13:07Z</time>
      </trkpt>
      <trkpt lat="43.55839" lon="6.17875">
        <ele>411.8</ele>
        <time>2023-01-29T15:13:09Z</time>
      </trkpt>
      <trkpt lat="43.55843" lon="6.17869">
        <ele>412.5</ele>
        <time>2023-01-29T15:13:14Z</time>
      </trkpt>
      <trkpt lat="43.55847" lon="6.17866">
        <ele>412.8</ele>
        <time>2023-01-29T15:13:18Z</time>
      </trkpt>
      <trkpt lat="43.55855" lon="6.17853">
        <ele>413.8</ele>
        <time>2023-01-29T15:13:31Z</time>
      </trkpt>
      <trkpt lat="43.55855" lon="6.17847">
        <ele>414.2</ele>
        <time>2023-01-29T15:13:35Z</time>
      </trkpt>
      <trkpt lat="43.55856" lon="6.17845">
        <ele>414.3</ele>
        <time>2023-01-29T15:13:37Z</time>
      </trkpt>
      <trkpt lat="43.55868" lon="6.17836">
        <ele>415.3</ele>
        <time>2023-01-29T15:13:49Z</time>
      </trkpt>
      <trkpt lat="43.55869" lon="6.17834">
        <ele>415.5</ele>
        <time>2023-01-29T15:13:51Z</time>
      </trkpt>
      <trkpt lat="43.55873" lon="6.17831">
        <ele>416</ele>
        <time>2023-01-29T15:13:55Z</time>
      </trkpt>
      <trkpt lat="43.5587" lon="6.1782">
        <ele>416.5</ele>
      </trkpt>
      <trkpt lat="43.55859" lon="6.17794">
        <ele>417.5</ele>
      </trkpt>
      <trkpt lat="43.55861" lon="6.17784">
        <ele>417.8</ele>
      </trkpt>
      <trkpt lat="43.55849" lon="6.17754">
        <ele>417.6</ele>
      </trkpt>
      <trkpt lat="43.55842" lon="6.17732">
        <ele>416.2</ele>
      </trkpt>
      <trkpt lat="43.55832" lon="6.1769">
        <ele>412.5</ele>
      </trkpt>
      <trkpt lat="43.5583" lon="6.17674">
        <ele>410.3</ele>
      </trkpt>
      <trkpt lat="43.55826" lon="6.17659">
        <ele>408.4</ele>
      </trkpt>
      <trkpt lat="43.55797" lon="6.17603">
        <ele>401.6</ele>
      </trkpt>
      <trkpt lat="43.55771" lon="6.17561">
        <ele>395.9</ele>
      </trkpt>
      <trkpt lat="43.55766" lon="6.17548">
        <ele>394.6</ele>
      </trkpt>
      <trkpt lat="43.55764" lon="6.17538">
        <ele>394.1</ele>
        <extensions>
          <visugpx:TrkExtension xmlns:visugpx="https://www.visugpx.com/editgpx/">
            <visugpx:node>1</visugpx:node>
            </visugpx:TrkExtension>
        </extensions>
      </trkpt>
      <trkpt lat="43.55765" lon="6.17522">
        <ele>394.2</ele>
      </trkpt>
      <trkpt lat="43.55784" lon="6.17465">
        <ele>399.1</ele>
      </trkpt>
      <trkpt lat="43.55787" lon="6.17459">
        <ele>399.3</ele>
      </trkpt>
      <trkpt lat="43.55803" lon="6.17401">
        <ele>403.2</ele>
      </trkpt>
      <trkpt lat="43.55817" lon="6.17373">
        <ele>404.7</ele>
      </trkpt>
      <trkpt lat="43.5582" lon="6.17359">
        <ele>406.2</ele>
      </trkpt>
      <trkpt lat="43.55821" lon="6.17342">
        <ele>408.4</ele>
      </trkpt>
      <trkpt lat="43.55823" lon="6.17335">
        <ele>409.4</ele>
      </trkpt>
      <trkpt lat="43.55847" lon="6.17289">
        <ele>413.4</ele>
      </trkpt>
      <trkpt lat="43.55871" lon="6.17255">
        <ele>416.5</ele>
      </trkpt>
      <trkpt lat="43.55889" lon="6.17236">
        <ele>418</ele>
      </trkpt>
      <trkpt lat="43.56002" lon="6.17159">
        <ele>420.1</ele>
      </trkpt>
      <trkpt lat="43.56018" lon="6.17154">
        <ele>419.1</ele>
      </trkpt>
      <trkpt lat="43.56047" lon="6.1714">
        <ele>420.6</ele>
      </trkpt>
      <trkpt lat="43.56061" lon="6.17142">
        <ele>420.6</ele>
      </trkpt>
      <trkpt lat="43.56075" lon="6.1714">
        <ele>420.8</ele>
      </trkpt>
      <trkpt lat="43.56084" lon="6.17135">
        <ele>421.3</ele>
      </trkpt>
      <trkpt lat="43.56091" lon="6.17125">
        <ele>422</ele>
      </trkpt>
      <trkpt lat="43.56086" lon="6.17125">
        <ele>422</ele>
        <extensions>
          <visugpx:TrkExtension xmlns:visugpx="https://www.visugpx.com/editgpx/">
            <visugpx:node>2</visugpx:node>
            </visugpx:TrkExtension>
        </extensions>
      </trkpt>
      <trkpt lat="43.56091" lon="6.17125">
        <ele>422</ele>
      </trkpt>
      <trkpt lat="43.5609" lon="6.17117">
        <ele>422.6</ele>
      </trkpt>
      <trkpt lat="43.56096" lon="6.17082">
        <ele>424.6</ele>
      </trkpt>
      <trkpt lat="43.56109" lon="6.1704">
        <ele>426.1</ele>
      </trkpt>
      <trkpt lat="43.5613" lon="6.16964">
        <ele>428.8</ele>
      </trkpt>
      <trkpt lat="43.56121" lon="6.16953">
        <ele>429.6</ele>
      </trkpt>
      <trkpt lat="43.56121" lon="6.16954">
        <ele>429.5</ele>
      </trkpt>
      <trkpt lat="43.56116" lon="6.16954">
        <ele>429.6</ele>
      </trkpt>
      <trkpt lat="43.56088" lon="6.16937">
        <ele>430.3</ele>
      </trkpt>
      <trkpt lat="43.56071" lon="6.16933">
        <ele>430.2</ele>
      </trkpt>
      <trkpt lat="43.56055" lon="6.16926">
        <ele>430.3</ele>
      </trkpt>
      <trkpt lat="43.56043" lon="6.16912">
        <ele>431</ele>
      </trkpt>
      <trkpt lat="43.56036" lon="6.16901">
        <ele>431.8</ele>
      </trkpt>
      <trkpt lat="43.56026" lon="6.16892">
        <ele>432.7</ele>
      </trkpt>
      <trkpt lat="43.56016" lon="6.16886">
        <ele>433.2</ele>
      </trkpt>
      <trkpt lat="43.55998" lon="6.16868">
        <ele>433.8</ele>
      </trkpt>
      <trkpt lat="43.55987" lon="6.16854">
        <ele>434.3</ele>
      </trkpt>
      <trkpt lat="43.55977" lon="6.16848">
        <ele>434.2</ele>
      </trkpt>
      <trkpt lat="43.55967" lon="6.16849">
        <ele>433.8</ele>
      </trkpt>
      <trkpt lat="43.55956" lon="6.16857">
        <ele>433</ele>
      </trkpt>
      <trkpt lat="43.55948" lon="6.16859">
        <ele>432.4</ele>
      </trkpt>
      <trkpt lat="43.55936" lon="6.16858">
        <ele>431.9</ele>
      </trkpt>
      <trkpt lat="43.55928" lon="6.16861">
        <ele>431.4</ele>
      </trkpt>
      <trkpt lat="43.55919" lon="6.16872">
        <ele>430.7</ele>
      </trkpt>
      <trkpt lat="43.55902" lon="6.16887">
        <ele>429</ele>
        <extensions>
          <visugpx:TrkExtension xmlns:visugpx="https://www.visugpx.com/editgpx/">
            <visugpx:node>1</visugpx:node>
            </visugpx:TrkExtension>
        </extensions>
      </trkpt>
      <trkpt lat="43.55884" lon="6.16899">
        <ele>426.4</ele>
      </trkpt>
      <trkpt lat="43.5587" lon="6.16896">
        <ele>425.2</ele>
      </trkpt>
      <trkpt lat="43.55864" lon="6.16893">
        <ele>424.9</ele>
      </trkpt>
      <trkpt lat="43.5585" lon="6.16893">
        <ele>423.7</ele>
      </trkpt>
      <trkpt lat="43.55834" lon="6.1689">
        <ele>422.9</ele>
      </trkpt>
      <trkpt lat="43.55826" lon="6.16885">
        <ele>422.7</ele>
      </trkpt>
      <trkpt lat="43.55811" lon="6.16881">
        <ele>421.7</ele>
        <extensions>
          <visugpx:TrkExtension xmlns:visugpx="https://www.visugpx.com/editgpx/">
            <visugpx:node>2</visugpx:node>
            </visugpx:TrkExtension>
        </extensions>
      </trkpt>
      <trkpt lat="43.55813" lon="6.16881">
        <ele>421.9</ele>
      </trkpt>
      <trkpt lat="43.55807" lon="6.16858">
        <ele>422.2</ele>
      </trkpt>
      <trkpt lat="43.558" lon="6.16848">
        <ele>421.5</ele>
      </trkpt>
      <trkpt lat="43.558" lon="6.16836">
        <ele>421.4</ele>
      </trkpt>
      <trkpt lat="43.55802" lon="6.16829">
        <ele>421.6</ele>
      </trkpt>
      <trkpt lat="43.55802" lon="6.1681">
        <ele>421.5</ele>
      </trkpt>
      <trkpt lat="43.55806" lon="6.16795">
        <ele>422</ele>
      </trkpt>
      <trkpt lat="43.55805" lon="6.16785">
        <ele>421.9</ele>
      </trkpt>
      <trkpt lat="43.55792" lon="6.16754">
        <ele>420</ele>
      </trkpt>
      <trkpt lat="43.55783" lon="6.16746">
        <ele>418.8</ele>
      </trkpt>
      <trkpt lat="43.55771" lon="6.16716">
        <ele>417.2</ele>
      </trkpt>
      <trkpt lat="43.55768" lon="6.16702">
        <ele>416.7</ele>
      </trkpt>
      <trkpt lat="43.55746" lon="6.16678">
        <ele>414.1</ele>
      </trkpt>
      <trkpt lat="43.55739" lon="6.16674">
        <ele>413.4</ele>
      </trkpt>
      <trkpt lat="43.55734" lon="6.16673">
        <ele>412.7</ele>
      </trkpt>
      <trkpt lat="43.55726" lon="6.16668">
        <ele>411.6</ele>
      </trkpt>
      <trkpt lat="43.5571" lon="6.16641">
        <ele>410.6</ele>
      </trkpt>
      <trkpt lat="43.55705" lon="6.16617">
        <ele>410.6</ele>
      </trkpt>
      <trkpt lat="43.55708" lon="6.16591">
        <ele>410.3</ele>
      </trkpt>
      <trkpt lat="43.55708" lon="6.1657">
        <ele>409.3</ele>
      </trkpt>
      <trkpt lat="43.5571" lon="6.16561">
        <ele>409</ele>
      </trkpt>
      <trkpt lat="43.55728" lon="6.16528">
        <ele>407.6</ele>
      </trkpt>
      <trkpt lat="43.55734" lon="6.16508">
        <ele>405.8</ele>
      </trkpt>
      <trkpt lat="43.5574" lon="6.16468">
        <ele>410.2</ele>
      </trkpt>
      <trkpt lat="43.55736" lon="6.16456">
        <ele>411.5</ele>
      </trkpt>
      <trkpt lat="43.55728" lon="6.16441">
        <ele>412.7</ele>
      </trkpt>
      <trkpt lat="43.5573" lon="6.16422">
        <ele>414.2</ele>
      </trkpt>
      <trkpt lat="43.55727" lon="6.16398">
        <ele>415</ele>
      </trkpt>
      <trkpt lat="43.55723" lon="6.16382">
        <ele>415.3</ele>
      </trkpt>
      <trkpt lat="43.55714" lon="6.16365">
        <ele>415.3</ele>
      </trkpt>
      <trkpt lat="43.55708" lon="6.16357">
        <ele>414.9</ele>
      </trkpt>
      <trkpt lat="43.55704" lon="6.16346">
        <ele>414.5</ele>
      </trkpt>
      <trkpt lat="43.55703" lon="6.16335">
        <ele>414.3</ele>
      </trkpt>
      <trkpt lat="43.55707" lon="6.16322">
        <ele>413.6</ele>
      </trkpt>
      <trkpt lat="43.55713" lon="6.16315">
        <ele>413.3</ele>
      </trkpt>
      <trkpt lat="43.55719" lon="6.1631">
        <ele>413.2</ele>
      </trkpt>
      <trkpt lat="43.55725" lon="6.16302">
        <ele>412.6</ele>
      </trkpt>
      <trkpt lat="43.55732" lon="6.16295">
        <ele>412</ele>
      </trkpt>
      <trkpt lat="43.55751" lon="6.16261">
        <ele>408.7</ele>
      </trkpt>
      <trkpt lat="43.55756" lon="6.16221">
        <ele>404.6</ele>
      </trkpt>
      <trkpt lat="43.55765" lon="6.16208">
        <ele>404.6</ele>
      </trkpt>
      <trkpt lat="43.5577" lon="6.16198">
        <ele>404.4</ele>
      </trkpt>
      <trkpt lat="43.5577" lon="6.16187">
        <ele>404.2</ele>
      </trkpt>
      <trkpt lat="43.55766" lon="6.16179">
        <ele>403.7</ele>
      </trkpt>
      <trkpt lat="43.55765" lon="6.16166">
        <ele>403.6</ele>
      </trkpt>
      <trkpt lat="43.55767" lon="6.16156">
        <ele>403.7</ele>
      </trkpt>
      <trkpt lat="43.55771" lon="6.16147">
        <ele>404.1</ele>
      </trkpt>
      <trkpt lat="43.55774" lon="6.16135">
        <ele>404.6</ele>
      </trkpt>
      <trkpt lat="43.55766" lon="6.16093">
        <ele>403.7</ele>
      </trkpt>
      <trkpt lat="43.55766" lon="6.16074">
        <ele>402.8</ele>
      </trkpt>
      <trkpt lat="43.55756" lon="6.16059">
        <ele>400.8</ele>
      </trkpt>
      <trkpt lat="43.55755" lon="6.16055">
        <ele>400.5</ele>
      </trkpt>
      <trkpt lat="43.55759" lon="6.1604">
        <ele>400.2</ele>
      </trkpt>
      <trkpt lat="43.55765" lon="6.16032">
        <ele>400.3</ele>
      </trkpt>
      <trkpt lat="43.5577" lon="6.1602">
        <ele>400.2</ele>
      </trkpt>
      <trkpt lat="43.55771" lon="6.16021">
        <ele>400.3</ele>
        <extensions>
          <visugpx:TrkExtension xmlns:visugpx="https://www.visugpx.com/editgpx/">
            <visugpx:node>3</visugpx:node>
            </visugpx:TrkExtension>
        </extensions>
      </trkpt>
      <trkpt lat="43.55785" lon="6.16047">
        <ele>403.2</ele>
      </trkpt>
      <trkpt lat="43.55799" lon="6.16059">
        <ele>405.5</ele>
      </trkpt>
      <trkpt lat="43.55812" lon="6.16074">
        <ele>407.9</ele>
      </trkpt>
      <trkpt lat="43.55825" lon="6.16078">
        <ele>409.2</ele>
      </trkpt>
      <trkpt lat="43.55839" lon="6.16078">
        <ele>410.7</ele>
      </trkpt>
      <trkpt lat="43.5586" lon="6.16098">
        <ele>414.9</ele>
      </trkpt>
      <trkpt lat="43.55878" lon="6.16111">
        <ele>418.4</ele>
      </trkpt>
      <trkpt lat="43.55886" lon="6.16112">
        <ele>419.6</ele>
      </trkpt>
      <trkpt lat="43.55899" lon="6.16126">
        <ele>422.4</ele>
        <extensions>
          <visugpx:TrkExtension xmlns:visugpx="https://www.visugpx.com/editgpx/">
            <visugpx:node>4</visugpx:node>
            </visugpx:TrkExtension>
        </extensions>
      </trkpt>
      <trkpt lat="43.559" lon="6.16169">
        <ele>423</ele>
      </trkpt>
      <trkpt lat="43.55902" lon="6.16191">
        <ele>422.5</ele>
      </trkpt>
      <trkpt lat="43.55919" lon="6.16196">
        <ele>424.3</ele>
      </trkpt>
      <trkpt lat="43.55935" lon="6.16204">
        <ele>426.9</ele>
      </trkpt>
      <trkpt lat="43.55948" lon="6.1621">
        <ele>428.4</ele>
      </trkpt>
      <trkpt lat="43.55969" lon="6.16202">
        <ele>430.7</ele>
      </trkpt>
      <trkpt lat="43.55988" lon="6.16199">
        <ele>432.2</ele>
      </trkpt>
      <trkpt lat="43.56003" lon="6.16209">
        <ele>433.7</ele>
      </trkpt>
      <trkpt lat="43.56025" lon="6.16212">
        <ele>435.8</ele>
      </trkpt>
      <trkpt lat="43.56046" lon="6.16209">
        <ele>437.6</ele>
      </trkpt>
      <trkpt lat="43.56072" lon="6.16206">
        <ele>439.6</ele>
      </trkpt>
      <trkpt lat="43.56091" lon="6.162">
        <ele>440.4</ele>
      </trkpt>
      <trkpt lat="43.5611" lon="6.1619">
        <ele>441</ele>
      </trkpt>
      <trkpt lat="43.56129" lon="6.16195">
        <ele>441</ele>
      </trkpt>
      <trkpt lat="43.56138" lon="6.16217">
        <ele>441</ele>
      </trkpt>
      <trkpt lat="43.56145" lon="6.16248">
        <ele>440.1</ele>
      </trkpt>
      <trkpt lat="43.56144" lon="6.16328">
        <ele>437.4</ele>
      </trkpt>
      <trkpt lat="43.56142" lon="6.16365">
        <ele>436.7</ele>
      </trkpt>
      <trkpt lat="43.56133" lon="6.16434">
        <ele>433.6</ele>
      </trkpt>
      <trkpt lat="43.56133" lon="6.16445">
        <ele>433.2</ele>
      </trkpt>
      <trkpt lat="43.56147" lon="6.1645">
        <ele>432.7</ele>
      </trkpt>
      <trkpt lat="43.56167" lon="6.16454">
        <ele>432.7</ele>
      </trkpt>
      <trkpt lat="43.56188" lon="6.1647">
        <ele>433.6</ele>
      </trkpt>
      <trkpt lat="43.56195" lon="6.16489">
        <ele>434.6</ele>
      </trkpt>
      <trkpt lat="43.5621" lon="6.16498">
        <ele>436</ele>
      </trkpt>
      <trkpt lat="43.56223" lon="6.16503">
        <ele>437.1</ele>
      </trkpt>
      <trkpt lat="43.56287" lon="6.16513">
        <ele>441.8</ele>
      </trkpt>
      <trkpt lat="43.56307" lon="6.16512">
        <ele>442.3</ele>
        <extensions>
          <visugpx:TrkExtension xmlns:visugpx="https://www.visugpx.com/editgpx/">
            <visugpx:node>4</visugpx:node>
            </visugpx:TrkExtension>
        </extensions>
      </trkpt>
      <trkpt lat="43.56311" lon="6.16512">
        <ele>441.7</ele>
      </trkpt>
      <trkpt lat="43.56316" lon="6.16544">
        <ele>440.7</ele>
      </trkpt>
      <trkpt lat="43.56341" lon="6.16596">
        <ele>438.8</ele>
      </trkpt>
      <trkpt lat="43.5638" lon="6.16657">
        <ele>437.9</ele>
      </trkpt>
      <trkpt lat="43.56446" lon="6.16768">
        <ele>444.6</ele>
      </trkpt>
      <trkpt lat="43.56471" lon="6.16813">
        <ele>445.9</ele>
      </trkpt>
      <trkpt lat="43.56477" lon="6.16827">
        <ele>445.9</ele>
      </trkpt>
      <trkpt lat="43.56487" lon="6.16857">
        <ele>446.5</ele>
      </trkpt>
      <trkpt lat="43.56535" lon="6.16945">
        <ele>447.2</ele>
      </trkpt>
      <trkpt lat="43.56546" lon="6.16962">
        <ele>447</ele>
      </trkpt>
      <trkpt lat="43.56559" lon="6.16976">
        <ele>446.6</ele>
      </trkpt>
      <trkpt lat="43.56579" lon="6.17001">
        <ele>445.8</ele>
      </trkpt>
      <trkpt lat="43.56606" lon="6.17041">
        <ele>444.1</ele>
      </trkpt>
      <trkpt lat="43.56619" lon="6.17052">
        <ele>441.9</ele>
      </trkpt>
      <trkpt lat="43.5663" lon="6.17067">
        <ele>439.9</ele>
      </trkpt>
      <trkpt lat="43.56653" lon="6.17108">
        <ele>437.9</ele>
      </trkpt>
      <trkpt lat="43.56687" lon="6.17178">
        <ele>435.2</ele>
      </trkpt>
      <trkpt lat="43.56711" lon="6.17214">
        <ele>434.4</ele>
        <extensions>
          <visugpx:TrkExtension xmlns:visugpx="https://www.visugpx.com/editgpx/">
            <visugpx:node>5</visugpx:node>
            </visugpx:TrkExtension>
        </extensions>
      </trkpt>
      <trkpt lat="43.567" lon="6.17241">
        <ele>438.7</ele>
        <time>2023-01-29T15:35:29Z</time>
      </trkpt>
      <trkpt lat="43.567" lon="6.17251">
        <ele>439.2</ele>
        <time>2023-01-29T15:35:37Z</time>
      </trkpt>
      <trkpt lat="43.56699" lon="6.17254">
        <ele>439.3</ele>
        <time>2023-01-29T15:35:43Z</time>
      </trkpt>
      <trkpt lat="43.56697" lon="6.17254">
        <ele>439.6</ele>
        <time>2023-01-29T15:35:47Z</time>
      </trkpt>
      <trkpt lat="43.56694" lon="6.17258">
        <ele>440</ele>
        <time>2023-01-29T15:35:52Z</time>
      </trkpt>
      <trkpt lat="43.56692" lon="6.17258">
        <ele>440.2</ele>
        <time>2023-01-29T15:35:55Z</time>
      </trkpt>
      <trkpt lat="43.56692" lon="6.17259">
        <ele>440.1</ele>
        <time>2023-01-29T15:35:56Z</time>
      </trkpt>
      <trkpt lat="43.56688" lon="6.1726">
        <ele>440.4</ele>
        <time>2023-01-29T15:36:00Z</time>
      </trkpt>
      <trkpt lat="43.56683" lon="6.17265">
        <ele>440.6</ele>
        <time>2023-01-29T15:36:07Z</time>
      </trkpt>
      <trkpt lat="43.56681" lon="6.17265">
        <ele>440.7</ele>
        <time>2023-01-29T15:36:09Z</time>
      </trkpt>
      <trkpt lat="43.56681" lon="6.17266">
        <ele>440.7</ele>
        <time>2023-01-29T15:36:10Z</time>
      </trkpt>
      <trkpt lat="43.56675" lon="6.17269">
        <ele>440.9</ele>
        <time>2023-01-29T15:36:19Z</time>
      </trkpt>
      <trkpt lat="43.56671" lon="6.17269">
        <ele>441.1</ele>
        <time>2023-01-29T15:36:24Z</time>
      </trkpt>
      <trkpt lat="43.56669" lon="6.17272">
        <ele>441.1</ele>
        <time>2023-01-29T15:36:27Z</time>
      </trkpt>
      <trkpt lat="43.56668" lon="6.17272">
        <ele>441.2</ele>
        <time>2023-01-29T15:36:28Z</time>
      </trkpt>
      <trkpt lat="43.56668" lon="6.17273">
        <ele>441.1</ele>
        <time>2023-01-29T15:36:29Z</time>
      </trkpt>
      <trkpt lat="43.56666" lon="6.17274">
        <ele>441.1</ele>
        <time>2023-01-29T15:36:34Z</time>
      </trkpt>
      <trkpt lat="43.56666" lon="6.17275">
        <ele>441.1</ele>
        <time>2023-01-29T15:36:38Z</time>
      </trkpt>
      <trkpt lat="43.56667" lon="6.17275">
        <ele>441.1</ele>
        <time>2023-01-29T15:36:54Z</time>
      </trkpt>
      <trkpt lat="43.5666" lon="6.17278">
        <ele>440.8</ele>
        <time>2023-01-29T15:37:14Z</time>
      </trkpt>
      <trkpt lat="43.56658" lon="6.17281">
        <ele>440.7</ele>
        <time>2023-01-29T15:37:18Z</time>
      </trkpt>
      <trkpt lat="43.56647" lon="6.17288">
        <ele>440</ele>
        <time>2023-01-29T15:37:29Z</time>
      </trkpt>
      <trkpt lat="43.56647" lon="6.17289">
        <ele>440</ele>
        <time>2023-01-29T15:37:30Z</time>
      </trkpt>
      <trkpt lat="43.56645" lon="6.17289">
        <ele>439.9</ele>
        <time>2023-01-29T15:37:32Z</time>
      </trkpt>
      <trkpt lat="43.5664" lon="6.17292">
        <ele>439.5</ele>
        <time>2023-01-29T15:37:38Z</time>
      </trkpt>
      <trkpt lat="43.56638" lon="6.17291">
        <ele>439.4</ele>
        <time>2023-01-29T15:37:40Z</time>
      </trkpt>
      <trkpt lat="43.56635" lon="6.17293">
        <ele>439.1</ele>
        <time>2023-01-29T15:37:43Z</time>
      </trkpt>
      <trkpt lat="43.56626" lon="6.17295">
        <ele>438.3</ele>
        <time>2023-01-29T15:37:53Z</time>
      </trkpt>
      <trkpt lat="43.56621" lon="6.17298">
        <ele>437.8</ele>
        <time>2023-01-29T15:37:58Z</time>
      </trkpt>
      <trkpt lat="43.56619" lon="6.17298">
        <ele>437.6</ele>
        <time>2023-01-29T15:38:00Z</time>
      </trkpt>
      <trkpt lat="43.56616" lon="6.173">
        <ele>437.4</ele>
        <time>2023-01-29T15:38:04Z</time>
      </trkpt>
      <trkpt lat="43.5661" lon="6.17311">
        <ele>436.9</ele>
        <time>2023-01-29T15:38:13Z</time>
      </trkpt>
      <trkpt lat="43.56609" lon="6.17315">
        <ele>436.8</ele>
        <time>2023-01-29T15:38:16Z</time>
      </trkpt>
      <trkpt lat="43.56605" lon="6.17313">
        <ele>436.6</ele>
      </trkpt>
      <trkpt lat="43.56603" lon="6.17314">
        <ele>436.4</ele>
        <time>2023-01-29T15:38:59Z</time>
      </trkpt>
      <trkpt lat="43.56603" lon="6.17315">
        <ele>436.4</ele>
        <time>2023-01-29T15:39:00Z</time>
      </trkpt>
      <trkpt lat="43.56601" lon="6.17315">
        <ele>436.3</ele>
        <time>2023-01-29T15:39:04Z</time>
      </trkpt>
      <trkpt lat="43.56602" lon="6.17315">
        <ele>436.3</ele>
        <time>2023-01-29T15:39:06Z</time>
      </trkpt>
      <trkpt lat="43.56602" lon="6.17316">
        <ele>436.3</ele>
        <time>2023-01-29T15:39:08Z</time>
      </trkpt>
      <trkpt lat="43.56597" lon="6.17317">
        <ele>436</ele>
        <time>2023-01-29T15:39:18Z</time>
      </trkpt>
      <trkpt lat="43.56597" lon="6.17318">
        <ele>436</ele>
        <time>2023-01-29T15:39:19Z</time>
      </trkpt>
      <trkpt lat="43.56595" lon="6.17318">
        <ele>435.8</ele>
        <time>2023-01-29T15:39:21Z</time>
      </trkpt>
      <trkpt lat="43.5659" lon="6.17321">
        <ele>435.5</ele>
        <time>2023-01-29T15:39:28Z</time>
      </trkpt>
      <trkpt lat="43.56588" lon="6.17326">
        <ele>435.3</ele>
        <time>2023-01-29T15:39:37Z</time>
      </trkpt>
      <trkpt lat="43.56587" lon="6.17326">
        <ele>435.3</ele>
        <time>2023-01-29T15:39:40Z</time>
      </trkpt>
      <trkpt lat="43.56587" lon="6.17327">
        <ele>435.3</ele>
        <time>2023-01-29T15:39:41Z</time>
      </trkpt>
      <trkpt lat="43.56582" lon="6.17328">
        <ele>434.9</ele>
        <time>2023-01-29T15:39:48Z</time>
      </trkpt>
      <trkpt lat="43.56582" lon="6.17329">
        <ele>434.9</ele>
        <time>2023-01-29T15:39:49Z</time>
      </trkpt>
      <trkpt lat="43.56578" lon="6.1733">
        <ele>434.6</ele>
        <time>2023-01-29T15:39:52Z</time>
      </trkpt>
      <trkpt lat="43.56578" lon="6.17331">
        <ele>434.6</ele>
        <time>2023-01-29T15:39:53Z</time>
      </trkpt>
      <trkpt lat="43.56569" lon="6.17336">
        <ele>434</ele>
        <time>2023-01-29T15:40:01Z</time>
      </trkpt>
      <trkpt lat="43.56554" lon="6.17336">
        <ele>432.9</ele>
        <time>2023-01-29T15:40:16Z</time>
      </trkpt>
      <trkpt lat="43.56549" lon="6.1734">
        <ele>432.8</ele>
        <time>2023-01-29T15:40:21Z</time>
      </trkpt>
      <trkpt lat="43.56547" lon="6.17343">
        <ele>432.7</ele>
        <time>2023-01-29T15:40:24Z</time>
      </trkpt>
      <trkpt lat="43.56546" lon="6.17348">
        <ele>432.7</ele>
        <time>2023-01-29T15:40:27Z</time>
      </trkpt>
      <trkpt lat="43.5654" lon="6.17353">
        <ele>432.4</ele>
        <time>2023-01-29T15:40:33Z</time>
      </trkpt>
      <trkpt lat="43.56535" lon="6.17355">
        <ele>432.3</ele>
        <time>2023-01-29T15:40:36Z</time>
      </trkpt>
      <trkpt lat="43.56535" lon="6.17356">
        <ele>432.3</ele>
        <time>2023-01-29T15:40:37Z</time>
      </trkpt>
      <trkpt lat="43.5653" lon="6.1736">
        <ele>432.1</ele>
        <time>2023-01-29T15:40:42Z</time>
      </trkpt>
      <trkpt lat="43.5653" lon="6.17361">
        <ele>432.1</ele>
        <time>2023-01-29T15:40:43Z</time>
      </trkpt>
      <trkpt lat="43.56523" lon="6.17361">
        <ele>431.8</ele>
        <time>2023-01-29T15:40:51Z</time>
      </trkpt>
      <trkpt lat="43.56523" lon="6.17362">
        <ele>431.9</ele>
        <time>2023-01-29T15:40:52Z</time>
      </trkpt>
      <trkpt lat="43.56521" lon="6.17363">
        <ele>431.9</ele>
        <time>2023-01-29T15:40:54Z</time>
      </trkpt>
      <trkpt lat="43.56517" lon="6.17369">
        <ele>432.1</ele>
        <time>2023-01-29T15:40:59Z</time>
      </trkpt>
      <trkpt lat="43.56514" lon="6.1737">
        <ele>432</ele>
        <time>2023-01-29T15:41:02Z</time>
      </trkpt>
      <trkpt lat="43.56505" lon="6.1737">
        <ele>431.6</ele>
        <time>2023-01-29T15:41:12Z</time>
      </trkpt>
      <trkpt lat="43.56495" lon="6.17378">
        <ele>431.2</ele>
        <time>2023-01-29T15:41:24Z</time>
      </trkpt>
      <trkpt lat="43.56494" lon="6.1738">
        <ele>431.2</ele>
        <time>2023-01-29T15:41:27Z</time>
      </trkpt>
      <trkpt lat="43.56493" lon="6.1738">
        <ele>431.2</ele>
        <time>2023-01-29T15:41:28Z</time>
      </trkpt>
      <trkpt lat="43.56492" lon="6.17382">
        <ele>431.2</ele>
        <time>2023-01-29T15:41:30Z</time>
      </trkpt>
      <trkpt lat="43.5648" lon="6.17389">
        <ele>430.6</ele>
        <time>2023-01-29T15:41:46Z</time>
      </trkpt>
      <trkpt lat="43.5648" lon="6.1739">
        <ele>430.6</ele>
        <time>2023-01-29T15:41:47Z</time>
      </trkpt>
      <trkpt lat="43.56474" lon="6.17391">
        <ele>430.1</ele>
        <time>2023-01-29T15:41:54Z</time>
      </trkpt>
      <trkpt lat="43.56472" lon="6.17389">
        <ele>430</ele>
        <time>2023-01-29T15:41:57Z</time>
      </trkpt>
      <trkpt lat="43.5647" lon="6.17389">
        <ele>429.9</ele>
        <time>2023-01-29T15:41:58Z</time>
      </trkpt>
      <trkpt lat="43.5647" lon="6.1739">
        <ele>429.9</ele>
        <time>2023-01-29T15:41:59Z</time>
      </trkpt>
      <trkpt lat="43.56469" lon="6.1739">
        <ele>429.9</ele>
        <time>2023-01-29T15:42:00Z</time>
      </trkpt>
      <trkpt lat="43.5646" lon="6.17413">
        <ele>429.9</ele>
        <time>2023-01-29T15:42:16Z</time>
      </trkpt>
      <trkpt lat="43.5646" lon="6.17418">
        <ele>430.1</ele>
        <time>2023-01-29T15:42:19Z</time>
      </trkpt>
      <trkpt lat="43.56463" lon="6.17426">
        <ele>430.6</ele>
        <time>2023-01-29T15:42:25Z</time>
      </trkpt>
      <trkpt lat="43.56463" lon="6.17434">
        <ele>431</ele>
        <time>2023-01-29T15:42:30Z</time>
      </trkpt>
      <trkpt lat="43.56464" lon="6.17435">
        <ele>431.1</ele>
        <time>2023-01-29T15:42:31Z</time>
      </trkpt>
      <trkpt lat="43.56464" lon="6.17441">
        <ele>431.5</ele>
        <time>2023-01-29T15:42:35Z</time>
      </trkpt>
      <trkpt lat="43.56463" lon="6.17442">
        <ele>431.5</ele>
        <time>2023-01-29T15:42:36Z</time>
      </trkpt>
      <trkpt lat="43.56463" lon="6.17447">
        <ele>431.8</ele>
        <time>2023-01-29T15:42:40Z</time>
      </trkpt>
      <trkpt lat="43.56468" lon="6.17458">
        <ele>432.3</ele>
        <time>2023-01-29T15:42:48Z</time>
      </trkpt>
      <trkpt lat="43.56468" lon="6.1747">
        <ele>432.8</ele>
        <time>2023-01-29T15:42:55Z</time>
      </trkpt>
      <trkpt lat="43.56466" lon="6.17476">
        <ele>432.9</ele>
        <time>2023-01-29T15:42:59Z</time>
      </trkpt>
      <trkpt lat="43.56467" lon="6.17485">
        <ele>433.4</ele>
        <time>2023-01-29T15:43:05Z</time>
      </trkpt>
      <trkpt lat="43.56466" lon="6.17487">
        <ele>433.4</ele>
        <time>2023-01-29T15:43:06Z</time>
      </trkpt>
      <trkpt lat="43.56468" lon="6.17504">
        <ele>434.3</ele>
        <time>2023-01-29T15:43:17Z</time>
      </trkpt>
      <trkpt lat="43.56467" lon="6.17505">
        <ele>434.4</ele>
        <time>2023-01-29T15:43:18Z</time>
      </trkpt>
      <trkpt lat="43.56474" lon="6.17525">
        <ele>435.9</ele>
        <time>2023-01-29T15:43:32Z</time>
      </trkpt>
      <trkpt lat="43.56474" lon="6.17547">
        <ele>437.5</ele>
        <time>2023-01-29T15:43:49Z</time>
      </trkpt>
      <trkpt lat="43.56473" lon="6.17548">
        <ele>437.5</ele>
        <time>2023-01-29T15:43:50Z</time>
      </trkpt>
      <trkpt lat="43.56473" lon="6.17554">
        <ele>437.9</ele>
        <time>2023-01-29T15:43:56Z</time>
      </trkpt>
      <trkpt lat="43.56474" lon="6.17554">
        <ele>438</ele>
        <time>2023-01-29T15:43:57Z</time>
      </trkpt>
      <trkpt lat="43.56473" lon="6.17555">
        <ele>438</ele>
        <time>2023-01-29T15:43:58Z</time>
      </trkpt>
      <trkpt lat="43.56474" lon="6.17561">
        <ele>438.3</ele>
        <time>2023-01-29T15:44:06Z</time>
      </trkpt>
      <trkpt lat="43.56475" lon="6.17561">
        <ele>438.4</ele>
        <time>2023-01-29T15:44:07Z</time>
      </trkpt>
      <trkpt lat="43.56473" lon="6.17568">
        <ele>438.5</ele>
        <time>2023-01-29T15:44:14Z</time>
      </trkpt>
      <trkpt lat="43.56473" lon="6.17575">
        <ele>438.8</ele>
        <time>2023-01-29T15:44:20Z</time>
      </trkpt>
      <trkpt lat="43.56474" lon="6.17576">
        <ele>438.9</ele>
        <time>2023-01-29T15:44:28Z</time>
      </trkpt>
      <trkpt lat="43.56477" lon="6.17576">
        <ele>439.2</ele>
        <time>2023-01-29T15:44:52Z</time>
      </trkpt>
      <trkpt lat="43.56479" lon="6.17578">
        <ele>439.5</ele>
        <time>2023-01-29T15:45:00Z</time>
      </trkpt>
      <trkpt lat="43.56478" lon="6.17578">
        <ele>439.4</ele>
        <time>2023-01-29T15:45:02Z</time>
      </trkpt>
      <trkpt lat="43.56478" lon="6.1758">
        <ele>439.5</ele>
        <time>2023-01-29T15:45:06Z</time>
      </trkpt>
      <trkpt lat="43.56479" lon="6.1758">
        <ele>439.6</ele>
        <time>2023-01-29T15:45:08Z</time>
      </trkpt>
      <trkpt lat="43.56479" lon="6.17581">
        <ele>439.6</ele>
        <time>2023-01-29T15:45:09Z</time>
      </trkpt>
      <trkpt lat="43.56485" lon="6.1758">
        <ele>440.2</ele>
        <time>2023-01-29T15:45:17Z</time>
      </trkpt>
      <trkpt lat="43.56487" lon="6.17581">
        <ele>440.5</ele>
        <time>2023-01-29T15:45:25Z</time>
      </trkpt>
      <trkpt lat="43.56488" lon="6.17579">
        <ele>440.5</ele>
        <time>2023-01-29T15:45:28Z</time>
      </trkpt>
      <trkpt lat="43.56489" lon="6.17579">
        <ele>440.6</ele>
        <time>2023-01-29T15:45:29Z</time>
      </trkpt>
      <trkpt lat="43.5649" lon="6.17576">
        <ele>440.5</ele>
        <time>2023-01-29T15:45:33Z</time>
      </trkpt>
      <trkpt lat="43.56491" lon="6.17576">
        <ele>440.6</ele>
        <time>2023-01-29T15:45:34Z</time>
      </trkpt>
      <trkpt lat="43.56491" lon="6.17575">
        <ele>440.5</ele>
        <time>2023-01-29T15:45:35Z</time>
      </trkpt>
      <trkpt lat="43.56494" lon="6.17574">
        <ele>440.8</ele>
        <time>2023-01-29T15:45:38Z</time>
      </trkpt>
      <trkpt lat="43.56494" lon="6.17572">
        <ele>440.6</ele>
        <time>2023-01-29T15:45:42Z</time>
      </trkpt>
      <trkpt lat="43.56495" lon="6.17572">
        <ele>440.7</ele>
        <time>2023-01-29T15:45:43Z</time>
      </trkpt>
      <trkpt lat="43.56495" lon="6.17573">
        <ele>440.8</ele>
        <time>2023-01-29T15:45:44Z</time>
      </trkpt>
      <trkpt lat="43.56496" lon="6.17573">
        <ele>440.9</ele>
        <time>2023-01-29T15:45:45Z</time>
      </trkpt>
      <trkpt lat="43.56496" lon="6.17574">
        <ele>440.9</ele>
        <time>2023-01-29T15:45:46Z</time>
      </trkpt>
      <trkpt lat="43.565" lon="6.17574">
        <ele>441.3</ele>
        <time>2023-01-29T15:46:18Z</time>
      </trkpt>
      <trkpt lat="43.565" lon="6.17573">
        <ele>441.3</ele>
        <time>2023-01-29T15:46:26Z</time>
      </trkpt>
      <trkpt lat="43.56512" lon="6.17571">
        <ele>442.8</ele>
        <time>2023-01-29T15:46:45Z</time>
      </trkpt>
      <trkpt lat="43.56513" lon="6.17567">
        <ele>442.7</ele>
        <time>2023-01-29T15:46:51Z</time>
      </trkpt>
      <trkpt lat="43.56519" lon="6.17566">
        <ele>443.5</ele>
        <time>2023-01-29T15:47:00Z</time>
      </trkpt>
      <trkpt lat="43.5652" lon="6.17568">
        <ele>443.8</ele>
        <time>2023-01-29T15:47:04Z</time>
      </trkpt>
      <trkpt lat="43.56524" lon="6.17568">
        <ele>444.4</ele>
        <time>2023-01-29T15:47:08Z</time>
      </trkpt>
      <trkpt lat="43.56525" lon="6.17569">
        <ele>444.6</ele>
        <time>2023-01-29T15:47:09Z</time>
      </trkpt>
      <trkpt lat="43.56537" lon="6.17569">
        <ele>445.8</ele>
        <time>2023-01-29T15:47:39Z</time>
      </trkpt>
      <trkpt lat="43.56538" lon="6.1757">
        <ele>446</ele>
        <time>2023-01-29T15:47:40Z</time>
      </trkpt>
      <trkpt lat="43.56541" lon="6.1757">
        <ele>446.2</ele>
        <time>2023-01-29T15:47:55Z</time>
      </trkpt>
      <trkpt lat="43.56541" lon="6.17571">
        <ele>446.3</ele>
        <time>2023-01-29T15:47:59Z</time>
      </trkpt>
      <trkpt lat="43.56543" lon="6.17571">
        <ele>446.5</ele>
        <time>2023-01-29T15:48:11Z</time>
      </trkpt>
      <trkpt lat="43.56549" lon="6.17581">
        <ele>447.4</ele>
        <time>2023-01-29T15:48:20Z</time>
      </trkpt>
      <trkpt lat="43.56548" lon="6.17583">
        <ele>447.4</ele>
        <time>2023-01-29T15:48:22Z</time>
      </trkpt>
      <trkpt lat="43.56549" lon="6.17585">
        <ele>447.6</ele>
        <time>2023-01-29T15:48:25Z</time>
      </trkpt>
      <trkpt lat="43.56556" lon="6.17587">
        <ele>448.3</ele>
        <time>2023-01-29T15:48:31Z</time>
      </trkpt>
      <trkpt lat="43.5656" lon="6.17585">
        <ele>448.3</ele>
        <time>2023-01-29T15:48:34Z</time>
      </trkpt>
      <trkpt lat="43.56564" lon="6.17585">
        <ele>448.4</ele>
        <time>2023-01-29T15:48:39Z</time>
      </trkpt>
      <trkpt lat="43.56565" lon="6.17587">
        <ele>448.5</ele>
        <time>2023-01-29T15:48:41Z</time>
      </trkpt>
      <trkpt lat="43.56566" lon="6.17587">
        <ele>448.5</ele>
        <time>2023-01-29T15:48:42Z</time>
      </trkpt>
      <trkpt lat="43.56569" lon="6.17592">
        <ele>448.8</ele>
        <time>2023-01-29T15:48:49Z</time>
      </trkpt>
      <trkpt lat="43.5657" lon="6.17596">
        <ele>449</ele>
        <time>2023-01-29T15:48:53Z</time>
      </trkpt>
      <trkpt lat="43.56571" lon="6.17596">
        <ele>449</ele>
        <time>2023-01-29T15:48:54Z</time>
      </trkpt>
      <trkpt lat="43.56577" lon="6.17611">
        <ele>449.2</ele>
        <time>2023-01-29T15:49:06Z</time>
      </trkpt>
      <trkpt lat="43.56584" lon="6.17614">
        <ele>448.5</ele>
        <time>2023-01-29T15:49:14Z</time>
      </trkpt>
      <trkpt lat="43.5659" lon="6.1761">
        <ele>448.3</ele>
        <time>2023-01-29T15:49:22Z</time>
      </trkpt>
      <trkpt lat="43.56595" lon="6.1761">
        <ele>447.7</ele>
        <time>2023-01-29T15:49:30Z</time>
      </trkpt>
      <trkpt lat="43.56596" lon="6.17611">
        <ele>447.6</ele>
        <time>2023-01-29T15:49:32Z</time>
      </trkpt>
      <trkpt lat="43.566" lon="6.17611">
        <ele>447.2</ele>
        <time>2023-01-29T15:49:37Z</time>
      </trkpt>
      <trkpt lat="43.56603" lon="6.17613">
        <ele>446.7</ele>
        <time>2023-01-29T15:49:39Z</time>
      </trkpt>
      <trkpt lat="43.56603" lon="6.17614">
        <ele>446.6</ele>
        <time>2023-01-29T15:49:40Z</time>
      </trkpt>
      <trkpt lat="43.56604" lon="6.17614">
        <ele>446.5</ele>
        <time>2023-01-29T15:49:41Z</time>
      </trkpt>
      <trkpt lat="43.56604" lon="6.17615">
        <ele>446.4</ele>
        <time>2023-01-29T15:49:42Z</time>
      </trkpt>
      <trkpt lat="43.56609" lon="6.17618">
        <ele>445.7</ele>
        <time>2023-01-29T15:49:47Z</time>
      </trkpt>
      <trkpt lat="43.5661" lon="6.17623">
        <ele>445.2</ele>
        <time>2023-01-29T15:49:55Z</time>
      </trkpt>
      <trkpt lat="43.56611" lon="6.17623">
        <ele>445.2</ele>
        <time>2023-01-29T15:49:57Z</time>
      </trkpt>
      <trkpt lat="43.56611" lon="6.17622">
        <ele>445.2</ele>
        <time>2023-01-29T15:49:59Z</time>
      </trkpt>
      <trkpt lat="43.56613" lon="6.17623">
        <ele>443.8</ele>
        <time>2023-01-29T15:50:06Z</time>
      </trkpt>
      <trkpt lat="43.56613" lon="6.17624">
        <ele>443.7</ele>
        <time>2023-01-29T15:50:07Z</time>
      </trkpt>
      <trkpt lat="43.56614" lon="6.17624">
        <ele>443</ele>
        <time>2023-01-29T15:50:09Z</time>
      </trkpt>
      <trkpt lat="43.56613" lon="6.17624">
        <ele>443.7</ele>
        <time>2023-01-29T15:50:11Z</time>
      </trkpt>
      <trkpt lat="43.56613" lon="6.17625">
        <ele>443.6</ele>
        <time>2023-01-29T15:50:13Z</time>
      </trkpt>
      <trkpt lat="43.56613" lon="6.17624">
        <ele>443.7</ele>
        <time>2023-01-29T15:50:14Z</time>
      </trkpt>
      <trkpt lat="43.56611" lon="6.17624">
        <ele>445.1</ele>
        <time>2023-01-29T15:50:18Z</time>
      </trkpt>
      <trkpt lat="43.56611" lon="6.17625">
        <ele>445</ele>
        <time>2023-01-29T15:50:20Z</time>
      </trkpt>
      <trkpt lat="43.5661" lon="6.17625">
        <ele>445.1</ele>
        <time>2023-01-29T15:50:22Z</time>
      </trkpt>
      <trkpt lat="43.56612" lon="6.17632">
        <ele>443.8</ele>
        <time>2023-01-29T15:50:29Z</time>
      </trkpt>
      <trkpt lat="43.56615" lon="6.17636">
        <ele>441.3</ele>
        <time>2023-01-29T15:50:33Z</time>
      </trkpt>
      <trkpt lat="43.56618" lon="6.17636">
        <ele>439.1</ele>
        <time>2023-01-29T15:50:36Z</time>
      </trkpt>
      <trkpt lat="43.56618" lon="6.17639">
        <ele>438.7</ele>
        <time>2023-01-29T15:50:39Z</time>
      </trkpt>
      <trkpt lat="43.56617" lon="6.17639">
        <ele>439.5</ele>
        <time>2023-01-29T15:50:40Z</time>
      </trkpt>
      <trkpt lat="43.56618" lon="6.17644">
        <ele>436.6</ele>
        <time>2023-01-29T15:50:46Z</time>
      </trkpt>
      <trkpt lat="43.5662" lon="6.17647">
        <ele>434</ele>
        <time>2023-01-29T15:50:53Z</time>
      </trkpt>
      <trkpt lat="43.56619" lon="6.17647">
        <ele>434.7</ele>
        <time>2023-01-29T15:55:09Z</time>
      </trkpt>
      <trkpt lat="43.56613" lon="6.17636">
        <ele>442.8</ele>
        <time>2023-01-29T15:56:14Z</time>
      </trkpt>
      <trkpt lat="43.56613" lon="6.1763">
        <ele>443.3</ele>
        <time>2023-01-29T15:56:20Z</time>
      </trkpt>
      <trkpt lat="43.5661" lon="6.17626">
        <ele>445</ele>
        <time>2023-01-29T15:56:25Z</time>
      </trkpt>
      <trkpt lat="43.56607" lon="6.17626">
        <ele>445.2</ele>
        <time>2023-01-29T15:56:29Z</time>
      </trkpt>
      <trkpt lat="43.56601" lon="6.17634">
        <ele>444.8</ele>
        <time>2023-01-29T15:56:38Z</time>
      </trkpt>
      <trkpt lat="43.566" lon="6.17634">
        <ele>444.9</ele>
        <time>2023-01-29T15:56:39Z</time>
      </trkpt>
      <trkpt lat="43.56599" lon="6.17639">
        <ele>444.4</ele>
        <time>2023-01-29T15:56:44Z</time>
      </trkpt>
      <trkpt lat="43.5659" lon="6.17645">
        <ele>442.5</ele>
        <time>2023-01-29T15:56:56Z</time>
      </trkpt>
      <trkpt lat="43.56587" lon="6.1765">
        <ele>441</ele>
        <time>2023-01-29T15:57:01Z</time>
      </trkpt>
      <trkpt lat="43.56586" lon="6.17657">
        <ele>438.7</ele>
        <time>2023-01-29T15:57:07Z</time>
      </trkpt>
      <trkpt lat="43.56585" lon="6.17657">
        <ele>438.9</ele>
        <time>2023-01-29T15:57:08Z</time>
      </trkpt>
      <trkpt lat="43.56582" lon="6.1767">
        <ele>435.1</ele>
        <time>2023-01-29T15:57:20Z</time>
      </trkpt>
      <trkpt lat="43.56581" lon="6.1767">
        <ele>435.3</ele>
        <time>2023-01-29T15:57:21Z</time>
      </trkpt>
      <trkpt lat="43.56579" lon="6.17676">
        <ele>433.4</ele>
        <time>2023-01-29T15:57:29Z</time>
      </trkpt>
      <trkpt lat="43.56578" lon="6.17676">
        <ele>433.6</ele>
        <time>2023-01-29T15:57:30Z</time>
      </trkpt>
      <trkpt lat="43.56572" lon="6.17685">
        <ele>431</ele>
        <time>2023-01-29T15:57:41Z</time>
      </trkpt>
      <trkpt lat="43.56566" lon="6.17689">
        <ele>430.2</ele>
        <time>2023-01-29T15:57:47Z</time>
      </trkpt>
      <trkpt lat="43.56566" lon="6.1769">
        <ele>429.8</ele>
        <time>2023-01-29T15:57:48Z</time>
      </trkpt>
      <trkpt lat="43.56565" lon="6.1769">
        <ele>429.9</ele>
        <time>2023-01-29T15:57:49Z</time>
      </trkpt>
      <trkpt lat="43.56565" lon="6.17691">
        <ele>429.5</ele>
        <time>2023-01-29T15:57:50Z</time>
      </trkpt>
      <trkpt lat="43.56564" lon="6.17691">
        <ele>429.6</ele>
        <time>2023-01-29T15:57:51Z</time>
      </trkpt>
      <trkpt lat="43.56564" lon="6.17692">
        <ele>429.2</ele>
        <time>2023-01-29T15:57:52Z</time>
      </trkpt>
      <trkpt lat="43.56563" lon="6.17692">
        <ele>429.3</ele>
        <time>2023-01-29T15:57:53Z</time>
      </trkpt>
      <trkpt lat="43.56563" lon="6.17693">
        <ele>428.8</ele>
        <time>2023-01-29T15:57:54Z</time>
      </trkpt>
      <trkpt lat="43.56562" lon="6.17693">
        <ele>428.9</ele>
        <time>2023-01-29T15:57:55Z</time>
      </trkpt>
      <trkpt lat="43.56561" lon="6.17695">
        <ele>428.2</ele>
        <time>2023-01-29T15:57:57Z</time>
      </trkpt>
      <trkpt lat="43.5656" lon="6.17695">
        <ele>428.3</ele>
        <time>2023-01-29T15:57:59Z</time>
      </trkpt>
      <trkpt lat="43.5656" lon="6.17696">
        <ele>427.9</ele>
        <time>2023-01-29T15:58:00Z</time>
      </trkpt>
      <trkpt lat="43.56558" lon="6.17696">
        <ele>428.1</ele>
        <time>2023-01-29T15:58:02Z</time>
      </trkpt>
      <trkpt lat="43.56558" lon="6.17697">
        <ele>427.7</ele>
        <time>2023-01-29T15:58:03Z</time>
      </trkpt>
      <trkpt lat="43.56555" lon="6.17698">
        <ele>427.6</ele>
        <time>2023-01-29T15:58:06Z</time>
      </trkpt>
      <trkpt lat="43.56555" lon="6.17699">
        <ele>427.3</ele>
        <time>2023-01-29T15:58:07Z</time>
      </trkpt>
      <trkpt lat="43.56549" lon="6.17701">
        <ele>427.1</ele>
        <time>2023-01-29T15:58:13Z</time>
      </trkpt>
      <trkpt lat="43.56546" lon="6.17706">
        <ele>425.3</ele>
        <time>2023-01-29T15:58:20Z</time>
      </trkpt>
      <trkpt lat="43.56545" lon="6.17706">
        <ele>425.4</ele>
        <time>2023-01-29T15:58:21Z</time>
      </trkpt>
      <trkpt lat="43.56545" lon="6.17707">
        <ele>425</ele>
        <time>2023-01-29T15:58:22Z</time>
      </trkpt>
      <trkpt lat="43.56541" lon="6.17709">
        <ele>424.5</ele>
        <time>2023-01-29T15:58:27Z</time>
      </trkpt>
      <trkpt lat="43.56538" lon="6.17713">
        <ele>423.1</ele>
        <time>2023-01-29T15:58:32Z</time>
      </trkpt>
      <trkpt lat="43.56538" lon="6.17716">
        <ele>421.9</ele>
        <time>2023-01-29T15:58:36Z</time>
      </trkpt>
      <trkpt lat="43.56544" lon="6.17714">
        <ele>422.2</ele>
        <time>2023-01-29T15:58:54Z</time>
      </trkpt>
      <trkpt lat="43.56545" lon="6.17716">
        <ele>421.3</ele>
        <time>2023-01-29T15:58:58Z</time>
      </trkpt>
      <trkpt lat="43.56546" lon="6.17716">
        <ele>421.2</ele>
        <time>2023-01-29T15:58:59Z</time>
      </trkpt>
      <trkpt lat="43.56546" lon="6.1772">
        <ele>419.6</ele>
        <time>2023-01-29T15:59:05Z</time>
      </trkpt>
      <trkpt lat="43.56545" lon="6.1772">
        <ele>419.7</ele>
        <time>2023-01-29T15:59:06Z</time>
      </trkpt>
      <trkpt lat="43.56545" lon="6.17722">
        <ele>418.9</ele>
        <time>2023-01-29T15:59:08Z</time>
      </trkpt>
      <trkpt lat="43.56544" lon="6.17722">
        <ele>418.9</ele>
        <time>2023-01-29T15:59:09Z</time>
      </trkpt>
      <trkpt lat="43.5654" lon="6.17732">
        <ele>415.2</ele>
        <time>2023-01-29T15:59:20Z</time>
      </trkpt>
      <trkpt lat="43.56539" lon="6.17732">
        <ele>415.3</ele>
        <time>2023-01-29T15:59:21Z</time>
      </trkpt>
      <trkpt lat="43.56535" lon="6.17737">
        <ele>413.6</ele>
        <time>2023-01-29T15:59:29Z</time>
      </trkpt>
      <trkpt lat="43.56532" lon="6.17738">
        <ele>413.4</ele>
        <time>2023-01-29T15:59:33Z</time>
      </trkpt>
      <trkpt lat="43.56532" lon="6.17739">
        <ele>413.1</ele>
        <time>2023-01-29T15:59:34Z</time>
      </trkpt>
      <trkpt lat="43.56531" lon="6.17739">
        <ele>413.1</ele>
        <time>2023-01-29T15:59:35Z</time>
      </trkpt>
      <trkpt lat="43.56531" lon="6.1774">
        <ele>412.7</ele>
        <time>2023-01-29T15:59:39Z</time>
      </trkpt>
      <trkpt lat="43.56532" lon="6.1774">
        <ele>412.7</ele>
        <time>2023-01-29T15:59:41Z</time>
      </trkpt>
      <trkpt lat="43.56532" lon="6.17739">
        <ele>413.1</ele>
        <time>2023-01-29T15:59:43Z</time>
      </trkpt>
      <trkpt lat="43.56537" lon="6.17737">
        <ele>413.5</ele>
        <time>2023-01-29T15:59:53Z</time>
      </trkpt>
      <trkpt lat="43.56542" lon="6.17737">
        <ele>413.1</ele>
        <time>2023-01-29T15:59:59Z</time>
      </trkpt>
      <trkpt lat="43.56542" lon="6.17738">
        <ele>412.7</ele>
        <time>2023-01-29T16:00:00Z</time>
      </trkpt>
      <trkpt lat="43.56546" lon="6.17738">
        <ele>412.4</ele>
        <time>2023-01-29T16:00:04Z</time>
      </trkpt>
      <trkpt lat="43.56546" lon="6.17739">
        <ele>412</ele>
        <time>2023-01-29T16:00:05Z</time>
      </trkpt>
      <trkpt lat="43.56554" lon="6.17738">
        <ele>411.9</ele>
        <time>2023-01-29T16:00:14Z</time>
      </trkpt>
      <trkpt lat="43.56557" lon="6.17739">
        <ele>411.1</ele>
        <time>2023-01-29T16:00:17Z</time>
      </trkpt>
      <trkpt lat="43.56557" lon="6.1774">
        <ele>410.7</ele>
        <time>2023-01-29T16:00:18Z</time>
      </trkpt>
      <trkpt lat="43.5656" lon="6.1774">
        <ele>410.1</ele>
        <time>2023-01-29T16:00:22Z</time>
      </trkpt>
      <trkpt lat="43.56561" lon="6.17739">
        <ele>410.3</ele>
        <time>2023-01-29T16:00:23Z</time>
      </trkpt>
      <trkpt lat="43.56564" lon="6.17739">
        <ele>409.7</ele>
        <time>2023-01-29T16:00:26Z</time>
      </trkpt>
      <trkpt lat="43.56565" lon="6.1774">
        <ele>409.1</ele>
        <time>2023-01-29T16:00:27Z</time>
      </trkpt>
      <trkpt lat="43.56566" lon="6.17739">
        <ele>409.3</ele>
        <time>2023-01-29T16:00:28Z</time>
      </trkpt>
      <trkpt lat="43.56573" lon="6.17738">
        <ele>408.3</ele>
        <time>2023-01-29T16:00:37Z</time>
      </trkpt>
      <trkpt lat="43.56573" lon="6.17737">
        <ele>408.7</ele>
        <time>2023-01-29T16:00:38Z</time>
      </trkpt>
      <trkpt lat="43.56577" lon="6.17736">
        <ele>408.3</ele>
        <time>2023-01-29T16:00:42Z</time>
      </trkpt>
      <trkpt lat="43.56577" lon="6.17735">
        <ele>408.7</ele>
        <time>2023-01-29T16:00:43Z</time>
      </trkpt>
      <trkpt lat="43.56579" lon="6.17735">
        <ele>408.3</ele>
        <time>2023-01-29T16:00:45Z</time>
      </trkpt>
      <trkpt lat="43.56579" lon="6.17736">
        <ele>407.9</ele>
        <time>2023-01-29T16:00:46Z</time>
      </trkpt>
      <trkpt lat="43.56592" lon="6.17736">
        <ele>405.5</ele>
        <time>2023-01-29T16:01:00Z</time>
      </trkpt>
      <trkpt lat="43.56594" lon="6.17737">
        <ele>404.8</ele>
        <time>2023-01-29T16:01:02Z</time>
      </trkpt>
      <trkpt lat="43.56594" lon="6.17738">
        <ele>404.5</ele>
        <time>2023-01-29T16:01:03Z</time>
      </trkpt>
      <trkpt lat="43.56599" lon="6.17738">
        <ele>403.6</ele>
        <time>2023-01-29T16:01:08Z</time>
      </trkpt>
      <trkpt lat="43.566" lon="6.17737">
        <ele>403.7</ele>
        <time>2023-01-29T16:01:09Z</time>
      </trkpt>
      <trkpt lat="43.56604" lon="6.17737">
        <ele>403</ele>
        <time>2023-01-29T16:01:13Z</time>
      </trkpt>
      <trkpt lat="43.56605" lon="6.17738">
        <ele>402.5</ele>
        <time>2023-01-29T16:01:14Z</time>
      </trkpt>
      <trkpt lat="43.5661" lon="6.17738">
        <ele>401.7</ele>
        <time>2023-01-29T16:01:21Z</time>
      </trkpt>
      <trkpt lat="43.56613" lon="6.17736">
        <ele>401.6</ele>
        <time>2023-01-29T16:01:25Z</time>
      </trkpt>
      <trkpt lat="43.5662" lon="6.17736">
        <ele>400.1</ele>
        <time>2023-01-29T16:01:34Z</time>
      </trkpt>
      <trkpt lat="43.56621" lon="6.17737">
        <ele>399.6</ele>
        <time>2023-01-29T16:01:35Z</time>
      </trkpt>
      <trkpt lat="43.56624" lon="6.17736">
        <ele>399.2</ele>
        <time>2023-01-29T16:01:39Z</time>
      </trkpt>
      <trkpt lat="43.56624" lon="6.17735">
        <ele>399.5</ele>
        <time>2023-01-29T16:01:40Z</time>
      </trkpt>
      <trkpt lat="43.5663" lon="6.17736">
        <ele>398</ele>
        <time>2023-01-29T16:01:48Z</time>
      </trkpt>
      <trkpt lat="43.5663" lon="6.17737">
        <ele>397.7</ele>
        <time>2023-01-29T16:01:50Z</time>
      </trkpt>
      <trkpt lat="43.56632" lon="6.17738">
        <ele>396.9</ele>
        <time>2023-01-29T16:01:53Z</time>
      </trkpt>
      <trkpt lat="43.56637" lon="6.17738">
        <ele>395.9</ele>
        <time>2023-01-29T16:01:59Z</time>
      </trkpt>
      <trkpt lat="43.56638" lon="6.17739">
        <ele>395.4</ele>
        <time>2023-01-29T16:02:00Z</time>
      </trkpt>
      <trkpt lat="43.56646" lon="6.17739">
        <ele>394.1</ele>
        <time>2023-01-29T16:02:09Z</time>
      </trkpt>
      <trkpt lat="43.56646" lon="6.1774">
        <ele>393.8</ele>
        <time>2023-01-29T16:02:10Z</time>
      </trkpt>
      <trkpt lat="43.56649" lon="6.1774">
        <ele>393.3</ele>
        <time>2023-01-29T16:02:15Z</time>
      </trkpt>
      <trkpt lat="43.56651" lon="6.17743">
        <ele>392.1</ele>
        <time>2023-01-29T16:02:20Z</time>
      </trkpt>
      <trkpt lat="43.56653" lon="6.17754">
        <ele>388.7</ele>
        <time>2023-01-29T16:02:33Z</time>
      </trkpt>
      <trkpt lat="43.56642" lon="6.17773">
        <ele>386.7</ele>
        <time>2023-01-29T16:02:51Z</time>
      </trkpt>
      <trkpt lat="43.56642" lon="6.17775">
        <ele>386.2</ele>
        <time>2023-01-29T16:02:53Z</time>
      </trkpt>
      <trkpt lat="43.56641" lon="6.17775">
        <ele>386.4</ele>
        <time>2023-01-29T16:02:54Z</time>
      </trkpt>
      <trkpt lat="43.56641" lon="6.17777">
        <ele>385.9</ele>
        <time>2023-01-29T16:02:56Z</time>
      </trkpt>
      <trkpt lat="43.56647" lon="6.17778">
        <ele>385.1</ele>
        <time>2023-01-29T16:03:06Z</time>
      </trkpt>
      <trkpt lat="43.56647" lon="6.17784">
        <ele>384.1</ele>
        <time>2023-01-29T16:03:12Z</time>
      </trkpt>
      <trkpt lat="43.56648" lon="6.17784">
        <ele>384</ele>
        <time>2023-01-29T16:03:14Z</time>
      </trkpt>
      <trkpt lat="43.56647" lon="6.17787">
        <ele>383.6</ele>
        <time>2023-01-29T16:03:17Z</time>
      </trkpt>
      <trkpt lat="43.5665" lon="6.17793">
        <ele>382.3</ele>
        <time>2023-01-29T16:03:23Z</time>
      </trkpt>
      <trkpt lat="43.56653" lon="6.17792">
        <ele>382.2</ele>
        <time>2023-01-29T16:03:26Z</time>
      </trkpt>
      <trkpt lat="43.56653" lon="6.17791">
        <ele>382.3</ele>
        <time>2023-01-29T16:03:27Z</time>
      </trkpt>
      <trkpt lat="43.56655" lon="6.17791">
        <ele>382.2</ele>
        <time>2023-01-29T16:03:29Z</time>
      </trkpt>
      <trkpt lat="43.56668" lon="6.17785">
        <ele>381.8</ele>
        <time>2023-01-29T16:03:45Z</time>
      </trkpt>
      <trkpt lat="43.56673" lon="6.17793">
        <ele>380.4</ele>
        <time>2023-01-29T16:03:53Z</time>
      </trkpt>
      <trkpt lat="43.56679" lon="6.17796">
        <ele>379.6</ele>
        <time>2023-01-29T16:03:59Z</time>
      </trkpt>
      <trkpt lat="43.56679" lon="6.17797">
        <ele>379.5</ele>
        <time>2023-01-29T16:04:00Z</time>
      </trkpt>
      <trkpt lat="43.5668" lon="6.17797">
        <ele>379.5</ele>
        <time>2023-01-29T16:04:01Z</time>
      </trkpt>
      <trkpt lat="43.56683" lon="6.17805">
        <ele>378.5</ele>
        <time>2023-01-29T16:04:08Z</time>
      </trkpt>
    </trkseg>
  </trk>
</gpx>